Wetterdaten: Dienstag, 29.11.2016
Datum Zeit Temp. A. Temp. A. max Feuchte A. Luftdruck Regen Wind Richtung Richtung Sonnenschein ET UV Solar Taupunkt Windböen
29.11.2016 00:00 -6,3 °C -6,3 °C 91 % 1029,5 hPa 0,0 mm 1,6 km/h (1 Bft) O-NO 76 ° 0 min 0,000 mm 0,0 UV-I 0 W/m² -7,5 °C 3,2 km/h (1 Bft)
29.11.2016 00:01 -6,3 °C -6,3 °C 91 % 1029,4 hPa 0,0 mm 2,0 km/h (1 Bft) O-NO 76 ° 0 min 0,000 mm 0,0 UV-I 0 W/m² -7,5 °C 3,2 km/h (1 Bft)
29.11.2016 00:02 -6,3 °C -6,3 °C 91 % 1029,4 hPa 0,0 mm 3,3 km/h (1 Bft) O-SO 107 ° 0 min 0,000 mm 0,0 UV-I 0 W/m² -7,5 °C 4,8 km/h (1 Bft)
29.11.2016 00:03 -6,4 °C -6,3 °C 91 % 1029,5 hPa 0,0 mm 3,7 km/h (1 Bft) O-SO 107 ° 0 min 0,000 mm 0,0 UV-I 0 W/m² -7,6 °C 4,8 km/h (1 Bft)
29.11.2016 00:04 -6,4 °C -6,4 °C 91 % 1029,4 hPa 0,0 mm 3,0 km/h (1 Bft) O-SO 108 ° 0 min 0,000 mm 0,0 UV-I 0 W/m² -7,6 °C 4,8 km/h (1 Bft)
29.11.2016 00:05 -6,4 °C -6,4 °C 91 % 1029,4 hPa 0,0 mm 2,0 km/h (1 Bft) O-SO 108 ° 0 min 0,000 mm 0,0 UV-I 0 W/m² -7,6 °C 4,8 km/h (1 Bft)
29.11.2016 00:06 -6,4 °C -6,4 °C 91 % 1029,4 hPa 0,0 mm 1,3 km/h (1 Bft) O-SO 108 ° 0 min 0,000 mm 0,0 UV-I 0 W/m² -7,6 °C 3,2 km/h (1 Bft)
29.11.2016 00:07 -6,4 °C -6,4 °C 91 % 1029,5 hPa 0,0 mm 3,4 km/h (1 Bft) O-NO 66 ° 0 min 0,000 mm 0,0 UV-I 0 W/m² -7,6 °C 4,8 km/h (1 Bft)
29.11.2016 00:08 -6,4 °C -6,4 °C 91 % 1029,5 hPa 0,0 mm 1,9 km/h (1 Bft) O-NO 66 ° 0 min 0,000 mm 0,0 UV-I 0 W/m² -7,6 °C 3,2 km/h (1 Bft)
29.11.2016 00:09 -6,4 °C -6,4 °C 91 % 1029,5 hPa 0,0 mm 2,7 km/h (1 Bft) O 94 ° 0 min 0,000 mm 0,0 UV-I 0 W/m² -7,6 °C 4,8 km/h (1 Bft)
29.11.2016 00:10 -6,4 °C -6,4 °C 91 % 1029,5 hPa 0,0 mm 4,0 km/h (1 Bft) O 94 ° 0 min 0,000 mm 0,0 UV-I 0 W/m² -7,6 °C 4,8 km/h (1 Bft)
29.11.2016 00:11 -6,5 °C -6,4 °C 91 % 1029,5 hPa 0,0 mm 3,6 km/h (1 Bft) O 98 ° 0 min 0,000 mm 0,0 UV-I 0 W/m² -7,7 °C 4,8 km/h (1 Bft)
29.11.2016 00:12 -6,4 °C -6,4 °C 91 % 1029,5 hPa 0,0 mm 3,6 km/h (1 Bft) O 98 ° 0 min 0,000 mm 0,0 UV-I 0 W/m² -7,6 °C 4,8 km/h (1 Bft)
29.11.2016 00:13 -6,5 °C -6,4 °C 91 % 1029,5 hPa 0,0 mm 0,7 km/h (0 Bft) O 98 ° 0 min 0,000 mm 0,0 UV-I 0 W/m² -7,7 °C 1,6 km/h (1 Bft)
29.11.2016 00:14 -6,5 °C -6,5 °C 91 % 1029,5 hPa 0,0 mm 0,6 km/h (0 Bft) O 98 ° 0 min 0,000 mm 0,0 UV-I 0 W/m² -7,7 °C 1,6 km/h (1 Bft)
29.11.2016 00:15 -6,6 °C -6,5 °C 91 % 1029,5 hPa 0,0 mm 2,2 km/h (1 Bft) O 98 ° 0 min 0,000 mm 0,0 UV-I 0 W/m² -7,8 °C 3,2 km/h (1 Bft)
29.11.2016 00:16 -6,6 °C -6,5 °C 91 % 1029,5 hPa 0,0 mm 1,9 km/h (1 Bft) O 98 ° 0 min 0,000 mm 0,0 UV-I 0 W/m² -7,8 °C 3,2 km/h (1 Bft)
29.11.2016 00:17 -6,6 °C -6,5 °C 91 % 1029,6 hPa 0,0 mm 2,1 km/h (1 Bft) O 98 ° 0 min 0,000 mm 0,0 UV-I 0 W/m² -7,8 °C 4,8 km/h (1 Bft)
29.11.2016 00:18 -6,6 °C -6,6 °C 91 % 1029,6 hPa 0,0 mm 0,8 km/h (0 Bft) O 98 ° 0 min 0,000 mm 0,0 UV-I 0 W/m² -7,8 °C 1,6 km/h (1 Bft)
29.11.2016 00:19 -6,6 °C -6,6 °C 91 % 1029,6 hPa 0,0 mm 0,0 km/h (0 Bft) O 98 ° 0 min 0,000 mm 0,0 UV-I 0 W/m² -7,8 °C 0,0 km/h (0 Bft)
29.11.2016 00:20 -6,6 °C -6,6 °C 91 % 1029,6 hPa 0,0 mm 0,0 km/h (0 Bft) O 98 ° 0 min 0,000 mm 0,0 UV-I 0 W/m² -7,8 °C 0,0 km/h (0 Bft)
29.11.2016 00:21 -6,6 °C -6,6 °C 91 % 1029,6 hPa 0,0 mm 0,0 km/h (0 Bft) O 98 ° 0 min 0,000 mm 0,0 UV-I 0 W/m² -7,8 °C 0,0 km/h (0 Bft)
29.11.2016 00:22 -6,6 °C -6,6 °C 91 % 1029,5 hPa 0,0 mm 0,7 km/h (0 Bft) O 98 ° 0 min 0,000 mm 0,0 UV-I 0 W/m² -7,8 °C 3,2 km/h (1 Bft)
29.11.2016 00:23 -6,6 °C -6,6 °C 91 % 1029,6 hPa 0,0 mm 0,4 km/h (0 Bft) O 98 ° 0 min 0,000 mm 0,0 UV-I 0 W/m² -7,8 °C 3,2 km/h (1 Bft)
29.11.2016 00:24 -6,6 °C -6,6 °C 91 % 1029,6 hPa 0,0 mm 0,0 km/h (0 Bft) O 98 ° 0 min 0,000 mm 0,0 UV-I 0 W/m² -7,8 °C 0,0 km/h (0 Bft)
29.11.2016 00:25 -6,6 °C -6,6 °C 91 % 1029,5 hPa 0,0 mm 0,0 km/h (0 Bft) O 98 ° 0 min 0,000 mm 0,0 UV-I 0 W/m² -7,8 °C 0,0 km/h (0 Bft)
29.11.2016 00:26 -6,7 °C -6,6 °C 91 % 1029,6 hPa 0,0 mm 0,0 km/h (0 Bft) O 98 ° 0 min 0,000 mm 0,0 UV-I 0 W/m² -7,9 °C 0,0 km/h (0 Bft)
29.11.2016 00:27 -6,7 °C -6,7 °C 91 % 1029,6 hPa 0,0 mm 0,0 km/h (0 Bft) O 98 ° 0 min 0,000 mm 0,0 UV-I 0 W/m² -7,9 °C 0,0 km/h (0 Bft)
29.11.2016 00:28 -6,7 °C -6,7 °C 91 % 1029,6 hPa 0,0 mm 0,0 km/h (0 Bft) O 98 ° 0 min 0,000 mm 0,0 UV-I 0 W/m² -7,9 °C 0,0 km/h (0 Bft)
29.11.2016 00:29 -6,7 °C -6,7 °C 91 % 1029,6 hPa 0,0 mm 0,4 km/h (0 Bft) O 99 ° 0 min 0,000 mm 0,0 UV-I 0 W/m² -7,9 °C 3,2 km/h (1 Bft)
29.11.2016 00:30 -6,7 °C -6,7 °C 91 % 1029,6 hPa 0,0 mm 0,9 km/h (0 Bft) O 98 ° 0 min 0,000 mm 0,0 UV-I 0 W/m² -7,9 °C 3,2 km/h (1 Bft)
29.11.2016 00:31 -6,7 °C -6,7 °C 92 % 1029,6 hPa 0,0 mm 0,8 km/h (0 Bft) O 99 ° 0 min 0,000 mm 0,0 UV-I 0 W/m² -7,8 °C 1,6 km/h (1 Bft)
29.11.2016 00:32 -6,7 °C -6,7 °C 92 % 1029,6 hPa 0,0 mm 1,7 km/h (1 Bft) O 98 ° 0 min 0,000 mm 0,0 UV-I 0 W/m² -7,8 °C 3,2 km/h (1 Bft)
29.11.2016 00:33 -6,7 °C -6,7 °C 91 % 1029,6 hPa 0,0 mm 1,6 km/h (1 Bft) O 98 ° 0 min 0,000 mm 0,0 UV-I 0 W/m² -7,9 °C 3,2 km/h (1 Bft)
29.11.2016 00:34 -6,7 °C -6,7 °C 92 % 1029,6 hPa 0,0 mm 1,7 km/h (1 Bft) O 99 ° 0 min 0,000 mm 0,0 UV-I 0 W/m² -7,8 °C 3,2 km/h (1 Bft)
29.11.2016 00:35 -6,7 °C -6,7 °C 92 % 1029,5 hPa 0,0 mm 2,4 km/h (1 Bft) O 98 ° 0 min 0,000 mm 0,0 UV-I 0 W/m² -7,8 °C 3,2 km/h (1 Bft)
29.11.2016 00:36 -6,7 °C -6,7 °C 92 % 1029,6 hPa 0,0 mm 1,9 km/h (1 Bft) O 98 ° 0 min 0,000 mm 0,0 UV-I 0 W/m² -7,8 °C 3,2 km/h (1 Bft)
29.11.2016 00:37 -6,8 °C -6,7 °C 92 % 1029,5 hPa 0,0 mm 2,1 km/h (1 Bft) O 98 ° 0 min 0,000 mm 0,0 UV-I 0 W/m² -7,9 °C 3,2 km/h (1 Bft)
29.11.2016 00:38 -6,7 °C -6,7 °C 92 % 1029,6 hPa 0,0 mm 2,6 km/h (1 Bft) O 99 ° 0 min 0,000 mm 0,0 UV-I 0 W/m² -7,8 °C 3,2 km/h (1 Bft)
29.11.2016 00:39 -6,7 °C -6,7 °C 92 % 1029,6 hPa 0,0 mm 0,9 km/h (0 Bft) O 98 ° 0 min 0,000 mm 0,0 UV-I 0 W/m² -7,8 °C 1,6 km/h (1 Bft)
29.11.2016 00:40 -6,8 °C -6,7 °C 92 % 1029,5 hPa 0,0 mm 0,6 km/h (0 Bft) O 99 ° 0 min 0,000 mm 0,0 UV-I 0 W/m² -7,9 °C 1,6 km/h (1 Bft)
29.11.2016 00:41 -6,8 °C -6,7 °C 92 % 1029,6 hPa 0,0 mm 1,8 km/h (1 Bft) O 98 ° 0 min 0,000 mm 0,0 UV-I 0 W/m² -7,9 °C 3,2 km/h (1 Bft)
29.11.2016 00:42 -6,7 °C -6,7 °C 92 % 1029,5 hPa 0,0 mm 1,5 km/h (1 Bft) O 99 ° 0 min 0,000 mm 0,0 UV-I 0 W/m² -7,8 °C 1,6 km/h (1 Bft)
29.11.2016 00:43 -6,8 °C -6,7 °C 92 % 1029,5 hPa 0,0 mm 0,7 km/h (0 Bft) O 98 ° 0 min 0,000 mm 0,0 UV-I 0 W/m² -7,9 °C 1,6 km/h (1 Bft)
29.11.2016 00:44 -6,8 °C -6,8 °C 92 % 1029,5 hPa 0,0 mm 3,1 km/h (1 Bft) O-SO 111 ° 0 min 0,000 mm 0,0 UV-I 0 W/m² -7,9 °C 4,8 km/h (1 Bft)
29.11.2016 00:45 -6,8 °C -6,8 °C 92 % 1029,5 hPa 0,0 mm 1,7 km/h (1 Bft) O-SO 111 ° 0 min 0,000 mm 0,0 UV-I 0 W/m² -7,9 °C 3,2 km/h (1 Bft)
29.11.2016 00:46 -6,8 °C -6,8 °C 92 % 1029,5 hPa 0,0 mm 3,0 km/h (1 Bft) O-SO 115 ° 0 min 0,000 mm 0,0 UV-I 0 W/m² -7,9 °C 3,2 km/h (1 Bft)
29.11.2016 00:47 -6,8 °C -6,8 °C 92 % 1029,5 hPa 0,0 mm 2,3 km/h (1 Bft) O-SO 117 ° 0 min 0,000 mm 0,0 UV-I 0 W/m² -7,9 °C 3,2 km/h (1 Bft)
29.11.2016 00:48 -6,8 °C -6,8 °C 92 % 1029,5 hPa 0,0 mm 0,7 km/h (0 Bft) O-SO 117 ° 0 min 0,000 mm 0,0 UV-I 0 W/m² -7,9 °C 1,6 km/h (1 Bft)
29.11.2016 00:49 -6,8 °C -6,8 °C 92 % 1029,5 hPa 0,0 mm 1,0 km/h (0 Bft) O-SO 117 ° 0 min 0,000 mm 0,0 UV-I 0 W/m² -7,9 °C 1,6 km/h (1 Bft)
29.11.2016 00:50 -6,8 °C -6,8 °C 92 % 1029,5 hPa 0,0 mm 1,4 km/h (1 Bft) O-SO 117 ° 0 min 0,000 mm 0,0 UV-I 0 W/m² -7,9 °C 3,2 km/h (1 Bft)
29.11.2016 00:51 -6,8 °C -6,8 °C 92 % 1029,5 hPa 0,0 mm 0,5 km/h (0 Bft) O-SO 117 ° 0 min 0,000 mm 0,0 UV-I 0 W/m² -7,9 °C 1,6 km/h (1 Bft)
29.11.2016 00:52 -6,8 °C -6,8 °C 92 % 1029,5 hPa 0,0 mm 0,5 km/h (0 Bft) O-SO 117 ° 0 min 0,000 mm 0,0 UV-I 0 W/m² -7,9 °C 1,6 km/h (1 Bft)
29.11.2016 00:53 -6,8 °C -6,8 °C 92 % 1029,5 hPa 0,0 mm 0,9 km/h (0 Bft) O-SO 117 ° 0 min 0,000 mm 0,0 UV-I 0 W/m² -7,9 °C 1,6 km/h (1 Bft)
29.11.2016 00:54 -6,8 °C -6,8 °C 92 % 1029,6 hPa 0,0 mm 1,1 km/h (1 Bft) O-SO 117 ° 0 min 0,000 mm 0,0 UV-I 0 W/m² -7,9 °C 3,2 km/h (1 Bft)
29.11.2016 00:55 -6,8 °C -6,8 °C 92 % 1029,6 hPa 0,0 mm 1,6 km/h (1 Bft) O-SO 118 ° 0 min 0,000 mm 0,0 UV-I 0 W/m² -7,9 °C 3,2 km/h (1 Bft)
29.11.2016 00:56 -6,8 °C -6,8 °C 92 % 1029,6 hPa 0,0 mm 2,1 km/h (1 Bft) O-SO 118 ° 0 min 0,000 mm 0,0 UV-I 0 W/m² -7,9 °C 3,2 km/h (1 Bft)
29.11.2016 00:57 -6,8 °C -6,8 °C 92 % 1029,6 hPa 0,0 mm 3,4 km/h (1 Bft) O 100 ° 0 min 0,000 mm 0,0 UV-I 0 W/m² -7,9 °C 4,8 km/h (1 Bft)
29.11.2016 00:58 -6,8 °C -6,8 °C 92 % 1029,6 hPa 0,0 mm 2,4 km/h (1 Bft) O 100 ° 0 min 0,000 mm 0,0 UV-I 0 W/m² -7,9 °C 3,2 km/h (1 Bft)
29.11.2016 00:59 -6,8 °C -6,8 °C 92 % 1029,6 hPa 0,0 mm 1,7 km/h (1 Bft) O 100 ° 0 min 0,000 mm 0,0 UV-I 0 W/m² -7,9 °C 3,2 km/h (1 Bft)
29.11.2016 01:00 -6,8 °C -6,8 °C 92 % 1029,6 hPa 0,0 mm 1,8 km/h (1 Bft) SO 134 ° 0 min 0,000 mm 0,0 UV-I 0 W/m² -7,9 °C 3,2 km/h (1 Bft)
29.11.2016 01:01 -6,8 °C -6,8 °C 92 % 1029,7 hPa 0,0 mm 1,8 km/h (1 Bft) SO 134 ° 0 min 0,000 mm 0,0 UV-I 0 W/m² -7,9 °C 3,2 km/h (1 Bft)
29.11.2016 01:02 -6,8 °C -6,8 °C 92 % 1029,6 hPa 0,0 mm 1,7 km/h (1 Bft) SO 134 ° 0 min 0,000 mm 0,0 UV-I 0 W/m² -7,9 °C 3,2 km/h (1 Bft)
29.11.2016 01:03 -6,8 °C -6,8 °C 92 % 1029,6 hPa 0,0 mm 3,0 km/h (1 Bft) SO 134 ° 0 min 0,000 mm 0,0 UV-I 0 W/m² -7,9 °C 4,8 km/h (1 Bft)
29.11.2016 01:04 -6,8 °C -6,8 °C 92 % 1029,6 hPa 0,0 mm 2,6 km/h (1 Bft) O 91 ° 0 min 0,000 mm 0,0 UV-I 0 W/m² -7,9 °C 3,2 km/h (1 Bft)
29.11.2016 01:05 -6,8 °C -6,8 °C 92 % 1029,5 hPa 0,0 mm 0,7 km/h (0 Bft) O 91 ° 0 min 0,000 mm 0,0 UV-I 0 W/m² -7,9 °C 1,6 km/h (1 Bft)
29.11.2016 01:06 -6,8 °C -6,8 °C 92 % 1029,5 hPa 0,0 mm 2,1 km/h (1 Bft) O 91 ° 0 min 0,000 mm 0,0 UV-I 0 W/m² -7,9 °C 3,2 km/h (1 Bft)
29.11.2016 01:07 -6,8 °C -6,8 °C 92 % 1029,6 hPa 0,0 mm 1,3 km/h (1 Bft) O 91 ° 0 min 0,000 mm 0,0 UV-I 0 W/m² -7,9 °C 1,6 km/h (1 Bft)
29.11.2016 01:08 -6,8 °C -6,8 °C 92 % 1029,6 hPa 0,0 mm 2,4 km/h (1 Bft) O 91 ° 0 min 0,000 mm 0,0 UV-I 0 W/m² -7,9 °C 4,8 km/h (1 Bft)
29.11.2016 01:09 -6,9 °C -6,8 °C 92 % 1029,6 hPa 0,0 mm 3,1 km/h (1 Bft) O 92 ° 0 min 0,000 mm 0,0 UV-I 0 W/m² -8,0 °C 4,8 km/h (1 Bft)
29.11.2016 01:10 -6,9 °C -6,8 °C 92 % 1029,6 hPa 0,0 mm 1,8 km/h (1 Bft) O 92 ° 0 min 0,000 mm 0,0 UV-I 0 W/m² -8,0 °C 3,2 km/h (1 Bft)
29.11.2016 01:11 -6,9 °C -6,9 °C 92 % 1029,6 hPa 0,0 mm 4,2 km/h (1 Bft) O 90 ° 0 min 0,000 mm 0,0 UV-I 0 W/m² -8,0 °C 6,4 km/h (2 Bft)
29.11.2016 01:12 -6,9 °C -6,8 °C 92 % 1029,6 hPa 0,0 mm 3,4 km/h (1 Bft) O-SO 105 ° 0 min 0,000 mm 0,0 UV-I 0 W/m² -8,0 °C 4,8 km/h (1 Bft)
29.11.2016 01:13 -6,9 °C -6,8 °C 92 % 1029,6 hPa 0,0 mm 1,7 km/h (1 Bft) O-SO 105 ° 0 min 0,000 mm 0,0 UV-I 0 W/m² -8,0 °C 3,2 km/h (1 Bft)
29.11.2016 01:14 -6,9 °C -6,8 °C 92 % 1029,7 hPa 0,0 mm 2,6 km/h (1 Bft) O-SO 105 ° 0 min 0,000 mm 0,0 UV-I 0 W/m² -8,0 °C 3,2 km/h (1 Bft)
29.11.2016 01:15 -6,9 °C -6,9 °C 92 % 1029,6 hPa 0,0 mm 3,3 km/h (1 Bft) O-SO 115 ° 0 min 0,000 mm 0,0 UV-I 0 W/m² -8,0 °C 4,8 km/h (1 Bft)
29.11.2016 01:16 -6,9 °C -6,9 °C 92 % 1029,6 hPa 0,0 mm 1,9 km/h (1 Bft) O-SO 115 ° 0 min 0,000 mm 0,0 UV-I 0 W/m² -8,0 °C 3,2 km/h (1 Bft)
29.11.2016 01:17 -6,9 °C -6,9 °C 92 % 1029,6 hPa 0,0 mm 2,7 km/h (1 Bft) O-SO 115 ° 0 min 0,000 mm 0,0 UV-I 0 W/m² -8,0 °C 4,8 km/h (1 Bft)
29.11.2016 01:18 -6,9 °C -6,9 °C 92 % 1029,6 hPa 0,0 mm 3,0 km/h (1 Bft) O 100 ° 0 min 0,000 mm 0,0 UV-I 0 W/m² -8,0 °C 4,8 km/h (1 Bft)
29.11.2016 01:19 -6,9 °C -6,9 °C 92 % 1029,6 hPa 0,0 mm 3,1 km/h (1 Bft) O-SO 115 ° 0 min 0,000 mm 0,0 UV-I 0 W/m² -8,0 °C 4,8 km/h (1 Bft)
29.11.2016 01:20 -6,9 °C -6,9 °C 92 % 1029,6 hPa 0,0 mm 4,2 km/h (1 Bft) O-SO 117 ° 0 min 0,000 mm 0,0 UV-I 0 W/m² -8,0 °C 4,8 km/h (1 Bft)
29.11.2016 01:21 -6,9 °C -6,9 °C 92 % 1029,6 hPa 0,0 mm 3,6 km/h (1 Bft) O-SO 103 ° 0 min 0,000 mm 0,0 UV-I 0 W/m² -8,0 °C 4,8 km/h (1 Bft)
29.11.2016 01:22 -6,9 °C -6,9 °C 92 % 1029,6 hPa 0,0 mm 3,6 km/h (1 Bft) O 98 ° 0 min 0,000 mm 0,0 UV-I 0 W/m² -8,0 °C 6,4 km/h (2 Bft)
29.11.2016 01:23 -6,9 °C -6,9 °C 92 % 1029,6 hPa 0,0 mm 4,2 km/h (1 Bft) O 93 ° 0 min 0,000 mm 0,0 UV-I 0 W/m² -8,0 °C 4,8 km/h (1 Bft)
29.11.2016 01:24 -6,9 °C -6,9 °C 92 % 1029,6 hPa 0,0 mm 4,3 km/h (1 Bft) O 96 ° 0 min 0,000 mm 0,0 UV-I 0 W/m² -8,0 °C 6,4 km/h (2 Bft)
29.11.2016 01:25 -6,9 °C -6,9 °C 92 % 1029,6 hPa 0,0 mm 2,4 km/h (1 Bft) SO 130 ° 0 min 0,000 mm 0,0 UV-I 0 W/m² -8,0 °C 6,4 km/h (2 Bft)
29.11.2016 01:26 -6,9 °C -6,9 °C 92 % 1029,6 hPa 0,0 mm 4,6 km/h (1 Bft) O-SO 114 ° 0 min 0,000 mm 0,0 UV-I 0 W/m² -8,0 °C 6,4 km/h (2 Bft)
29.11.2016 01:27 -6,9 °C -6,9 °C 92 % 1029,6 hPa 0,0 mm 2,3 km/h (1 Bft) O 99 ° 0 min 0,000 mm 0,0 UV-I 0 W/m² -8,0 °C 3,2 km/h (1 Bft)
29.11.2016 01:28 -6,9 °C -6,9 °C 92 % 1029,6 hPa 0,0 mm 2,3 km/h (1 Bft) O-SO 123 ° 0 min 0,000 mm 0,0 UV-I 0 W/m² -8,0 °C 3,2 km/h (1 Bft)
29.11.2016 01:29 -6,9 °C -6,9 °C 92 % 1029,6 hPa 0,0 mm 1,0 km/h (0 Bft) O-SO 123 ° 0 min 0,000 mm 0,0 UV-I 0 W/m² -8,0 °C 1,6 km/h (1 Bft)
29.11.2016 01:30 -6,9 °C -6,9 °C 92 % 1029,6 hPa 0,0 mm 1,2 km/h (1 Bft) O-SO 123 ° 0 min 0,000 mm 0,0 UV-I 0 W/m² -8,0 °C 1,6 km/h (1 Bft)
29.11.2016 01:31 -6,9 °C -6,9 °C 92 % 1029,6 hPa 0,0 mm 3,0 km/h (1 Bft) O 98 ° 0 min 0,000 mm 0,0 UV-I 0 W/m² -8,0 °C 4,8 km/h (1 Bft)
29.11.2016 01:32 -6,9 °C -6,9 °C 92 % 1029,6 hPa 0,0 mm 3,2 km/h (1 Bft) O 97 ° 0 min 0,000 mm 0,0 UV-I 0 W/m² -8,0 °C 6,4 km/h (2 Bft)
29.11.2016 01:33 -6,9 °C -6,9 °C 92 % 1029,6 hPa 0,0 mm 3,0 km/h (1 Bft) O 96 ° 0 min 0,000 mm 0,0 UV-I 0 W/m² -8,0 °C 4,8 km/h (1 Bft)
29.11.2016 01:34 -6,9 °C -6,9 °C 92 % 1029,6 hPa 0,0 mm 2,7 km/h (1 Bft) O-SO 113 ° 0 min 0,000 mm 0,0 UV-I 0 W/m² -8,0 °C 6,4 km/h (2 Bft)
29.11.2016 01:35 -6,9 °C -6,9 °C 92 % 1029,6 hPa 0,0 mm 3,0 km/h (1 Bft) O-SO 104 ° 0 min 0,000 mm 0,0 UV-I 0 W/m² -8,0 °C 4,8 km/h (1 Bft)
29.11.2016 01:36 -6,9 °C -6,9 °C 92 % 1029,7 hPa 0,0 mm 2,9 km/h (1 Bft) O-SO 104 ° 0 min 0,000 mm 0,0 UV-I 0 W/m² -8,0 °C 4,8 km/h (1 Bft)
29.11.2016 01:37 -6,9 °C -6,9 °C 92 % 1029,7 hPa 0,0 mm 2,7 km/h (1 Bft) O-SO 104 ° 0 min 0,000 mm 0,0 UV-I 0 W/m² -8,0 °C 3,2 km/h (1 Bft)
29.11.2016 01:38 -6,9 °C -6,9 °C 91 % 1029,7 hPa 0,0 mm 2,1 km/h (1 Bft) O-SO 104 ° 0 min 0,000 mm 0,0 UV-I 0 W/m² -8,1 °C 3,2 km/h (1 Bft)
29.11.2016 01:39 -6,9 °C -6,9 °C 91 % 1029,7 hPa 0,0 mm 1,9 km/h (1 Bft) O-SO 104 ° 0 min 0,000 mm 0,0 UV-I 0 W/m² -8,1 °C 3,2 km/h (1 Bft)
29.11.2016 01:40 -6,9 °C -6,9 °C 91 % 1029,7 hPa 0,0 mm 2,5 km/h (1 Bft) O-SO 104 ° 0 min 0,000 mm 0,0 UV-I 0 W/m² -8,1 °C 3,2 km/h (1 Bft)
29.11.2016 01:41 -7,0 °C -6,9 °C 91 % 1029,7 hPa 0,0 mm 2,2 km/h (1 Bft) O-SO 105 ° 0 min 0,000 mm 0,0 UV-I 0 W/m² -8,2 °C 3,2 km/h (1 Bft)
29.11.2016 01:42 -6,9 °C -6,9 °C 91 % 1029,7 hPa 0,0 mm 0,8 km/h (0 Bft) O-SO 105 ° 0 min 0,000 mm 0,0 UV-I 0 W/m² -8,1 °C 3,2 km/h (1 Bft)
29.11.2016 01:43 -7,0 °C -6,9 °C 92 % 1029,7 hPa 0,0 mm 2,5 km/h (1 Bft) O-SO 111 ° 0 min 0,000 mm 0,0 UV-I 0 W/m² -8,1 °C 4,8 km/h (1 Bft)
29.11.2016 01:44 -7,1 °C -7,0 °C 91 % 1029,7 hPa 0,0 mm 3,2 km/h (1 Bft) O-SO 110 ° 0 min 0,000 mm 0,0 UV-I 0 W/m² -8,3 °C 4,8 km/h (1 Bft)
29.11.2016 01:45 -7,0 °C -7,0 °C 91 % 1029,7 hPa 0,0 mm 2,0 km/h (1 Bft) O-SO 110 ° 0 min 0,000 mm 0,0 UV-I 0 W/m² -8,2 °C 3,2 km/h (1 Bft)
29.11.2016 01:46 -7,0 °C -7,0 °C 91 % 1029,8 hPa 0,0 mm 0,6 km/h (0 Bft) O-SO 110 ° 0 min 0,000 mm 0,0 UV-I 0 W/m² -8,2 °C 3,2 km/h (1 Bft)
29.11.2016 01:47 -7,0 °C -7,0 °C 91 % 1029,8 hPa 0,0 mm 1,2 km/h (1 Bft) O-SO 110 ° 0 min 0,000 mm 0,0 UV-I 0 W/m² -8,2 °C 3,2 km/h (1 Bft)
29.11.2016 01:48 -7,1 °C -7,0 °C 91 % 1029,8 hPa 0,0 mm 2,5 km/h (1 Bft) O-SO 110 ° 0 min 0,000 mm 0,0 UV-I 0 W/m² -8,3 °C 3,2 km/h (1 Bft)
29.11.2016 01:49 -7,1 °C -7,1 °C 91 % 1029,8 hPa 0,0 mm 1,7 km/h (1 Bft) O-SO 110 ° 0 min 0,000 mm 0,0 UV-I 0 W/m² -8,3 °C 3,2 km/h (1 Bft)
29.11.2016 01:50 -7,1 °C -7,1 °C 91 % 1029,7 hPa 0,0 mm 3,8 km/h (1 Bft) O-SO 123 ° 0 min 0,000 mm 0,0 UV-I 0 W/m² -8,3 °C 6,4 km/h (2 Bft)
29.11.2016 01:51 -7,1 °C -7,1 °C 91 % 1029,8 hPa 0,0 mm 2,3 km/h (1 Bft) O-SO 123 ° 0 min 0,000 mm 0,0 UV-I 0 W/m² -8,3 °C 3,2 km/h (1 Bft)
29.11.2016 01:52 -7,1 °C -7,1 °C 91 % 1029,8 hPa 0,0 mm 2,9 km/h (1 Bft) O-SO 123 ° 0 min 0,000 mm 0,0 UV-I 0 W/m² -8,3 °C 3,2 km/h (1 Bft)
29.11.2016 01:53 -7,1 °C -7,1 °C 91 % 1029,7 hPa 0,0 mm 2,2 km/h (1 Bft) O-SO 123 ° 0 min 0,000 mm 0,0 UV-I 0 W/m² -8,3 °C 3,2 km/h (1 Bft)
29.11.2016 01:54 -7,1 °C -7,1 °C 91 % 1029,7 hPa 0,0 mm 1,8 km/h (1 Bft) O-SO 123 ° 0 min 0,000 mm 0,0 UV-I 0 W/m² -8,3 °C 3,2 km/h (1 Bft)
29.11.2016 01:55 -7,1 °C -7,1 °C 91 % 1029,7 hPa 0,0 mm 0,9 km/h (0 Bft) O-SO 123 ° 0 min 0,000 mm 0,0 UV-I 0 W/m² -8,3 °C 1,6 km/h (1 Bft)
29.11.2016 01:56 -7,1 °C -7,1 °C 91 % 1029,8 hPa 0,0 mm 1,7 km/h (1 Bft) O-SO 123 ° 0 min 0,000 mm 0,0 UV-I 0 W/m² -8,3 °C 3,2 km/h (1 Bft)
29.11.2016 01:57 -7,2 °C -7,1 °C 91 % 1029,8 hPa 0,0 mm 1,9 km/h (1 Bft) O-SO 123 ° 0 min 0,000 mm 0,0 UV-I 0 W/m² -8,4 °C 3,2 km/h (1 Bft)
29.11.2016 01:58 -7,2 °C -7,2 °C 91 % 1029,7 hPa 0,0 mm 1,9 km/h (1 Bft) O-SO 123 ° 0 min 0,000 mm 0,0 UV-I 0 W/m² -8,4 °C 3,2 km/h (1 Bft)
29.11.2016 01:59 -7,2 °C -7,2 °C 91 % 1029,8 hPa 0,0 mm 2,6 km/h (1 Bft) O-SO 123 ° 0 min 0,000 mm 0,0 UV-I 0 W/m² -8,4 °C 4,8 km/h (1 Bft)
29.11.2016 02:00 -7,2 °C -7,2 °C 91 % 1029,7 hPa 0,0 mm 1,7 km/h (1 Bft) O-SO 123 ° 0 min 0,000 mm 0,0 UV-I 0 W/m² -8,4 °C 3,2 km/h (1 Bft)
29.11.2016 02:01 -7,2 °C -7,2 °C 91 % 1029,7 hPa 0,0 mm 1,7 km/h (1 Bft) SO 143 ° 0 min 0,000 mm 0,0 UV-I 0 W/m² -8,4 °C 3,2 km/h (1 Bft)
29.11.2016 02:02 -7,2 °C -7,2 °C 92 % 1029,7 hPa 0,0 mm 1,1 km/h (1 Bft) SO 143 ° 0 min 0,000 mm 0,0 UV-I 0 W/m² -8,3 °C 3,2 km/h (1 Bft)
29.11.2016 02:03 -7,2 °C -7,2 °C 92 % 1029,7 hPa 0,0 mm 1,2 km/h (1 Bft) SO 143 ° 0 min 0,000 mm 0,0 UV-I 0 W/m² -8,3 °C 1,6 km/h (1 Bft)
29.11.2016 02:04 -7,3 °C -7,2 °C 92 % 1029,7 hPa 0,0 mm 1,2 km/h (1 Bft) SO 143 ° 0 min 0,000 mm 0,0 UV-I 0 W/m² -8,4 °C 1,6 km/h (1 Bft)
29.11.2016 02:05 -7,2 °C -7,2 °C 92 % 1029,7 hPa 0,0 mm 1,2 km/h (1 Bft) SO 143 ° 0 min 0,000 mm 0,0 UV-I 0 W/m² -8,3 °C 1,6 km/h (1 Bft)
29.11.2016 02:06 -7,2 °C -7,2 °C 92 % 1029,8 hPa 0,0 mm 0,8 km/h (0 Bft) SO 143 ° 0 min 0,000 mm 0,0 UV-I 0 W/m² -8,3 °C 1,6 km/h (1 Bft)
29.11.2016 02:07 -7,3 °C -7,2 °C 92 % 1029,8 hPa 0,0 mm 1,6 km/h (1 Bft) SO 143 ° 0 min 0,000 mm 0,0 UV-I 0 W/m² -8,4 °C 3,2 km/h (1 Bft)
29.11.2016 02:08 -7,3 °C -7,2 °C 92 % 1029,8 hPa 0,0 mm 0,7 km/h (0 Bft) SO 143 ° 0 min 0,000 mm 0,0 UV-I 0 W/m² -8,4 °C 1,6 km/h (1 Bft)
29.11.2016 02:09 -7,3 °C -7,3 °C 92 % 1029,8 hPa 0,0 mm 0,8 km/h (0 Bft) SO 143 ° 0 min 0,000 mm 0,0 UV-I 0 W/m² -8,4 °C 1,6 km/h (1 Bft)
29.11.2016 02:10 -7,3 °C -7,3 °C 92 % 1029,8 hPa 0,0 mm 1,3 km/h (1 Bft) SO 143 ° 0 min 0,000 mm 0,0 UV-I 0 W/m² -8,4 °C 1,6 km/h (1 Bft)
29.11.2016 02:11 -7,3 °C -7,3 °C 92 % 1029,8 hPa 0,0 mm 1,0 km/h (0 Bft) SO 143 ° 0 min 0,000 mm 0,0 UV-I 0 W/m² -8,4 °C 1,6 km/h (1 Bft)
29.11.2016 02:12 -7,3 °C -7,3 °C 92 % 1029,8 hPa 0,0 mm 1,3 km/h (1 Bft) SO 143 ° 0 min 0,000 mm 0,0 UV-I 0 W/m² -8,4 °C 1,6 km/h (1 Bft)
29.11.2016 02:13 -7,3 °C -7,3 °C 92 % 1029,8 hPa 0,0 mm 2,4 km/h (1 Bft) SO 143 ° 0 min 0,000 mm 0,0 UV-I 0 W/m² -8,4 °C 3,2 km/h (1 Bft)
29.11.2016 02:14 -7,3 °C -7,3 °C 92 % 1029,9 hPa 0,0 mm 3,0 km/h (1 Bft) SO 140 ° 0 min 0,000 mm 0,0 UV-I 0 W/m² -8,4 °C 4,8 km/h (1 Bft)
29.11.2016 02:15 -7,3 °C -7,3 °C 92 % 1029,9 hPa 0,0 mm 2,2 km/h (1 Bft) SO 140 ° 0 min 0,000 mm 0,0 UV-I 0 W/m² -8,4 °C 3,2 km/h (1 Bft)
29.11.2016 02:16 -7,3 °C -7,3 °C 92 % 1029,8 hPa 0,0 mm 2,1 km/h (1 Bft) SO 140 ° 0 min 0,000 mm 0,0 UV-I 0 W/m² -8,4 °C 3,2 km/h (1 Bft)
29.11.2016 02:17 -7,3 °C -7,3 °C 92 % 1029,8 hPa 0,0 mm 0,7 km/h (0 Bft) SO 140 ° 0 min 0,000 mm 0,0 UV-I 0 W/m² -8,4 °C 1,6 km/h (1 Bft)
29.11.2016 02:18 -7,3 °C -7,3 °C 92 % 1029,8 hPa 0,0 mm 0,1 km/h (0 Bft) SO 140 ° 0 min 0,000 mm 0,0 UV-I 0 W/m² -8,4 °C 1,6 km/h (1 Bft)
29.11.2016 02:19 -7,3 °C -7,3 °C 92 % 1029,8 hPa 0,0 mm 0,0 km/h (0 Bft) SO 140 ° 0 min 0,000 mm 0,0 UV-I 0 W/m² -8,4 °C 0,0 km/h (0 Bft)
29.11.2016 02:20 -7,3 °C -7,3 °C 92 % 1029,8 hPa 0,0 mm 0,9 km/h (0 Bft) SO 140 ° 0 min 0,000 mm 0,0 UV-I 0 W/m² -8,4 °C 1,6 km/h (1 Bft)
29.11.2016 02:21 -7,3 °C -7,3 °C 92 % 1029,8 hPa 0,0 mm 2,3 km/h (1 Bft) O 98 ° 0 min 0,000 mm 0,0 UV-I 0 W/m² -8,4 °C 4,8 km/h (1 Bft)
29.11.2016 02:22 -7,3 °C -7,3 °C 92 % 1029,8 hPa 0,0 mm 3,2 km/h (1 Bft) O 98 ° 0 min 0,000 mm 0,0 UV-I 0 W/m² -8,4 °C 4,8 km/h (1 Bft)
29.11.2016 02:23 -7,3 °C -7,3 °C 92 % 1029,8 hPa 0,0 mm 1,9 km/h (1 Bft) O-SO 105 ° 0 min 0,000 mm 0,0 UV-I 0 W/m² -8,4 °C 3,2 km/h (1 Bft)
29.11.2016 02:24 -7,4 °C -7,3 °C 92 % 1029,8 hPa 0,0 mm 3,0 km/h (1 Bft) O 99 ° 0 min 0,000 mm 0,0 UV-I 0 W/m² -8,5 °C 4,8 km/h (1 Bft)
29.11.2016 02:25 -7,4 °C -7,3 °C 92 % 1029,8 hPa 0,0 mm 2,0 km/h (1 Bft) O 99 ° 0 min 0,000 mm 0,0 UV-I 0 W/m² -8,5 °C 4,8 km/h (1 Bft)
29.11.2016 02:26 -7,3 °C -7,3 °C 92 % 1029,8 hPa 0,0 mm 1,5 km/h (1 Bft) O 99 ° 0 min 0,000 mm 0,0 UV-I 0 W/m² -8,4 °C 3,2 km/h (1 Bft)
29.11.2016 02:27 -7,4 °C -7,3 °C 92 % 1029,8 hPa 0,0 mm 2,1 km/h (1 Bft) O 99 ° 0 min 0,000 mm 0,0 UV-I 0 W/m² -8,5 °C 3,2 km/h (1 Bft)
29.11.2016 02:28 -7,4 °C -7,4 °C 92 % 1029,9 hPa 0,0 mm 1,9 km/h (1 Bft) O 99 ° 0 min 0,000 mm 0,0 UV-I 0 W/m² -8,5 °C 3,2 km/h (1 Bft)
29.11.2016 02:29 -7,4 °C -7,4 °C 92 % 1029,8 hPa 0,0 mm 2,6 km/h (1 Bft) O 99 ° 0 min 0,000 mm 0,0 UV-I 0 W/m² -8,5 °C 3,2 km/h (1 Bft)
29.11.2016 02:30 -7,4 °C -7,4 °C 92 % 1029,9 hPa 0,0 mm 3,2 km/h (1 Bft) O 99 ° 0 min 0,000 mm 0,0 UV-I 0 W/m² -8,5 °C 3,2 km/h (1 Bft)
29.11.2016 02:31 -7,4 °C -7,4 °C 92 % 1029,9 hPa 0,0 mm 1,3 km/h (1 Bft) O 99 ° 0 min 0,000 mm 0,0 UV-I 0 W/m² -8,5 °C 3,2 km/h (1 Bft)
29.11.2016 02:32 -7,4 °C -7,4 °C 92 % 1029,9 hPa 0,0 mm 1,4 km/h (1 Bft) O 99 ° 0 min 0,000 mm 0,0 UV-I 0 W/m² -8,5 °C 3,2 km/h (1 Bft)
29.11.2016 02:33 -7,4 °C -7,4 °C 92 % 1029,9 hPa 0,0 mm 0,6 km/h (0 Bft) O 99 ° 0 min 0,000 mm 0,0 UV-I 0 W/m² -8,5 °C 1,6 km/h (1 Bft)
29.11.2016 02:34 -7,4 °C -7,4 °C 92 % 1029,9 hPa 0,0 mm 0,8 km/h (0 Bft) O 99 ° 0 min 0,000 mm 0,0 UV-I 0 W/m² -8,5 °C 3,2 km/h (1 Bft)
29.11.2016 02:35 -7,4 °C -7,4 °C 92 % 1029,9 hPa 0,0 mm 1,3 km/h (1 Bft) O 99 ° 0 min 0,000 mm 0,0 UV-I 0 W/m² -8,5 °C 1,6 km/h (1 Bft)
29.11.2016 02:36 -7,4 °C -7,4 °C 92 % 1029,9 hPa 0,0 mm 0,6 km/h (0 Bft) O 99 ° 0 min 0,000 mm 0,0 UV-I 0 W/m² -8,5 °C 1,6 km/h (1 Bft)
29.11.2016 02:37 -7,4 °C -7,4 °C 92 % 1029,8 hPa 0,0 mm 0,7 km/h (0 Bft) O 99 ° 0 min 0,000 mm 0,0 UV-I 0 W/m² -8,5 °C 1,6 km/h (1 Bft)
29.11.2016 02:38 -7,4 °C -7,4 °C 92 % 1029,8 hPa 0,0 mm 1,0 km/h (0 Bft) O 99 ° 0 min 0,000 mm 0,0 UV-I 0 W/m² -8,5 °C 1,6 km/h (1 Bft)
29.11.2016 02:39 -7,4 °C -7,4 °C 92 % 1029,8 hPa 0,0 mm 0,6 km/h (0 Bft) O 99 ° 0 min 0,000 mm 0,0 UV-I 0 W/m² -8,5 °C 1,6 km/h (1 Bft)
29.11.2016 02:40 -7,4 °C -7,4 °C 92 % 1029,8 hPa 0,0 mm 1,6 km/h (1 Bft) O 99 ° 0 min 0,000 mm 0,0 UV-I 0 W/m² -8,5 °C 1,6 km/h (1 Bft)
29.11.2016 02:41 -7,5 °C -7,4 °C 92 % 1029,9 hPa 0,0 mm 2,5 km/h (1 Bft) O 99 ° 0 min 0,000 mm 0,0 UV-I 0 W/m² -8,6 °C 3,2 km/h (1 Bft)
29.11.2016 02:42 -7,5 °C -7,4 °C 92 % 1029,9 hPa 0,0 mm 1,7 km/h (1 Bft) O 99 ° 0 min 0,000 mm 0,0 UV-I 0 W/m² -8,6 °C 3,2 km/h (1 Bft)
29.11.2016 02:43 -7,5 °C -7,5 °C 92 % 1029,9 hPa 0,0 mm 2,3 km/h (1 Bft) O-SO 104 ° 0 min 0,000 mm 0,0 UV-I 0 W/m² -8,6 °C 3,2 km/h (1 Bft)
29.11.2016 02:44 -7,5 °C -7,5 °C 92 % 1029,9 hPa 0,0 mm 1,5 km/h (1 Bft) O-SO 104 ° 0 min 0,000 mm 0,0 UV-I 0 W/m² -8,6 °C 3,2 km/h (1 Bft)
29.11.2016 02:45 -7,5 °C -7,5 °C 92 % 1029,9 hPa 0,0 mm 0,7 km/h (0 Bft) O-SO 104 ° 0 min 0,000 mm 0,0 UV-I 0 W/m² -8,6 °C 1,6 km/h (1 Bft)
29.11.2016 02:46 -7,5 °C -7,5 °C 92 % 1030,0 hPa 0,0 mm 2,1 km/h (1 Bft) O-SO 105 ° 0 min 0,000 mm 0,0 UV-I 0 W/m² -8,6 °C 4,8 km/h (1 Bft)
29.11.2016 02:47 -7,5 °C -7,5 °C 92 % 1030,0 hPa 0,0 mm 1,9 km/h (1 Bft) O-SO 112 ° 0 min 0,000 mm 0,0 UV-I 0 W/m² -8,6 °C 3,2 km/h (1 Bft)
29.11.2016 02:48 -7,5 °C -7,5 °C 92 % 1030,0 hPa 0,0 mm 1,1 km/h (1 Bft) O-SO 112 ° 0 min 0,000 mm 0,0 UV-I 0 W/m² -8,6 °C 1,6 km/h (1 Bft)
29.11.2016 02:49 -7,5 °C -7,4 °C 92 % 1030,0 hPa 0,0 mm 2,8 km/h (1 Bft) O-SO 113 ° 0 min 0,000 mm 0,0 UV-I 0 W/m² -8,6 °C 4,8 km/h (1 Bft)
29.11.2016 02:50 -7,4 °C -7,4 °C 93 % 1030,0 hPa 0,0 mm 2,7 km/h (1 Bft) O-SO 113 ° 0 min 0,000 mm 0,0 UV-I 0 W/m² -8,3 °C 3,2 km/h (1 Bft)
29.11.2016 02:51 -7,4 °C -7,4 °C 93 % 1030,0 hPa 0,0 mm 2,0 km/h (1 Bft) O-SO 113 ° 0 min 0,000 mm 0,0 UV-I 0 W/m² -8,3 °C 3,2 km/h (1 Bft)
29.11.2016 02:52 -7,5 °C -7,4 °C 93 % 1029,9 hPa 0,0 mm 1,5 km/h (1 Bft) O-SO 113 ° 0 min 0,000 mm 0,0 UV-I 0 W/m² -8,4 °C 3,2 km/h (1 Bft)
29.11.2016 02:53 -7,4 °C -7,4 °C 93 % 1030,0 hPa 0,0 mm 2,3 km/h (1 Bft) O-SO 113 ° 0 min 0,000 mm 0,0 UV-I 0 W/m² -8,3 °C 4,8 km/h (1 Bft)
29.11.2016 02:54 -7,4 °C -7,4 °C 93 % 1030,0 hPa 0,0 mm 1,8 km/h (1 Bft) O-SO 113 ° 0 min 0,000 mm 0,0 UV-I 0 W/m² -8,3 °C 3,2 km/h (1 Bft)
29.11.2016 02:55 -7,4 °C -7,4 °C 93 % 1030,0 hPa 0,0 mm 2,3 km/h (1 Bft) O-SO 113 ° 0 min 0,000 mm 0,0 UV-I 0 W/m² -8,3 °C 3,2 km/h (1 Bft)
29.11.2016 02:56 -7,4 °C -7,4 °C 93 % 1030,0 hPa 0,0 mm 3,0 km/h (1 Bft) O-SO 119 ° 0 min 0,000 mm 0,0 UV-I 0 W/m² -8,3 °C 3,2 km/h (1 Bft)
29.11.2016 02:57 -7,4 °C -7,4 °C 93 % 1030,0 hPa 0,0 mm 2,5 km/h (1 Bft) O-SO 119 ° 0 min 0,000 mm 0,0 UV-I 0 W/m² -8,3 °C 3,2 km/h (1 Bft)
29.11.2016 02:58 -7,4 °C -7,4 °C 93 % 1030,0 hPa 0,0 mm 2,1 km/h (1 Bft) O-SO 119 ° 0 min 0,000 mm 0,0 UV-I 0 W/m² -8,3 °C 3,2 km/h (1 Bft)
29.11.2016 02:59 -7,4 °C -7,4 °C 93 % 1030,0 hPa 0,0 mm 3,6 km/h (1 Bft) O-SO 117 ° 0 min 0,000 mm 0,0 UV-I 0 W/m² -8,3 °C 6,4 km/h (2 Bft)
29.11.2016 03:00 -7,4 °C -7,4 °C 93 % 1030,0 hPa 0,0 mm 2,5 km/h (1 Bft) O-SO 117 ° 0 min 0,000 mm 0,0 UV-I 0 W/m² -8,3 °C 4,8 km/h (1 Bft)
29.11.2016 03:01 -7,4 °C -7,4 °C 93 % 1030,0 hPa 0,0 mm 3,2 km/h (1 Bft) O-SO 109 ° 0 min 0,000 mm 0,0 UV-I 0 W/m² -8,3 °C 4,8 km/h (1 Bft)
29.11.2016 03:02 -7,4 °C -7,4 °C 93 % 1030,1 hPa 0,0 mm 1,5 km/h (1 Bft) O-SO 109 ° 0 min 0,000 mm 0,0 UV-I 0 W/m² -8,3 °C 3,2 km/h (1 Bft)
29.11.2016 03:03 -7,4 °C -7,4 °C 93 % 1030,1 hPa 0,0 mm 3,6 km/h (1 Bft) O-SO 104 ° 0 min 0,000 mm 0,0 UV-I 0 W/m² -8,3 °C 4,8 km/h (1 Bft)
29.11.2016 03:04 -7,4 °C -7,4 °C 93 % 1030,1 hPa 0,0 mm 3,0 km/h (1 Bft) O-SO 117 ° 0 min 0,000 mm 0,0 UV-I 0 W/m² -8,3 °C 4,8 km/h (1 Bft)
29.11.2016 03:05 -7,4 °C -7,4 °C 93 % 1030,0 hPa 0,0 mm 4,0 km/h (1 Bft) O-SO 121 ° 0 min 0,000 mm 0,0 UV-I 0 W/m² -8,3 °C 6,4 km/h (2 Bft)
29.11.2016 03:06 -7,4 °C -7,4 °C 93 % 1030,0 hPa 0,0 mm 3,1 km/h (1 Bft) O-SO 121 ° 0 min 0,000 mm 0,0 UV-I 0 W/m² -8,3 °C 4,8 km/h (1 Bft)
29.11.2016 03:07 -7,4 °C -7,4 °C 93 % 1030,0 hPa 0,0 mm 3,4 km/h (1 Bft) O-SO 111 ° 0 min 0,000 mm 0,0 UV-I 0 W/m² -8,3 °C 4,8 km/h (1 Bft)
29.11.2016 03:08 -7,5 °C -7,4 °C 93 % 1030,0 hPa 0,0 mm 2,4 km/h (1 Bft) O-SO 114 ° 0 min 0,000 mm 0,0 UV-I 0 W/m² -8,4 °C 3,2 km/h (1 Bft)
29.11.2016 03:09 -7,4 °C -7,4 °C 93 % 1030,0 hPa 0,0 mm 2,4 km/h (1 Bft) O 93 ° 0 min 0,000 mm 0,0 UV-I 0 W/m² -8,3 °C 3,2 km/h (1 Bft)
29.11.2016 03:10 -7,5 °C -7,4 °C 93 % 1030,0 hPa 0,0 mm 3,6 km/h (1 Bft) O-SO 105 ° 0 min 0,000 mm 0,0 UV-I 0 W/m² -8,4 °C 4,8 km/h (1 Bft)
29.11.2016 03:11 -7,4 °C -7,4 °C 92 % 1030,1 hPa 0,0 mm 3,7 km/h (1 Bft) O 93 ° 0 min 0,000 mm 0,0 UV-I 0 W/m² -8,5 °C 6,4 km/h (2 Bft)
29.11.2016 03:12 -7,4 °C -7,4 °C 92 % 1030,1 hPa 0,0 mm 3,0 km/h (1 Bft) O-SO 116 ° 0 min 0,000 mm 0,0 UV-I 0 W/m² -8,5 °C 6,4 km/h (2 Bft)
29.11.2016 03:13 -7,4 °C -7,4 °C 92 % 1030,1 hPa 0,0 mm 3,4 km/h (1 Bft) O 97 ° 0 min 0,000 mm 0,0 UV-I 0 W/m² -8,5 °C 4,8 km/h (1 Bft)
29.11.2016 03:14 -7,5 °C -7,4 °C 92 % 1030,1 hPa 0,0 mm 3,8 km/h (1 Bft) O-SO 103 ° 0 min 0,000 mm 0,0 UV-I 0 W/m² -8,6 °C 6,4 km/h (2 Bft)
29.11.2016 03:15 -7,5 °C -7,4 °C 92 % 1030,1 hPa 0,0 mm 4,0 km/h (1 Bft) O-SO 103 ° 0 min 0,000 mm 0,0 UV-I 0 W/m² -8,6 °C 4,8 km/h (1 Bft)
29.11.2016 03:16 -7,5 °C -7,4 °C 93 % 1030,1 hPa 0,0 mm 4,3 km/h (1 Bft) O-SO 103 ° 0 min 0,000 mm 0,0 UV-I 0 W/m² -8,4 °C 4,8 km/h (1 Bft)
29.11.2016 03:17 -7,4 °C -7,4 °C 92 % 1030,1 hPa 0,0 mm 5,2 km/h (1 Bft) SO 128 ° 0 min 0,000 mm 0,0 UV-I 0 W/m² -8,5 °C 6,4 km/h (2 Bft)
29.11.2016 03:18 -7,5 °C -7,4 °C 92 % 1030,1 hPa 0,0 mm 1,9 km/h (1 Bft) SO 130 ° 0 min 0,000 mm 0,0 UV-I 0 W/m² -8,6 °C 4,8 km/h (1 Bft)
29.11.2016 03:19 -7,5 °C -7,4 °C 92 % 1030,0 hPa 0,0 mm 2,3 km/h (1 Bft) SO 130 ° 0 min 0,000 mm 0,0 UV-I 0 W/m² -8,6 °C 3,2 km/h (1 Bft)
29.11.2016 03:20 -7,4 °C -7,4 °C 92 % 1030,1 hPa 0,0 mm 3,4 km/h (1 Bft) O 92 ° 0 min 0,000 mm 0,0 UV-I 0 W/m² -8,5 °C 4,8 km/h (1 Bft)
29.11.2016 03:21 -7,5 °C -7,4 °C 92 % 1030,1 hPa 0,0 mm 2,8 km/h (1 Bft) O 84 ° 0 min 0,000 mm 0,0 UV-I 0 W/m² -8,6 °C 4,8 km/h (1 Bft)
29.11.2016 03:22 -7,5 °C -7,5 °C 92 % 1030,0 hPa 0,0 mm 3,8 km/h (1 Bft) O 84 ° 0 min 0,000 mm 0,0 UV-I 0 W/m² -8,6 °C 4,8 km/h (1 Bft)
29.11.2016 03:23 -7,5 °C -7,5 °C 92 % 1030,1 hPa 0,0 mm 3,5 km/h (1 Bft) O 84 ° 0 min 0,000 mm 0,0 UV-I 0 W/m² -8,6 °C 4,8 km/h (1 Bft)
29.11.2016 03:24 -7,5 °C -7,5 °C 93 % 1030,0 hPa 0,0 mm 3,6 km/h (1 Bft) SO 124 ° 0 min 0,000 mm 0,0 UV-I 0 W/m² -8,4 °C 4,8 km/h (1 Bft)
29.11.2016 03:25 -7,5 °C -7,5 °C 93 % 1030,0 hPa 0,0 mm 2,0 km/h (1 Bft) SO 124 ° 0 min 0,000 mm 0,0 UV-I 0 W/m² -8,4 °C 3,2 km/h (1 Bft)
29.11.2016 03:26 -7,5 °C -7,5 °C 93 % 1030,1 hPa 0,0 mm 1,2 km/h (1 Bft) SO 124 ° 0 min 0,000 mm 0,0 UV-I 0 W/m² -8,4 °C 1,6 km/h (1 Bft)
29.11.2016 03:27 -7,5 °C -7,5 °C 92 % 1030,1 hPa 0,0 mm 0,4 km/h (0 Bft) SO 124 ° 0 min 0,000 mm 0,0 UV-I 0 W/m² -8,6 °C 1,6 km/h (1 Bft)
29.11.2016 03:28 -7,6 °C -7,5 °C 92 % 1030,1 hPa 0,0 mm 1,2 km/h (1 Bft) SO 124 ° 0 min 0,000 mm 0,0 UV-I 0 W/m² -8,7 °C 1,6 km/h (1 Bft)
29.11.2016 03:29 -7,6 °C -7,5 °C 92 % 1030,0 hPa 0,0 mm 2,7 km/h (1 Bft) SO 124 ° 0 min 0,000 mm 0,0 UV-I 0 W/m² -8,7 °C 3,2 km/h (1 Bft)
29.11.2016 03:30 -7,6 °C -7,6 °C 92 % 1030,1 hPa 0,0 mm 2,9 km/h (1 Bft) SO 124 ° 0 min 0,000 mm 0,0 UV-I 0 W/m² -8,7 °C 3,2 km/h (1 Bft)
29.11.2016 03:31 -7,6 °C -7,6 °C 92 % 1030,1 hPa 0,0 mm 1,3 km/h (1 Bft) SO 124 ° 0 min 0,000 mm 0,0 UV-I 0 W/m² -8,7 °C 1,6 km/h (1 Bft)
29.11.2016 03:32 -7,6 °C -7,6 °C 92 % 1030,1 hPa 0,0 mm 2,2 km/h (1 Bft) SO 124 ° 0 min 0,000 mm 0,0 UV-I 0 W/m² -8,7 °C 3,2 km/h (1 Bft)
29.11.2016 03:33 -7,6 °C -7,6 °C 92 % 1030,1 hPa 0,0 mm 2,7 km/h (1 Bft) SO 124 ° 0 min 0,000 mm 0,0 UV-I 0 W/m² -8,7 °C 3,2 km/h (1 Bft)
29.11.2016 03:34 -7,6 °C -7,6 °C 92 % 1030,1 hPa 0,0 mm 1,9 km/h (1 Bft) SO 124 ° 0 min 0,000 mm 0,0 UV-I 0 W/m² -8,7 °C 3,2 km/h (1 Bft)
29.11.2016 03:35 -7,6 °C -7,6 °C 92 % 1030,1 hPa 0,0 mm 3,0 km/h (1 Bft) O-SO 105 ° 0 min 0,000 mm 0,0 UV-I 0 W/m² -8,7 °C 4,8 km/h (1 Bft)
29.11.2016 03:36 -7,6 °C -7,6 °C 92 % 1030,1 hPa 0,0 mm 3,1 km/h (1 Bft) O-SO 107 ° 0 min 0,000 mm 0,0 UV-I 0 W/m² -8,7 °C 4,8 km/h (1 Bft)
29.11.2016 03:37 -7,6 °C -7,6 °C 92 % 1030,1 hPa 0,0 mm 1,4 km/h (1 Bft) O-SO 107 ° 0 min 0,000 mm 0,0 UV-I 0 W/m² -8,7 °C 1,6 km/h (1 Bft)
29.11.2016 03:38 -7,6 °C -7,6 °C 92 % 1030,1 hPa 0,0 mm 1,9 km/h (1 Bft) O-SO 107 ° 0 min 0,000 mm 0,0 UV-I 0 W/m² -8,7 °C 3,2 km/h (1 Bft)
29.11.2016 03:39 -7,6 °C -7,6 °C 92 % 1030,1 hPa 0,0 mm 2,5 km/h (1 Bft) O-NO 67 ° 0 min 0,000 mm 0,0 UV-I 0 W/m² -8,7 °C 3,2 km/h (1 Bft)
29.11.2016 03:40 -7,6 °C -7,6 °C 92 % 1030,1 hPa 0,0 mm 1,6 km/h (1 Bft) O-NO 67 ° 0 min 0,000 mm 0,0 UV-I 0 W/m² -8,7 °C 3,2 km/h (1 Bft)
29.11.2016 03:41 -7,6 °C -7,6 °C 92 % 1030,1 hPa 0,0 mm 0,8 km/h (0 Bft) O-NO 67 ° 0 min 0,000 mm 0,0 UV-I 0 W/m² -8,7 °C 1,6 km/h (1 Bft)
29.11.2016 03:42 -7,6 °C -7,6 °C 92 % 1030,1 hPa 0,0 mm 1,1 km/h (1 Bft) O-NO 67 ° 0 min 0,000 mm 0,0 UV-I 0 W/m² -8,7 °C 1,6 km/h (1 Bft)
29.11.2016 03:43 -7,7 °C -7,6 °C 92 % 1030,1 hPa 0,0 mm 1,1 km/h (1 Bft) O-NO 67 ° 0 min 0,000 mm 0,0 UV-I 0 W/m² -8,8 °C 1,6 km/h (1 Bft)
29.11.2016 03:44 -7,7 °C -7,6 °C 92 % 1030,1 hPa 0,0 mm 1,9 km/h (1 Bft) O-NO 67 ° 0 min 0,000 mm 0,0 UV-I 0 W/m² -8,8 °C 3,2 km/h (1 Bft)
29.11.2016 03:45 -7,7 °C -7,6 °C 92 % 1030,1 hPa 0,0 mm 2,1 km/h (1 Bft) O-NO 67 ° 0 min 0,000 mm 0,0 UV-I 0 W/m² -8,8 °C 3,2 km/h (1 Bft)
29.11.2016 03:46 -7,7 °C -7,7 °C 92 % 1030,1 hPa 0,0 mm 1,7 km/h (1 Bft) O-NO 67 ° 0 min 0,000 mm 0,0 UV-I 0 W/m² -8,8 °C 3,2 km/h (1 Bft)
29.11.2016 03:47 -7,7 °C -7,7 °C 92 % 1030,1 hPa 0,0 mm 0,9 km/h (0 Bft) O-NO 67 ° 0 min 0,000 mm 0,0 UV-I 0 W/m² -8,8 °C 1,6 km/h (1 Bft)
29.11.2016 03:48 -7,7 °C -7,7 °C 92 % 1030,1 hPa 0,0 mm 1,5 km/h (1 Bft) O-NO 67 ° 0 min 0,000 mm 0,0 UV-I 0 W/m² -8,8 °C 3,2 km/h (1 Bft)
29.11.2016 03:49 -7,7 °C -7,7 °C 92 % 1030,2 hPa 0,0 mm 2,5 km/h (1 Bft) O-NO 67 ° 0 min 0,000 mm 0,0 UV-I 0 W/m² -8,8 °C 4,8 km/h (1 Bft)
29.11.2016 03:50 -7,7 °C -7,7 °C 92 % 1030,2 hPa 0,0 mm 1,7 km/h (1 Bft) O-NO 67 ° 0 min 0,000 mm 0,0 UV-I 0 W/m² -8,8 °C 4,8 km/h (1 Bft)
29.11.2016 03:51 -7,7 °C -7,7 °C 92 % 1030,2 hPa 0,0 mm 2,8 km/h (1 Bft) O-NO 67 ° 0 min 0,000 mm 0,0 UV-I 0 W/m² -8,8 °C 3,2 km/h (1 Bft)
29.11.2016 03:52 -7,7 °C -7,7 °C 92 % 1030,2 hPa 0,0 mm 1,8 km/h (1 Bft) O-NO 67 ° 0 min 0,000 mm 0,0 UV-I 0 W/m² -8,8 °C 3,2 km/h (1 Bft)
29.11.2016 03:53 -7,7 °C -7,7 °C 92 % 1030,2 hPa 0,0 mm 2,3 km/h (1 Bft) O-NO 67 ° 0 min 0,000 mm 0,0 UV-I 0 W/m² -8,8 °C 3,2 km/h (1 Bft)
29.11.2016 03:54 -7,7 °C -7,7 °C 92 % 1030,2 hPa 0,0 mm 3,4 km/h (1 Bft) O 101 ° 0 min 0,000 mm 0,0 UV-I 0 W/m² -8,8 °C 4,8 km/h (1 Bft)
29.11.2016 03:55 -7,7 °C -7,7 °C 92 % 1030,2 hPa 0,0 mm 2,9 km/h (1 Bft) O 81 ° 0 min 0,000 mm 0,0 UV-I 0 W/m² -8,8 °C 4,8 km/h (1 Bft)
29.11.2016 03:56 -7,8 °C -7,7 °C 92 % 1030,2 hPa 0,0 mm 3,9 km/h (1 Bft) O 89 ° 0 min 0,000 mm 0,0 UV-I 0 W/m² -8,9 °C 4,8 km/h (1 Bft)
29.11.2016 03:57 -7,8 °C -7,7 °C 92 % 1030,2 hPa 0,0 mm 2,3 km/h (1 Bft) O 86 ° 0 min 0,000 mm 0,0 UV-I 0 W/m² -8,9 °C 3,2 km/h (1 Bft)
29.11.2016 03:58 -7,8 °C -7,7 °C 92 % 1030,1 hPa 0,0 mm 3,2 km/h (1 Bft) O-NO 78 ° 0 min 0,000 mm 0,0 UV-I 0 W/m² -8,9 °C 4,8 km/h (1 Bft)
29.11.2016 03:59 -7,8 °C -7,8 °C 92 % 1030,2 hPa 0,0 mm 2,7 km/h (1 Bft) O-NO 78 ° 0 min 0,000 mm 0,0 UV-I 0 W/m² -8,9 °C 3,2 km/h (1 Bft)
29.11.2016 04:00 -7,8 °C -7,8 °C 92 % 1030,2 hPa 0,0 mm 2,3 km/h (1 Bft) O-NO 78 ° 0 min 0,000 mm 0,0 UV-I 0 W/m² -8,9 °C 3,2 km/h (1 Bft)
29.11.2016 04:01 -7,8 °C -7,8 °C 92 % 1030,2 hPa 0,0 mm 2,1 km/h (1 Bft) O-NO 78 ° 0 min 0,000 mm 0,0 UV-I 0 W/m² -8,9 °C 3,2 km/h (1 Bft)
29.11.2016 04:02 -7,8 °C -7,8 °C 92 % 1030,2 hPa 0,0 mm 2,4 km/h (1 Bft) O-NO 78 ° 0 min 0,000 mm 0,0 UV-I 0 W/m² -8,9 °C 3,2 km/h (1 Bft)
29.11.2016 04:03 -7,8 °C -7,8 °C 92 % 1030,2 hPa 0,0 mm 2,7 km/h (1 Bft) O-NO 78 ° 0 min 0,000 mm 0,0 UV-I 0 W/m² -8,9 °C 3,2 km/h (1 Bft)
29.11.2016 04:04 -7,8 °C -7,8 °C 92 % 1030,2 hPa 0,0 mm 1,7 km/h (1 Bft) O-NO 78 ° 0 min 0,000 mm 0,0 UV-I 0 W/m² -8,9 °C 3,2 km/h (1 Bft)
29.11.2016 04:05 -7,8 °C -7,8 °C 92 % 1030,2 hPa 0,0 mm 1,5 km/h (1 Bft) O-NO 78 ° 0 min 0,000 mm 0,0 UV-I 0 W/m² -8,9 °C 3,2 km/h (1 Bft)
29.11.2016 04:06 -7,8 °C -7,8 °C 92 % 1030,2 hPa 0,0 mm 2,6 km/h (1 Bft) O-NO 78 ° 0 min 0,000 mm 0,0 UV-I 0 W/m² -8,9 °C 3,2 km/h (1 Bft)
29.11.2016 04:07 -7,8 °C -7,8 °C 92 % 1030,3 hPa 0,0 mm 1,9 km/h (1 Bft) O-NO 78 ° 0 min 0,000 mm 0,0 UV-I 0 W/m² -8,9 °C 3,2 km/h (1 Bft)
29.11.2016 04:08 -7,8 °C -7,8 °C 92 % 1030,2 hPa 0,0 mm 2,6 km/h (1 Bft) O 80 ° 0 min 0,000 mm 0,0 UV-I 0 W/m² -8,9 °C 3,2 km/h (1 Bft)
29.11.2016 04:09 -7,8 °C -7,8 °C 92 % 1030,2 hPa 0,0 mm 2,8 km/h (1 Bft) O 98 ° 0 min 0,000 mm 0,0 UV-I 0 W/m² -8,9 °C 4,8 km/h (1 Bft)
29.11.2016 04:10 -7,8 °C -7,8 °C 92 % 1030,2 hPa 0,0 mm 1,5 km/h (1 Bft) O 98 ° 0 min 0,000 mm 0,0 UV-I 0 W/m² -8,9 °C 3,2 km/h (1 Bft)
29.11.2016 04:11 -7,8 °C -7,8 °C 92 % 1030,2 hPa 0,0 mm 1,4 km/h (1 Bft) O 98 ° 0 min 0,000 mm 0,0 UV-I 0 W/m² -8,9 °C 3,2 km/h (1 Bft)
29.11.2016 04:12 -7,8 °C -7,8 °C 92 % 1030,2 hPa 0,0 mm 2,2 km/h (1 Bft) O 98 ° 0 min 0,000 mm 0,0 UV-I 0 W/m² -8,9 °C 3,2 km/h (1 Bft)
29.11.2016 04:13 -7,8 °C -7,8 °C 92 % 1030,2 hPa 0,0 mm 2,3 km/h (1 Bft) O 98 ° 0 min 0,000 mm 0,0 UV-I 0 W/m² -8,9 °C 3,2 km/h (1 Bft)
29.11.2016 04:14 -7,8 °C -7,8 °C 92 % 1030,3 hPa 0,0 mm 1,9 km/h (1 Bft) O 98 ° 0 min 0,000 mm 0,0 UV-I 0 W/m² -8,9 °C 3,2 km/h (1 Bft)
29.11.2016 04:15 -7,9 °C -7,8 °C 92 % 1030,4 hPa 0,0 mm 2,4 km/h (1 Bft) O 98 ° 0 min 0,000 mm 0,0 UV-I 0 W/m² -9,0 °C 3,2 km/h (1 Bft)
29.11.2016 04:16 -7,9 °C -7,9 °C 92 % 1030,4 hPa 0,0 mm 3,3 km/h (1 Bft) O-SO 111 ° 0 min 0,000 mm 0,0 UV-I 0 W/m² -9,0 °C 4,8 km/h (1 Bft)
29.11.2016 04:17 -7,8 °C -7,8 °C 92 % 1030,4 hPa 0,0 mm 3,1 km/h (1 Bft) O-SO 120 ° 0 min 0,000 mm 0,0 UV-I 0 W/m² -8,9 °C 3,2 km/h (1 Bft)
29.11.2016 04:18 -7,9 °C -7,8 °C 92 % 1030,3 hPa 0,0 mm 2,3 km/h (1 Bft) O-SO 119 ° 0 min 0,000 mm 0,0 UV-I 0 W/m² -9,0 °C 3,2 km/h (1 Bft)
29.11.2016 04:19 -7,9 °C -7,9 °C 92 % 1030,3 hPa 0,0 mm 1,9 km/h (1 Bft) O-SO 119 ° 0 min 0,000 mm 0,0 UV-I 0 W/m² -9,0 °C 3,2 km/h (1 Bft)
29.11.2016 04:20 -7,8 °C -7,8 °C 92 % 1030,3 hPa 0,0 mm 1,7 km/h (1 Bft) O-SO 119 ° 0 min 0,000 mm 0,0 UV-I 0 W/m² -8,9 °C 3,2 km/h (1 Bft)
29.11.2016 04:21 -7,9 °C -7,8 °C 92 % 1030,3 hPa 0,0 mm 1,0 km/h (0 Bft) O-SO 119 ° 0 min 0,000 mm 0,0 UV-I 0 W/m² -9,0 °C 3,2 km/h (1 Bft)
29.11.2016 04:22 -7,9 °C -7,9 °C 92 % 1030,3 hPa 0,0 mm 1,7 km/h (1 Bft) O-SO 119 ° 0 min 0,000 mm 0,0 UV-I 0 W/m² -9,0 °C 3,2 km/h (1 Bft)
29.11.2016 04:23 -7,9 °C -7,9 °C 92 % 1030,3 hPa 0,0 mm 2,3 km/h (1 Bft) O 96 ° 0 min 0,000 mm 0,0 UV-I 0 W/m² -9,0 °C 4,8 km/h (1 Bft)
29.11.2016 04:24 -7,9 °C -7,9 °C 92 % 1030,4 hPa 0,0 mm 2,1 km/h (1 Bft) SO 135 ° 0 min 0,000 mm 0,0 UV-I 0 W/m² -9,0 °C 4,8 km/h (1 Bft)
29.11.2016 04:25 -7,9 °C -7,9 °C 92 % 1030,4 hPa 0,0 mm 2,7 km/h (1 Bft) SO 135 ° 0 min 0,000 mm 0,0 UV-I 0 W/m² -9,0 °C 4,8 km/h (1 Bft)
29.11.2016 04:26 -7,9 °C -7,9 °C 92 % 1030,4 hPa 0,0 mm 0,6 km/h (0 Bft) SO 135 ° 0 min 0,000 mm 0,0 UV-I 0 W/m² -9,0 °C 1,6 km/h (1 Bft)
29.11.2016 04:27 -7,9 °C -7,9 °C 92 % 1030,5 hPa 0,0 mm 2,0 km/h (1 Bft) SO 135 ° 0 min 0,000 mm 0,0 UV-I 0 W/m² -9,0 °C 3,2 km/h (1 Bft)
29.11.2016 04:28 -7,9 °C -7,9 °C 92 % 1030,4 hPa 0,0 mm 0,8 km/h (0 Bft) SO 135 ° 0 min 0,000 mm 0,0 UV-I 0 W/m² -9,0 °C 1,6 km/h (1 Bft)
29.11.2016 04:29 -7,9 °C -7,9 °C 92 % 1030,4 hPa 0,0 mm 0,0 km/h (0 Bft) SO 135 ° 0 min 0,000 mm 0,0 UV-I 0 W/m² -9,0 °C 0,0 km/h (0 Bft)
29.11.2016 04:30 -7,9 °C -7,9 °C 92 % 1030,4 hPa 0,0 mm 1,8 km/h (1 Bft) SO 135 ° 0 min 0,000 mm 0,0 UV-I 0 W/m² -9,0 °C 3,2 km/h (1 Bft)
29.11.2016 04:31 -7,9 °C -7,9 °C 92 % 1030,4 hPa 0,0 mm 2,1 km/h (1 Bft) SO 135 ° 0 min 0,000 mm 0,0 UV-I 0 W/m² -9,0 °C 3,2 km/h (1 Bft)
29.11.2016 04:32 -7,9 °C -7,9 °C 92 % 1030,4 hPa 0,0 mm 1,1 km/h (1 Bft) SO 134 ° 0 min 0,000 mm 0,0 UV-I 0 W/m² -9,0 °C 3,2 km/h (1 Bft)
29.11.2016 04:33 -7,9 °C -7,9 °C 92 % 1030,4 hPa 0,0 mm 1,7 km/h (1 Bft) O-SO 113 ° 0 min 0,000 mm 0,0 UV-I 0 W/m² -9,0 °C 3,2 km/h (1 Bft)
29.11.2016 04:34 -7,9 °C -7,9 °C 93 % 1030,4 hPa 0,0 mm 2,1 km/h (1 Bft) O-SO 111 ° 0 min 0,000 mm 0,0 UV-I 0 W/m² -8,8 °C 3,2 km/h (1 Bft)
29.11.2016 04:35 -7,9 °C -7,9 °C 93 % 1030,4 hPa 0,0 mm 1,8 km/h (1 Bft) O-SO 111 ° 0 min 0,000 mm 0,0 UV-I 0 W/m² -8,8 °C 3,2 km/h (1 Bft)
29.11.2016 04:36 -7,9 °C -7,8 °C 93 % 1030,4 hPa 0,0 mm 1,1 km/h (1 Bft) O-SO 111 ° 0 min 0,000 mm 0,0 UV-I 0 W/m² -8,8 °C 1,6 km/h (1 Bft)
29.11.2016 04:37 -7,9 °C -7,8 °C 93 % 1030,4 hPa 0,0 mm 2,9 km/h (1 Bft) O 80 ° 0 min 0,000 mm 0,0 UV-I 0 W/m² -8,8 °C 4,8 km/h (1 Bft)
29.11.2016 04:38 -7,8 °C -7,8 °C 93 % 1030,4 hPa 0,0 mm 1,4 km/h (1 Bft) O 80 ° 0 min 0,000 mm 0,0 UV-I 0 W/m² -8,7 °C 3,2 km/h (1 Bft)
29.11.2016 04:39 -7,8 °C -7,8 °C 93 % 1030,3 hPa 0,0 mm 2,6 km/h (1 Bft) O 80 ° 0 min 0,000 mm 0,0 UV-I 0 W/m² -8,7 °C 4,8 km/h (1 Bft)
29.11.2016 04:40 -7,8 °C -7,8 °C 93 % 1030,4 hPa 0,0 mm 1,1 km/h (1 Bft) O 80 ° 0 min 0,000 mm 0,0 UV-I 0 W/m² -8,7 °C 1,6 km/h (1 Bft)
29.11.2016 04:41 -7,8 °C -7,8 °C 93 % 1030,4 hPa 0,0 mm 1,9 km/h (1 Bft) O 80 ° 0 min 0,000 mm 0,0 UV-I 0 W/m² -8,7 °C 3,2 km/h (1 Bft)
29.11.2016 04:42 -7,8 °C -7,8 °C 93 % 1030,4 hPa 0,0 mm 2,1 km/h (1 Bft) O-SO 112 ° 0 min 0,000 mm 0,0 UV-I 0 W/m² -8,7 °C 4,8 km/h (1 Bft)
29.11.2016 04:43 -7,8 °C -7,8 °C 93 % 1030,4 hPa 0,0 mm 1,5 km/h (1 Bft) O-SO 112 ° 0 min 0,000 mm 0,0 UV-I 0 W/m² -8,7 °C 3,2 km/h (1 Bft)
29.11.2016 04:44 -7,8 °C -7,8 °C 93 % 1030,4 hPa 0,0 mm 2,5 km/h (1 Bft) O-SO 105 ° 0 min 0,000 mm 0,0 UV-I 0 W/m² -8,7 °C 3,2 km/h (1 Bft)
29.11.2016 04:45 -7,8 °C -7,8 °C 93 % 1030,4 hPa 0,0 mm 4,8 km/h (1 Bft) SO 140 ° 0 min 0,000 mm 0,0 UV-I 0 W/m² -8,7 °C 6,4 km/h (2 Bft)
29.11.2016 04:46 -7,8 °C -7,8 °C 93 % 1030,4 hPa 0,0 mm 1,9 km/h (1 Bft) SO 140 ° 0 min 0,000 mm 0,0 UV-I 0 W/m² -8,7 °C 3,2 km/h (1 Bft)
29.11.2016 04:47 -7,8 °C -7,8 °C 93 % 1030,4 hPa 0,0 mm 2,6 km/h (1 Bft) O 80 ° 0 min 0,000 mm 0,0 UV-I 0 W/m² -8,7 °C 4,8 km/h (1 Bft)
29.11.2016 04:48 -7,8 °C -7,8 °C 93 % 1030,4 hPa 0,0 mm 2,7 km/h (1 Bft) O 80 ° 0 min 0,000 mm 0,0 UV-I 0 W/m² -8,7 °C 3,2 km/h (1 Bft)
29.11.2016 04:49 -7,8 °C -7,8 °C 93 % 1030,4 hPa 0,0 mm 2,0 km/h (1 Bft) O 80 ° 0 min 0,000 mm 0,0 UV-I 0 W/m² -8,7 °C 3,2 km/h (1 Bft)
29.11.2016 04:50 -7,8 °C -7,8 °C 93 % 1030,4 hPa 0,0 mm 1,1 km/h (1 Bft) O 80 ° 0 min 0,000 mm 0,0 UV-I 0 W/m² -8,7 °C 3,2 km/h (1 Bft)
29.11.2016 04:51 -7,8 °C -7,8 °C 93 % 1030,4 hPa 0,0 mm 2,9 km/h (1 Bft) O 97 ° 0 min 0,000 mm 0,0 UV-I 0 W/m² -8,7 °C 4,8 km/h (1 Bft)
29.11.2016 04:52 -7,7 °C -7,7 °C 93 % 1030,4 hPa 0,0 mm 3,2 km/h (1 Bft) O-NO 61 ° 0 min 0,000 mm 0,0 UV-I 0 W/m² -8,6 °C 4,8 km/h (1 Bft)
29.11.2016 04:53 -7,7 °C -7,7 °C 93 % 1030,4 hPa 0,0 mm 3,9 km/h (1 Bft) O-NO 78 ° 0 min 0,000 mm 0,0 UV-I 0 W/m² -8,6 °C 8,0 km/h (2 Bft)
29.11.2016 04:54 -7,7 °C -7,7 °C 93 % 1030,3 hPa 0,0 mm 1,2 km/h (1 Bft) O-NO 78 ° 0 min 0,000 mm 0,0 UV-I 0 W/m² -8,6 °C 3,2 km/h (1 Bft)
29.11.2016 04:55 -7,7 °C -7,7 °C 93 % 1030,3 hPa 0,0 mm 3,0 km/h (1 Bft) O-SO 113 ° 0 min 0,000 mm 0,0 UV-I 0 W/m² -8,6 °C 6,4 km/h (2 Bft)
29.11.2016 04:56 -7,7 °C -7,7 °C 93 % 1030,4 hPa 0,0 mm 4,1 km/h (1 Bft) O-NO 77 ° 0 min 0,000 mm 0,0 UV-I 0 W/m² -8,6 °C 6,4 km/h (2 Bft)
29.11.2016 04:57 -7,7 °C -7,7 °C 93 % 1030,3 hPa 0,0 mm 4,8 km/h (1 Bft) O-NO 76 ° 0 min 0,000 mm 0,0 UV-I 0 W/m² -8,6 °C 6,4 km/h (2 Bft)
29.11.2016 04:58 -7,6 °C -7,6 °C 94 % 1030,2 hPa 0,0 mm 4,2 km/h (1 Bft) O 92 ° 0 min 0,000 mm 0,0 UV-I 0 W/m² -8,4 °C 6,4 km/h (2 Bft)
29.11.2016 04:59 -7,6 °C -7,6 °C 93 % 1030,2 hPa 0,0 mm 3,5 km/h (1 Bft) NO 53 ° 0 min 0,000 mm 0,0 UV-I 0 W/m² -8,5 °C 6,4 km/h (2 Bft)
29.11.2016 05:00 -7,5 °C -7,5 °C 94 % 1030,2 hPa 0,0 mm 4,7 km/h (1 Bft) O 84 ° 0 min 0,000 mm 0,0 UV-I 0 W/m² -8,3 °C 8,0 km/h (2 Bft)
29.11.2016 05:01 -7,4 °C -7,4 °C 94 % 1030,2 hPa 0,0 mm 3,1 km/h (1 Bft) O-NO 63 ° 0 min 0,000 mm 0,0 UV-I 0 W/m² -8,2 °C 4,8 km/h (1 Bft)
29.11.2016 05:02 -7,4 °C -7,4 °C 94 % 1030,2 hPa 0,0 mm 5,6 km/h (1 Bft) NO 55 ° 0 min 0,000 mm 0,0 UV-I 0 W/m² -8,2 °C 9,7 km/h (2 Bft)
29.11.2016 05:03 -7,4 °C -7,4 °C 94 % 1030,3 hPa 0,0 mm 6,2 km/h (2 Bft) O-NO 71 ° 0 min 0,000 mm 0,0 UV-I 0 W/m² -8,2 °C 8,0 km/h (2 Bft)
29.11.2016 05:04 -7,3 °C -7,3 °C 94 % 1030,3 hPa 0,0 mm 5,2 km/h (1 Bft) O-NO 68 ° 0 min 0,000 mm 0,0 UV-I 0 W/m² -8,1 °C 8,0 km/h (2 Bft)
29.11.2016 05:05 -7,3 °C -7,3 °C 94 % 1030,2 hPa 0,0 mm 4,1 km/h (1 Bft) O-NO 67 ° 0 min 0,000 mm 0,0 UV-I 0 W/m² -8,1 °C 4,8 km/h (1 Bft)
29.11.2016 05:06 -7,3 °C -7,3 °C 94 % 1030,2 hPa 0,0 mm 6,2 km/h (2 Bft) O-NO 68 ° 0 min 0,000 mm 0,0 UV-I 0 W/m² -8,1 °C 9,7 km/h (2 Bft)
29.11.2016 05:07 -7,3 °C -7,3 °C 94 % 1030,3 hPa 0,0 mm 5,6 km/h (1 Bft) O 88 ° 0 min 0,000 mm 0,0 UV-I 0 W/m² -8,1 °C 9,7 km/h (2 Bft)
29.11.2016 05:08 -7,3 °C -7,3 °C 94 % 1030,4 hPa 0,0 mm 7,4 km/h (2 Bft) O-NO 65 ° 0 min 0,000 mm 0,0 UV-I 0 W/m² -8,1 °C 12,9 km/h (3 Bft)
29.11.2016 05:09 -7,2 °C -7,2 °C 94 % 1030,4 hPa 0,0 mm 7,1 km/h (2 Bft) NO 53 ° 0 min 0,000 mm 0,0 UV-I 0 W/m² -8,0 °C 9,7 km/h (2 Bft)
29.11.2016 05:10 -7,2 °C -7,2 °C 94 % 1030,4 hPa 0,0 mm 6,6 km/h (2 Bft) O-SO 111 ° 0 min 0,000 mm 0,0 UV-I 0 W/m² -8,0 °C 8,0 km/h (2 Bft)
29.11.2016 05:11 -7,2 °C -7,2 °C 94 % 1030,3 hPa 0,0 mm 3,5 km/h (1 Bft) O-NO 70 ° 0 min 0,000 mm 0,0 UV-I 0 W/m² -8,0 °C 4,8 km/h (1 Bft)
29.11.2016 05:12 -7,1 °C -7,1 °C 94 % 1030,3 hPa 0,0 mm 4,7 km/h (1 Bft) O-NO 74 ° 0 min 0,000 mm 0,0 UV-I 0 W/m² -7,9 °C 9,7 km/h (2 Bft)
29.11.2016 05:13 -7,1 °C -7,1 °C 94 % 1030,3 hPa 0,0 mm 3,2 km/h (1 Bft) O-NO 78 ° 0 min 0,000 mm 0,0 UV-I 0 W/m² -7,9 °C 6,4 km/h (2 Bft)
29.11.2016 05:14 -7,1 °C -7,1 °C 94 % 1030,3 hPa 0,0 mm 5,5 km/h (1 Bft) O-NO 71 ° 0 min 0,000 mm 0,0 UV-I 0 W/m² -7,9 °C 8,0 km/h (2 Bft)
29.11.2016 05:15 -7,1 °C -7,1 °C 94 % 1030,3 hPa 0,0 mm 5,2 km/h (1 Bft) O-SO 121 ° 0 min 0,000 mm 0,0 UV-I 0 W/m² -7,9 °C 6,4 km/h (2 Bft)
29.11.2016 05:16 -7,1 °C -7,1 °C 94 % 1030,3 hPa 0,0 mm 3,9 km/h (1 Bft) O 83 ° 0 min 0,000 mm 0,0 UV-I 0 W/m² -7,9 °C 6,4 km/h (2 Bft)
29.11.2016 05:17 -7,1 °C -7,0 °C 94 % 1030,3 hPa 0,0 mm 4,0 km/h (1 Bft) O-NO 76 ° 0 min 0,000 mm 0,0 UV-I 0 W/m² -7,9 °C 9,7 km/h (2 Bft)
29.11.2016 05:18 -7,0 °C -7,0 °C 94 % 1030,2 hPa 0,0 mm 4,0 km/h (1 Bft) O-NO 74 ° 0 min 0,000 mm 0,0 UV-I 0 W/m² -7,8 °C 4,8 km/h (1 Bft)
29.11.2016 05:19 -7,0 °C -7,0 °C 94 % 1030,3 hPa 0,0 mm 3,6 km/h (1 Bft) O-NO 71 ° 0 min 0,000 mm 0,0 UV-I 0 W/m² -7,8 °C 4,8 km/h (1 Bft)
29.11.2016 05:20 -7,0 °C -7,0 °C 94 % 1030,3 hPa 0,0 mm 4,4 km/h (1 Bft) O-NO 67 ° 0 min 0,000 mm 0,0 UV-I 0 W/m² -7,8 °C 6,4 km/h (2 Bft)
29.11.2016 05:21 -6,9 °C -6,9 °C 94 % 1030,3 hPa 0,0 mm 5,5 km/h (1 Bft) O-NO 74 ° 0 min 0,000 mm 0,0 UV-I 0 W/m² -7,7 °C 6,4 km/h (2 Bft)
29.11.2016 05:22 -6,9 °C -6,9 °C 94 % 1030,3 hPa 0,0 mm 3,5 km/h (1 Bft) O-NO 74 ° 0 min 0,000 mm 0,0 UV-I 0 W/m² -7,7 °C 4,8 km/h (1 Bft)
29.11.2016 05:23 -6,9 °C -6,9 °C 94 % 1030,3 hPa 0,0 mm 3,3 km/h (1 Bft) O-NO 68 ° 0 min 0,000 mm 0,0 UV-I 0 W/m² -7,7 °C 4,8 km/h (1 Bft)
29.11.2016 05:24 -6,9 °C -6,9 °C 94 % 1030,3 hPa 0,0 mm 3,9 km/h (1 Bft) O-NO 57 ° 0 min 0,000 mm 0,0 UV-I 0 W/m² -7,7 °C 4,8 km/h (1 Bft)
29.11.2016 05:25 -6,9 °C -6,9 °C 94 % 1030,3 hPa 0,0 mm 3,8 km/h (1 Bft) O-NO 69 ° 0 min 0,000 mm 0,0 UV-I 0 W/m² -7,7 °C 6,4 km/h (2 Bft)
29.11.2016 05:26 -6,9 °C -6,9 °C 94 % 1030,3 hPa 0,0 mm 5,4 km/h (1 Bft) O 81 ° 0 min 0,000 mm 0,0 UV-I 0 W/m² -7,7 °C 8,0 km/h (2 Bft)
29.11.2016 05:27 -6,9 °C -6,9 °C 94 % 1030,3 hPa 0,0 mm 4,6 km/h (1 Bft) O-NO 59 ° 0 min 0,000 mm 0,0 UV-I 0 W/m² -7,7 °C 6,4 km/h (2 Bft)
29.11.2016 05:28 -6,9 °C -6,9 °C 95 % 1030,2 hPa 0,0 mm 5,7 km/h (1 Bft) O 96 ° 0 min 0,000 mm 0,0 UV-I 0 W/m² -7,6 °C 11,3 km/h (2 Bft)
29.11.2016 05:29 -6,9 °C -6,9 °C 95 % 1030,3 hPa 0,0 mm 4,6 km/h (1 Bft) O 79 ° 0 min 0,000 mm 0,0 UV-I 0 W/m² -7,6 °C 6,4 km/h (2 Bft)
29.11.2016 05:30 -6,9 °C -6,9 °C 95 % 1030,3 hPa 0,0 mm 3,6 km/h (1 Bft) O 82 ° 0 min 0,000 mm 0,0 UV-I 0 W/m² -7,6 °C 4,8 km/h (1 Bft)
29.11.2016 05:31 -6,9 °C -6,9 °C 95 % 1030,3 hPa 0,0 mm 4,3 km/h (1 Bft) O-NO 68 ° 0 min 0,000 mm 0,0 UV-I 0 W/m² -7,6 °C 6,4 km/h (2 Bft)
29.11.2016 05:32 -6,9 °C -6,9 °C 94 % 1030,3 hPa 0,0 mm 4,7 km/h (1 Bft) O 94 ° 0 min 0,000 mm 0,0 UV-I 0 W/m² -7,7 °C 8,0 km/h (2 Bft)
29.11.2016 05:33 -6,9 °C -6,9 °C 94 % 1030,2 hPa 0,0 mm 1,7 km/h (1 Bft) O 94 ° 0 min 0,000 mm 0,0 UV-I 0 W/m² -7,7 °C 3,2 km/h (1 Bft)
29.11.2016 05:34 -6,9 °C -6,9 °C 94 % 1030,3 hPa 0,0 mm 3,2 km/h (1 Bft) O-NO 68 ° 0 min 0,000 mm 0,0 UV-I 0 W/m² -7,7 °C 4,8 km/h (1 Bft)
29.11.2016 05:35 -6,9 °C -6,9 °C 94 % 1030,3 hPa 0,0 mm 5,2 km/h (1 Bft) O-NO 67 ° 0 min 0,000 mm 0,0 UV-I 0 W/m² -7,7 °C 9,7 km/h (2 Bft)
29.11.2016 05:36 -6,9 °C -6,9 °C 94 % 1030,3 hPa 0,0 mm 4,3 km/h (1 Bft) O-NO 67 ° 0 min 0,000 mm 0,0 UV-I 0 W/m² -7,7 °C 6,4 km/h (2 Bft)
29.11.2016 05:37 -6,9 °C -6,9 °C 94 % 1030,3 hPa 0,0 mm 3,7 km/h (1 Bft) O-NO 65 ° 0 min 0,000 mm 0,0 UV-I 0 W/m² -7,7 °C 6,4 km/h (2 Bft)
29.11.2016 05:38 -6,9 °C -6,9 °C 94 % 1030,3 hPa 0,0 mm 6,4 km/h (2 Bft) O-NO 67 ° 0 min 0,000 mm 0,0 UV-I 0 W/m² -7,7 °C 8,0 km/h (2 Bft)
29.11.2016 05:39 -6,9 °C -6,9 °C 94 % 1030,3 hPa 0,0 mm 5,6 km/h (1 Bft) O-NO 73 ° 0 min 0,000 mm 0,0 UV-I 0 W/m² -7,7 °C 8,0 km/h (2 Bft)
29.11.2016 05:40 -6,9 °C -6,9 °C 94 % 1030,3 hPa 0,0 mm 3,4 km/h (1 Bft) O-NO 63 ° 0 min 0,000 mm 0,0 UV-I 0 W/m² -7,7 °C 4,8 km/h (1 Bft)
29.11.2016 05:41 -6,9 °C -6,9 °C 94 % 1030,3 hPa 0,0 mm 3,6 km/h (1 Bft) O-NO 72 ° 0 min 0,000 mm 0,0 UV-I 0 W/m² -7,7 °C 4,8 km/h (1 Bft)
29.11.2016 05:42 -7,0 °C -6,9 °C 94 % 1030,3 hPa 0,0 mm 4,5 km/h (1 Bft) O-NO 78 ° 0 min 0,000 mm 0,0 UV-I 0 W/m² -7,8 °C 6,4 km/h (2 Bft)
29.11.2016 05:43 -7,0 °C -6,9 °C 94 % 1030,4 hPa 0,0 mm 4,0 km/h (1 Bft) O-NO 70 ° 0 min 0,000 mm 0,0 UV-I 0 W/m² -7,8 °C 6,4 km/h (2 Bft)
29.11.2016 05:44 -7,0 °C -7,0 °C 94 % 1030,3 hPa 0,0 mm 5,5 km/h (1 Bft) O-NO 74 ° 0 min 0,000 mm 0,0 UV-I 0 W/m² -7,8 °C 8,0 km/h (2 Bft)
29.11.2016 05:45 -7,0 °C -7,0 °C 94 % 1030,4 hPa 0,0 mm 4,7 km/h (1 Bft) O-NO 67 ° 0 min 0,000 mm 0,0 UV-I 0 W/m² -7,8 °C 6,4 km/h (2 Bft)
29.11.2016 05:46 -7,0 °C -7,0 °C 93 % 1030,5 hPa 0,0 mm 4,9 km/h (1 Bft) O-NO 57 ° 0 min 0,000 mm 0,0 UV-I 0 W/m² -7,9 °C 8,0 km/h (2 Bft)
29.11.2016 05:47 -7,1 °C -7,0 °C 93 % 1030,5 hPa 0,0 mm 5,5 km/h (1 Bft) O-NO 67 ° 0 min 0,000 mm 0,0 UV-I 0 W/m² -8,0 °C 6,4 km/h (2 Bft)
29.11.2016 05:48 -7,1 °C -7,1 °C 93 % 1030,4 hPa 0,0 mm 3,9 km/h (1 Bft) O-NO 71 ° 0 min 0,000 mm 0,0 UV-I 0 W/m² -8,0 °C 6,4 km/h (2 Bft)
29.11.2016 05:49 -7,1 °C -7,1 °C 93 % 1030,4 hPa 0,0 mm 4,5 km/h (1 Bft) O-NO 61 ° 0 min 0,000 mm 0,0 UV-I 0 W/m² -8,0 °C 6,4 km/h (2 Bft)
29.11.2016 05:50 -7,1 °C -7,1 °C 93 % 1030,4 hPa 0,0 mm 3,1 km/h (1 Bft) O-NO 71 ° 0 min 0,000 mm 0,0 UV-I 0 W/m² -8,0 °C 4,8 km/h (1 Bft)
29.11.2016 05:51 -7,1 °C -7,1 °C 93 % 1030,5 hPa 0,0 mm 2,4 km/h (1 Bft) O-NO 71 ° 0 min 0,000 mm 0,0 UV-I 0 W/m² -8,0 °C 3,2 km/h (1 Bft)
29.11.2016 05:52 -7,1 °C -7,1 °C 93 % 1030,4 hPa 0,0 mm 2,4 km/h (1 Bft) O-NO 57 ° 0 min 0,000 mm 0,0 UV-I 0 W/m² -8,0 °C 4,8 km/h (1 Bft)
29.11.2016 05:53 -7,1 °C -7,1 °C 93 % 1030,5 hPa 0,0 mm 5,7 km/h (1 Bft) O-SO 107 ° 0 min 0,000 mm 0,0 UV-I 0 W/m² -8,0 °C 6,4 km/h (2 Bft)
29.11.2016 05:54 -7,1 °C -7,1 °C 93 % 1030,5 hPa 0,0 mm 3,6 km/h (1 Bft) O-NO 65 ° 0 min 0,000 mm 0,0 UV-I 0 W/m² -8,0 °C 4,8 km/h (1 Bft)
29.11.2016 05:55 -7,2 °C -7,1 °C 93 % 1030,5 hPa 0,0 mm 2,7 km/h (1 Bft) O-NO 65 ° 0 min 0,000 mm 0,0 UV-I 0 W/m² -8,1 °C 4,8 km/h (1 Bft)
29.11.2016 05:56 -7,2 °C -7,2 °C 92 % 1030,5 hPa 0,0 mm 1,4 km/h (1 Bft) O-NO 58 ° 0 min 0,000 mm 0,0 UV-I 0 W/m² -8,3 °C 3,2 km/h (1 Bft)
29.11.2016 05:57 -7,2 °C -7,2 °C 93 % 1030,5 hPa 0,0 mm 0,7 km/h (0 Bft) O-NO 58 ° 0 min 0,000 mm 0,0 UV-I 0 W/m² -8,1 °C 1,6 km/h (1 Bft)
29.11.2016 05:58 -7,2 °C -7,2 °C 93 % 1030,5 hPa 0,0 mm 1,1 km/h (1 Bft) O-NO 58 ° 0 min 0,000 mm 0,0 UV-I 0 W/m² -8,1 °C 1,6 km/h (1 Bft)
29.11.2016 05:59 -7,3 °C -7,2 °C 93 % 1030,5 hPa 0,0 mm 3,7 km/h (1 Bft) NO 56 ° 0 min 0,000 mm 0,0 UV-I 0 W/m² -8,2 °C 6,4 km/h (2 Bft)
29.11.2016 06:00 -7,2 °C -7,2 °C 92 % 1030,5 hPa 0,0 mm 3,1 km/h (1 Bft) NO 54 ° 0 min 0,000 mm 0,0 UV-I 0 W/m² -8,3 °C 4,8 km/h (1 Bft)
29.11.2016 06:01 -7,3 °C -7,2 °C 92 % 1030,6 hPa 0,0 mm 3,5 km/h (1 Bft) O-NO 66 ° 0 min 0,000 mm 0,0 UV-I 0 W/m² -8,4 °C 6,4 km/h (2 Bft)
29.11.2016 06:02 -7,3 °C -7,3 °C 92 % 1030,7 hPa 0,0 mm 2,2 km/h (1 Bft) O-NO 63 ° 0 min 0,000 mm 0,0 UV-I 0 W/m² -8,4 °C 4,8 km/h (1 Bft)
29.11.2016 06:03 -7,3 °C -7,3 °C 92 % 1030,6 hPa 0,0 mm 1,9 km/h (1 Bft) O-NO 63 ° 0 min 0,000 mm 0,0 UV-I 0 W/m² -8,4 °C 3,2 km/h (1 Bft)
29.11.2016 06:04 -7,3 °C -7,3 °C 92 % 1030,7 hPa 0,0 mm 1,9 km/h (1 Bft) NO 48 ° 0 min 0,000 mm 0,0 UV-I 0 W/m² -8,4 °C 4,8 km/h (1 Bft)
29.11.2016 06:05 -7,3 °C -7,3 °C 92 % 1030,7 hPa 0,0 mm 1,9 km/h (1 Bft) NO 48 ° 0 min 0,000 mm 0,0 UV-I 0 W/m² -8,4 °C 4,8 km/h (1 Bft)
29.11.2016 06:06 -7,3 °C -7,3 °C 92 % 1030,8 hPa 0,0 mm 2,1 km/h (1 Bft) NO 54 ° 0 min 0,000 mm 0,0 UV-I 0 W/m² -8,4 °C 4,8 km/h (1 Bft)
29.11.2016 06:07 -7,3 °C -7,3 °C 92 % 1030,8 hPa 0,0 mm 0,9 km/h (0 Bft) NO 54 ° 0 min 0,000 mm 0,0 UV-I 0 W/m² -8,4 °C 3,2 km/h (1 Bft)
29.11.2016 06:08 -7,3 °C -7,3 °C 92 % 1030,7 hPa 0,0 mm 2,8 km/h (1 Bft) O-SO 110 ° 0 min 0,000 mm 0,0 UV-I 0 W/m² -8,4 °C 4,8 km/h (1 Bft)
29.11.2016 06:09 -7,3 °C -7,3 °C 92 % 1030,8 hPa 0,0 mm 2,5 km/h (1 Bft) O 80 ° 0 min 0,000 mm 0,0 UV-I 0 W/m² -8,4 °C 4,8 km/h (1 Bft)
29.11.2016 06:10 -7,4 °C -7,3 °C 92 % 1030,8 hPa 0,0 mm 2,4 km/h (1 Bft) O 80 ° 0 min 0,000 mm 0,0 UV-I 0 W/m² -8,5 °C 4,8 km/h (1 Bft)
29.11.2016 06:11 -7,4 °C -7,3 °C 92 % 1030,7 hPa 0,0 mm 1,8 km/h (1 Bft) O 80 ° 0 min 0,000 mm 0,0 UV-I 0 W/m² -8,5 °C 3,2 km/h (1 Bft)
29.11.2016 06:12 -7,4 °C -7,4 °C 92 % 1030,8 hPa 0,0 mm 1,8 km/h (1 Bft) O 80 ° 0 min 0,000 mm 0,0 UV-I 0 W/m² -8,5 °C 3,2 km/h (1 Bft)
29.11.2016 06:13 -7,4 °C -7,4 °C 92 % 1030,8 hPa 0,0 mm 0,7 km/h (0 Bft) O 80 ° 0 min 0,000 mm 0,0 UV-I 0 W/m² -8,5 °C 1,6 km/h (1 Bft)
29.11.2016 06:14 -7,4 °C -7,4 °C 92 % 1030,8 hPa 0,0 mm 1,2 km/h (1 Bft) O 91 ° 0 min 0,000 mm 0,0 UV-I 0 W/m² -8,5 °C 4,8 km/h (1 Bft)
29.11.2016 06:15 -7,4 °C -7,4 °C 92 % 1030,8 hPa 0,0 mm 4,7 km/h (1 Bft) O-SO 111 ° 0 min 0,000 mm 0,0 UV-I 0 W/m² -8,5 °C 6,4 km/h (2 Bft)
29.11.2016 06:16 -7,5 °C -7,4 °C 92 % 1030,8 hPa 0,0 mm 2,5 km/h (1 Bft) O-SO 114 ° 0 min 0,000 mm 0,0 UV-I 0 W/m² -8,6 °C 4,8 km/h (1 Bft)
29.11.2016 06:17 -7,5 °C -7,5 °C 92 % 1030,8 hPa 0,0 mm 0,3 km/h (0 Bft) O-SO 114 ° 0 min 0,000 mm 0,0 UV-I 0 W/m² -8,6 °C 1,6 km/h (1 Bft)
29.11.2016 06:18 -7,5 °C -7,5 °C 92 % 1030,8 hPa 0,0 mm 0,2 km/h (0 Bft) O-SO 114 ° 0 min 0,000 mm 0,0 UV-I 0 W/m² -8,6 °C 1,6 km/h (1 Bft)
29.11.2016 06:19 -7,6 °C -7,5 °C 92 % 1030,8 hPa 0,0 mm 1,7 km/h (1 Bft) O-SO 114 ° 0 min 0,000 mm 0,0 UV-I 0 W/m² -8,7 °C 3,2 km/h (1 Bft)
29.11.2016 06:20 -7,6 °C -7,5 °C 92 % 1030,8 hPa 0,0 mm 2,4 km/h (1 Bft) O-SO 112 ° 0 min 0,000 mm 0,0 UV-I 0 W/m² -8,7 °C 3,2 km/h (1 Bft)
29.11.2016 06:21 -7,6 °C -7,5 °C 92 % 1030,9 hPa 0,0 mm 0,7 km/h (0 Bft) O-SO 112 ° 0 min 0,000 mm 0,0 UV-I 0 W/m² -8,7 °C 1,6 km/h (1 Bft)
29.11.2016 06:22 -7,6 °C -7,6 °C 92 % 1030,9 hPa 0,0 mm 0,7 km/h (0 Bft) O-SO 113 ° 0 min 0,000 mm 0,0 UV-I 0 W/m² -8,7 °C 1,6 km/h (1 Bft)
29.11.2016 06:23 -7,6 °C -7,6 °C 92 % 1030,9 hPa 0,0 mm 1,5 km/h (1 Bft) O-SO 116 ° 0 min 0,000 mm 0,0 UV-I 0 W/m² -8,7 °C 3,2 km/h (1 Bft)
29.11.2016 06:24 -7,6 °C -7,6 °C 92 % 1031,0 hPa 0,0 mm 1,1 km/h (1 Bft) O-SO 116 ° 0 min 0,000 mm 0,0 UV-I 0 W/m² -8,7 °C 3,2 km/h (1 Bft)
29.11.2016 06:25 -7,6 °C -7,6 °C 92 % 1031,0 hPa 0,0 mm 2,1 km/h (1 Bft) O-SO 116 ° 0 min 0,000 mm 0,0 UV-I 0 W/m² -8,7 °C 3,2 km/h (1 Bft)
29.11.2016 06:26 -7,6 °C -7,6 °C 92 % 1031,0 hPa 0,0 mm 2,1 km/h (1 Bft) O-SO 116 ° 0 min 0,000 mm 0,0 UV-I 0 W/m² -8,7 °C 3,2 km/h (1 Bft)
29.11.2016 06:27 -7,6 °C -7,6 °C 92 % 1031,0 hPa 0,0 mm 1,5 km/h (1 Bft) O-SO 116 ° 0 min 0,000 mm 0,0 UV-I 0 W/m² -8,7 °C 3,2 km/h (1 Bft)
29.11.2016 06:28 -7,6 °C -7,6 °C 92 % 1031,0 hPa 0,0 mm 1,6 km/h (1 Bft) O-SO 106 ° 0 min 0,000 mm 0,0 UV-I 0 W/m² -8,7 °C 3,2 km/h (1 Bft)
29.11.2016 06:29 -7,6 °C -7,6 °C 92 % 1031,0 hPa 0,0 mm 2,3 km/h (1 Bft) O 93 ° 0 min 0,000 mm 0,0 UV-I 0 W/m² -8,7 °C 3,2 km/h (1 Bft)
29.11.2016 06:30 -7,7 °C -7,6 °C 92 % 1031,0 hPa 0,0 mm 3,1 km/h (1 Bft) O-NO 69 ° 0 min 0,000 mm 0,0 UV-I 0 W/m² -8,8 °C 4,8 km/h (1 Bft)
29.11.2016 06:31 -7,6 °C -7,6 °C 92 % 1031,0 hPa 0,0 mm 2,1 km/h (1 Bft) O-NO 69 ° 0 min 0,000 mm 0,0 UV-I 0 W/m² -8,7 °C 3,2 km/h (1 Bft)
29.11.2016 06:32 -7,7 °C -7,6 °C 92 % 1031,0 hPa 0,0 mm 2,0 km/h (1 Bft) O-NO 69 ° 0 min 0,000 mm 0,0 UV-I 0 W/m² -8,8 °C 4,8 km/h (1 Bft)
29.11.2016 06:33 -7,7 °C -7,7 °C 92 % 1031,1 hPa 0,0 mm 1,6 km/h (1 Bft) O-NO 69 ° 0 min 0,000 mm 0,0 UV-I 0 W/m² -8,8 °C 4,8 km/h (1 Bft)
29.11.2016 06:34 -7,7 °C -7,7 °C 92 % 1031,1 hPa 0,0 mm 0,7 km/h (0 Bft) O-NO 69 ° 0 min 0,000 mm 0,0 UV-I 0 W/m² -8,8 °C 1,6 km/h (1 Bft)
29.11.2016 06:35 -7,7 °C -7,7 °C 92 % 1031,1 hPa 0,0 mm 2,5 km/h (1 Bft) O-NO 67 ° 0 min 0,000 mm 0,0 UV-I 0 W/m² -8,8 °C 4,8 km/h (1 Bft)
29.11.2016 06:36 -7,7 °C -7,7 °C 92 % 1031,1 hPa 0,0 mm 2,2 km/h (1 Bft) O-NO 69 ° 0 min 0,000 mm 0,0 UV-I 0 W/m² -8,8 °C 3,2 km/h (1 Bft)
29.11.2016 06:37 -7,7 °C -7,7 °C 92 % 1031,1 hPa 0,0 mm 0,2 km/h (0 Bft) O-NO 69 ° 0 min 0,000 mm 0,0 UV-I 0 W/m² -8,8 °C 1,6 km/h (1 Bft)
29.11.2016 06:38 -7,7 °C -7,7 °C 92 % 1031,1 hPa 0,0 mm 3,5 km/h (1 Bft) O-NO 76 ° 0 min 0,000 mm 0,0 UV-I 0 W/m² -8,8 °C 6,4 km/h (2 Bft)
29.11.2016 06:39 -7,7 °C -7,7 °C 92 % 1031,2 hPa 0,0 mm 4,8 km/h (1 Bft) NO 54 ° 0 min 0,000 mm 0,0 UV-I 0 W/m² -8,8 °C 6,4 km/h (2 Bft)
29.11.2016 06:40 -7,7 °C -7,7 °C 92 % 1031,1 hPa 0,0 mm 0,6 km/h (0 Bft) NO 54 ° 0 min 0,000 mm 0,0 UV-I 0 W/m² -8,8 °C 1,6 km/h (1 Bft)
29.11.2016 06:41 -7,7 °C -7,7 °C 92 % 1031,1 hPa 0,0 mm 0,4 km/h (0 Bft) NO 54 ° 0 min 0,000 mm 0,0 UV-I 0 W/m² -8,8 °C 1,6 km/h (1 Bft)
29.11.2016 06:42 -7,7 °C -7,7 °C 92 % 1031,1 hPa 0,0 mm 0,3 km/h (0 Bft) NO 54 ° 0 min 0,000 mm 0,0 UV-I 0 W/m² -8,8 °C 1,6 km/h (1 Bft)
29.11.2016 06:43 -7,7 °C -7,7 °C 92 % 1031,1 hPa 0,0 mm 0,2 km/h (0 Bft) NO 54 ° 0 min 0,000 mm 0,0 UV-I 0 W/m² -8,8 °C 1,6 km/h (1 Bft)
29.11.2016 06:44 -7,7 °C -7,7 °C 92 % 1031,2 hPa 0,0 mm 1,1 km/h (1 Bft) NO 54 ° 0 min 0,000 mm 0,0 UV-I 0 W/m² -8,8 °C 1,6 km/h (1 Bft)
29.11.2016 06:45 -7,7 °C -7,7 °C 92 % 1031,2 hPa 0,0 mm 1,3 km/h (1 Bft) NO 54 ° 0 min 0,000 mm 0,0 UV-I 0 W/m² -8,8 °C 3,2 km/h (1 Bft)
29.11.2016 06:46 -7,7 °C -7,7 °C 92 % 1031,2 hPa 0,0 mm 0,0 km/h (0 Bft) NO 54 ° 0 min 0,000 mm 0,0 UV-I 0 W/m² -8,8 °C 0,0 km/h (0 Bft)
29.11.2016 06:47 -7,7 °C -7,7 °C 92 % 1031,2 hPa 0,0 mm 0,4 km/h (0 Bft) NO 54 ° 0 min 0,000 mm 0,0 UV-I 0 W/m² -8,8 °C 1,6 km/h (1 Bft)
29.11.2016 06:48 -7,7 °C -7,7 °C 92 % 1031,2 hPa 0,0 mm 0,8 km/h (0 Bft) NO 54 ° 0 min 0,000 mm 0,0 UV-I 0 W/m² -8,8 °C 3,2 km/h (1 Bft)
29.11.2016 06:49 -7,8 °C -7,7 °C 92 % 1031,2 hPa 0,0 mm 3,4 km/h (1 Bft) O-NO 60 ° 0 min 0,000 mm 0,0 UV-I 0 W/m² -8,9 °C 4,8 km/h (1 Bft)
29.11.2016 06:50 -7,8 °C -7,7 °C 92 % 1031,2 hPa 0,0 mm 1,8 km/h (1 Bft) O-NO 60 ° 0 min 0,000 mm 0,0 UV-I 0 W/m² -8,9 °C 3,2 km/h (1 Bft)
29.11.2016 06:51 -7,8 °C -7,7 °C 92 % 1031,3 hPa 0,0 mm 1,8 km/h (1 Bft) O-NO 60 ° 0 min 0,000 mm 0,0 UV-I 0 W/m² -8,9 °C 3,2 km/h (1 Bft)
29.11.2016 06:52 -7,7 °C -7,7 °C 92 % 1031,3 hPa 0,0 mm 0,9 km/h (0 Bft) O-NO 60 ° 0 min 0,000 mm 0,0 UV-I 0 W/m² -8,8 °C 1,6 km/h (1 Bft)
29.11.2016 06:53 -7,7 °C -7,7 °C 92 % 1031,3 hPa 0,0 mm 0,6 km/h (0 Bft) O-NO 60 ° 0 min 0,000 mm 0,0 UV-I 0 W/m² -8,8 °C 1,6 km/h (1 Bft)
29.11.2016 06:54 -7,8 °C -7,7 °C 92 % 1031,3 hPa 0,0 mm 1,4 km/h (1 Bft) O-NO 60 ° 0 min 0,000 mm 0,0 UV-I 0 W/m² -8,9 °C 3,2 km/h (1 Bft)
29.11.2016 06:55 -7,8 °C -7,8 °C 92 % 1031,4 hPa 0,0 mm 2,3 km/h (1 Bft) O-NO 60 ° 0 min 0,000 mm 0,0 UV-I 0 W/m² -8,9 °C 3,2 km/h (1 Bft)
29.11.2016 06:56 -7,8 °C -7,7 °C 92 % 1031,3 hPa 0,0 mm 3,6 km/h (1 Bft) O 89 ° 0 min 0,000 mm 0,0 UV-I 0 W/m² -8,9 °C 6,4 km/h (2 Bft)
29.11.2016 06:57 -7,8 °C -7,8 °C 92 % 1031,4 hPa 0,0 mm 2,4 km/h (1 Bft) O 98 ° 0 min 0,000 mm 0,0 UV-I 0 W/m² -8,9 °C 4,8 km/h (1 Bft)
29.11.2016 06:58 -7,8 °C -7,8 °C 92 % 1031,4 hPa 0,0 mm 2,3 km/h (1 Bft) O 98 ° 0 min 0,000 mm 0,0 UV-I 0 W/m² -8,9 °C 3,2 km/h (1 Bft)
29.11.2016 06:59 -7,8 °C -7,8 °C 92 % 1031,4 hPa 0,0 mm 1,9 km/h (1 Bft) O 98 ° 0 min 0,000 mm 0,0 UV-I 0 W/m² -8,9 °C 3,2 km/h (1 Bft)
29.11.2016 07:00 -7,8 °C -7,8 °C 92 % 1031,4 hPa 0,0 mm 1,5 km/h (1 Bft) O 98 ° 0 min 0,000 mm 0,0 UV-I 0 W/m² -8,9 °C 3,2 km/h (1 Bft)
29.11.2016 07:01 -7,8 °C -7,8 °C 92 % 1031,4 hPa 0,0 mm 2,7 km/h (1 Bft) O 98 ° 0 min 0,000 mm 0,0 UV-I 0 W/m² -8,9 °C 3,2 km/h (1 Bft)
29.11.2016 07:02 -7,8 °C -7,8 °C 92 % 1031,4 hPa 0,0 mm 1,7 km/h (1 Bft) O 98 ° 0 min 0,000 mm 0,0 UV-I 0 W/m² -8,9 °C 3,2 km/h (1 Bft)
29.11.2016 07:03 -7,8 °C -7,8 °C 92 % 1031,4 hPa 0,0 mm 1,7 km/h (1 Bft) O 98 ° 0 min 0,000 mm 0,0 UV-I 0 W/m² -8,9 °C 3,2 km/h (1 Bft)
29.11.2016 07:04 -7,8 °C -7,8 °C 92 % 1031,4 hPa 0,0 mm 1,2 km/h (1 Bft) O 98 ° 0 min 0,000 mm 0,0 UV-I 0 W/m² -8,9 °C 1,6 km/h (1 Bft)
29.11.2016 07:05 -7,8 °C -7,8 °C 92 % 1031,5 hPa 0,0 mm 2,0 km/h (1 Bft) O 98 ° 0 min 0,000 mm 0,0 UV-I 0 W/m² -8,9 °C 3,2 km/h (1 Bft)
29.11.2016 07:06 -7,8 °C -7,8 °C 92 % 1031,4 hPa 0,0 mm 1,9 km/h (1 Bft) O 98 ° 0 min 0,000 mm 0,0 UV-I 0 W/m² -8,9 °C 3,2 km/h (1 Bft)
29.11.2016 07:07 -7,9 °C -7,8 °C 92 % 1031,5 hPa 0,0 mm 1,4 km/h (1 Bft) O 98 ° 0 min 0,000 mm 0,0 UV-I 0 W/m² -9,0 °C 3,2 km/h (1 Bft)
29.11.2016 07:08 -7,9 °C -7,8 °C 92 % 1031,5 hPa 0,0 mm 2,3 km/h (1 Bft) O 98 ° 0 min 0,000 mm 0,0 UV-I 0 W/m² -9,0 °C 3,2 km/h (1 Bft)
29.11.2016 07:09 -7,8 °C -7,8 °C 92 % 1031,5 hPa 0,0 mm 2,0 km/h (1 Bft) O 98 ° 0 min 0,000 mm 0,0 UV-I 0 W/m² -8,9 °C 3,2 km/h (1 Bft)
29.11.2016 07:10 -7,8 °C -7,8 °C 92 % 1031,5 hPa 0,0 mm 2,1 km/h (1 Bft) O-NO 73 ° 0 min 0,000 mm 0,0 UV-I 0 W/m² -8,9 °C 3,2 km/h (1 Bft)
29.11.2016 07:11 -7,9 °C -7,8 °C 92 % 1031,6 hPa 0,0 mm 0,5 km/h (0 Bft) O-NO 73 ° 0 min 0,000 mm 0,0 UV-I 0 W/m² -9,0 °C 1,6 km/h (1 Bft)
29.11.2016 07:12 -7,9 °C -7,8 °C 92 % 1031,6 hPa 0,0 mm 1,0 km/h (0 Bft) O-NO 73 ° 0 min 0,000 mm 0,0 UV-I 0 W/m² -9,0 °C 1,6 km/h (1 Bft)
29.11.2016 07:13 -7,8 °C -7,8 °C 92 % 1031,6 hPa 0,0 mm 1,9 km/h (1 Bft) O 82 ° 0 min 0,000 mm 0,0 UV-I 0 W/m² -8,9 °C 3,2 km/h (1 Bft)
29.11.2016 07:14 -7,9 °C -7,8 °C 92 % 1031,6 hPa 0,0 mm 2,0 km/h (1 Bft) O 82 ° 0 min 0,000 mm 0,0 UV-I 0 W/m² -9,0 °C 3,2 km/h (1 Bft)
29.11.2016 07:15 -7,9 °C -7,9 °C 92 % 1031,6 hPa 0,0 mm 1,9 km/h (1 Bft) O 82 ° 0 min 0,000 mm 0,0 UV-I 0 W/m² -9,0 °C 4,8 km/h (1 Bft)
29.11.2016 07:16 -7,9 °C -7,9 °C 92 % 1031,6 hPa 0,0 mm 2,9 km/h (1 Bft) O 98 ° 0 min 0,000 mm 0,0 UV-I 0 W/m² -9,0 °C 4,8 km/h (1 Bft)
29.11.2016 07:17 -7,9 °C -7,9 °C 92 % 1031,6 hPa 0,0 mm 3,1 km/h (1 Bft) O 98 ° 0 min 0,000 mm 0,0 UV-I 0 W/m² -9,0 °C 4,8 km/h (1 Bft)
29.11.2016 07:18 -7,9 °C -7,9 °C 92 % 1031,6 hPa 0,0 mm 1,9 km/h (1 Bft) O 98 ° 0 min 0,000 mm 0,0 UV-I 0 W/m² -9,0 °C 3,2 km/h (1 Bft)
29.11.2016 07:19 -7,9 °C -7,9 °C 92 % 1031,6 hPa 0,0 mm 2,9 km/h (1 Bft) O 86 ° 0 min 0,000 mm 0,0 UV-I 0 W/m² -9,0 °C 4,8 km/h (1 Bft)
29.11.2016 07:20 -7,9 °C -7,9 °C 92 % 1031,7 hPa 0,0 mm 3,2 km/h (1 Bft) O-SO 113 ° 0 min 0,000 mm 0,0 UV-I 0 W/m² -9,0 °C 4,8 km/h (1 Bft)
29.11.2016 07:21 -7,9 °C -7,9 °C 92 % 1031,6 hPa 0,0 mm 2,8 km/h (1 Bft) O 95 ° 0 min 0,000 mm 0,0 UV-I 0 W/m² -9,0 °C 4,8 km/h (1 Bft)
29.11.2016 07:22 -7,9 °C -7,9 °C 92 % 1031,7 hPa 0,0 mm 3,0 km/h (1 Bft) O 95 ° 0 min 0,000 mm 0,0 UV-I 0 W/m² -9,0 °C 3,2 km/h (1 Bft)
29.11.2016 07:23 -7,9 °C -7,9 °C 92 % 1031,7 hPa 0,0 mm 3,6 km/h (1 Bft) O 95 ° 0 min 0,000 mm 0,0 UV-I 0 W/m² -9,0 °C 4,8 km/h (1 Bft)
29.11.2016 07:24 -7,9 °C -7,9 °C 92 % 1031,7 hPa 0,0 mm 4,2 km/h (1 Bft) O 80 ° 0 min 0,000 mm 0,0 UV-I 0 W/m² -9,0 °C 6,4 km/h (2 Bft)
29.11.2016 07:25 -7,9 °C -7,9 °C 92 % 1031,6 hPa 0,0 mm 1,9 km/h (1 Bft) O 80 ° 0 min 0,000 mm 0,0 UV-I 0 W/m² -9,0 °C 3,2 km/h (1 Bft)
29.11.2016 07:26 -7,9 °C -7,9 °C 92 % 1031,7 hPa 0,0 mm 1,9 km/h (1 Bft) O 80 ° 0 min 0,000 mm 0,0 UV-I 0 W/m² -9,0 °C 3,2 km/h (1 Bft)
29.11.2016 07:27 -7,9 °C -7,9 °C 92 % 1031,7 hPa 0,0 mm 1,5 km/h (1 Bft) O 80 ° 0 min 0,000 mm 0,0 UV-I 0 W/m² -9,0 °C 3,2 km/h (1 Bft)
29.11.2016 07:28 -7,9 °C -7,9 °C 92 % 1031,7 hPa 0,0 mm 3,0 km/h (1 Bft) NO 54 ° 0 min 0,000 mm 0,0 UV-I 0 W/m² -9,0 °C 4,8 km/h (1 Bft)
29.11.2016 07:29 -7,9 °C -7,9 °C 92 % 1031,7 hPa 0,0 mm 4,7 km/h (1 Bft) O-NO 71 ° 0 min 0,000 mm 0,0 UV-I 0 W/m² -9,0 °C 6,4 km/h (2 Bft)
29.11.2016 07:30 -7,9 °C -7,9 °C 93 % 1031,8 hPa 0,0 mm 5,2 km/h (1 Bft) O-NO 73 ° 0 min 0,000 mm 0,0 UV-I 0 W/m² -8,8 °C 6,4 km/h (2 Bft)
29.11.2016 07:31 -7,9 °C -7,9 °C 93 % 1031,8 hPa 0,0 mm 4,5 km/h (1 Bft) O-NO 68 ° 0 min 0,000 mm 0,0 UV-I 0 W/m² -8,8 °C 6,4 km/h (2 Bft)
29.11.2016 07:32 -7,9 °C -7,9 °C 93 % 1031,8 hPa 0,0 mm 3,7 km/h (1 Bft) NO 53 ° 0 min 0,000 mm 0,0 UV-I 0 W/m² -8,8 °C 6,4 km/h (2 Bft)
29.11.2016 07:33 -7,8 °C -7,8 °C 93 % 1031,8 hPa 0,0 mm 5,0 km/h (1 Bft) O-SO 119 ° 0 min 0,000 mm 0,0 UV-I 0 W/m² -8,7 °C 8,0 km/h (2 Bft)
29.11.2016 07:34 -7,9 °C -7,8 °C 93 % 1031,9 hPa 0,0 mm 4,2 km/h (1 Bft) O-SO 109 ° 0 min 0,000 mm 0,0 UV-I 0 W/m² -8,8 °C 6,4 km/h (2 Bft)
29.11.2016 07:35 -7,9 °C -7,9 °C 93 % 1031,9 hPa 0,0 mm 2,8 km/h (1 Bft) O-SO 117 ° 0 min 0,000 mm 0,0 UV-I 0 W/m² -8,8 °C 4,8 km/h (1 Bft)
29.11.2016 07:36 -7,9 °C -7,9 °C 93 % 1031,9 hPa 0,0 mm 6,6 km/h (2 Bft) O-SO 107 ° 0 min 0,000 mm 0,0 UV-I 0 W/m² -8,8 °C 9,7 km/h (2 Bft)
29.11.2016 07:37 -7,8 °C -7,8 °C 93 % 1031,9 hPa 0,0 mm 6,0 km/h (2 Bft) O 101 ° 0 min 0,000 mm 0,0 UV-I 0 W/m² -8,7 °C 9,7 km/h (2 Bft)
29.11.2016 07:38 -7,9 °C -7,8 °C 93 % 1031,9 hPa 0,0 mm 4,4 km/h (1 Bft) O 91 ° 0 min 0,000 mm 0,0 UV-I 0 W/m² -8,8 °C 6,4 km/h (2 Bft)
29.11.2016 07:39 -7,8 °C -7,8 °C 93 % 1031,9 hPa 0,0 mm 4,2 km/h (1 Bft) O-SO 109 ° 0 min 0,000 mm 0,0 UV-I 0 W/m² -8,7 °C 4,8 km/h (1 Bft)
29.11.2016 07:40 -7,8 °C -7,8 °C 93 % 1031,9 hPa 0,0 mm 3,2 km/h (1 Bft) O 90 ° 0 min 0,000 mm 0,0 UV-I 0 W/m² -8,7 °C 4,8 km/h (1 Bft)
29.11.2016 07:41 -7,8 °C -7,8 °C 93 % 1031,9 hPa 0,0 mm 3,1 km/h (1 Bft) O 98 ° 0 min 0,000 mm 0,0 UV-I 0 W/m² -8,7 °C 4,8 km/h (1 Bft)
29.11.2016 07:42 -7,8 °C -7,8 °C 93 % 1031,9 hPa 0,0 mm 6,0 km/h (2 Bft) O-SO 113 ° 0 min 0,000 mm 0,0 UV-I 0 W/m² -8,7 °C 9,7 km/h (2 Bft)
29.11.2016 07:43 -7,8 °C -7,8 °C 93 % 1031,9 hPa 0,0 mm 4,2 km/h (1 Bft) O-NO 71 ° 0 min 0,000 mm 0,0 UV-I 0 W/m² -8,7 °C 6,4 km/h (2 Bft)
29.11.2016 07:44 -7,8 °C -7,8 °C 93 % 1031,9 hPa 0,0 mm 5,2 km/h (1 Bft) O 96 ° 0 min 0,000 mm 0,0 UV-I 0 W/m² -8,7 °C 9,7 km/h (2 Bft)
29.11.2016 07:45 -7,8 °C -7,8 °C 93 % 1031,9 hPa 0,0 mm 5,7 km/h (1 Bft) O-NO 62 ° 0 min 0,000 mm 0,0 UV-I 0 W/m² -8,7 °C 9,7 km/h (2 Bft)
29.11.2016 07:46 -7,8 °C -7,8 °C 93 % 1031,9 hPa 0,0 mm 4,7 km/h (1 Bft) O 100 ° 0 min 0,000 mm 0,0 UV-I 0 W/m² -8,7 °C 8,0 km/h (2 Bft)
29.11.2016 07:47 -7,8 °C -7,7 °C 93 % 1031,9 hPa 0,0 mm 5,8 km/h (2 Bft) O-SO 103 ° 0 min 0,000 mm 0,0 UV-I 5 W/m² -8,7 °C 9,7 km/h (2 Bft)
29.11.2016 07:48 -7,7 °C -7,7 °C 93 % 1031,9 hPa 0,0 mm 5,1 km/h (1 Bft) O 97 ° 0 min 0,000 mm 0,0 UV-I 5 W/m² -8,6 °C 11,3 km/h (2 Bft)
29.11.2016 07:49 -7,7 °C -7,7 °C 93 % 1031,9 hPa 0,0 mm 4,4 km/h (1 Bft) O 88 ° 0 min 0,000 mm 0,0 UV-I 5 W/m² -8,6 °C 9,7 km/h (2 Bft)
29.11.2016 07:50 -7,7 °C -7,7 °C 93 % 1031,9 hPa 0,0 mm 4,3 km/h (1 Bft) O-NO 74 ° 0 min 0,000 mm 0,0 UV-I 5 W/m² -8,6 °C 6,4 km/h (2 Bft)
29.11.2016 07:51 -7,7 °C -7,6 °C 93 % 1031,9 hPa 0,0 mm 4,2 km/h (1 Bft) O 82 ° 0 min 0,000 mm 0,0 UV-I 5 W/m² -8,6 °C 6,4 km/h (2 Bft)
29.11.2016 07:52 -7,7 °C -7,6 °C 93 % 1031,9 hPa 0,0 mm 4,8 km/h (1 Bft) O 92 ° 0 min 0,000 mm 0,0 UV-I 5 W/m² -8,6 °C 8,0 km/h (2 Bft)
29.11.2016 07:53 -7,6 °C -7,6 °C 93 % 1031,9 hPa 0,0 mm 5,6 km/h (1 Bft) O 88 ° 0 min 0,000 mm 0,0 UV-I 5 W/m² -8,5 °C 11,3 km/h (2 Bft)
29.11.2016 07:54 -7,6 °C -7,6 °C 93 % 1031,9 hPa 0,0 mm 4,2 km/h (1 Bft) O 85 ° 0 min 0,000 mm 0,0 UV-I 5 W/m² -8,5 °C 11,3 km/h (2 Bft)
29.11.2016 07:55 -7,6 °C -7,6 °C 93 % 1031,9 hPa 0,0 mm 5,0 km/h (1 Bft) O 93 ° 0 min 0,000 mm 0,0 UV-I 5 W/m² -8,5 °C 8,0 km/h (2 Bft)
29.11.2016 07:56 -7,6 °C -7,6 °C 93 % 1031,9 hPa 0,0 mm 3,9 km/h (1 Bft) O 86 ° 0 min 0,000 mm 0,0 UV-I 7 W/m² -8,5 °C 8,0 km/h (2 Bft)
29.11.2016 07:57 -7,6 °C -7,6 °C 93 % 1031,9 hPa 0,0 mm 3,4 km/h (1 Bft) O-NO 57 ° 0 min 0,000 mm 0,0 UV-I 7 W/m² -8,5 °C 4,8 km/h (1 Bft)
29.11.2016 07:58 -7,6 °C -7,6 °C 93 % 1031,9 hPa 0,0 mm 4,0 km/h (1 Bft) O-NO 76 ° 0 min 0,000 mm 0,0 UV-I 7 W/m² -8,5 °C 6,4 km/h (2 Bft)
29.11.2016 07:59 -7,6 °C -7,6 °C 93 % 1031,9 hPa 0,0 mm 4,4 km/h (1 Bft) O 94 ° 0 min 0,000 mm 0,0 UV-I 7 W/m² -8,5 °C 6,4 km/h (2 Bft)
29.11.2016 08:00 -7,6 °C -7,5 °C 93 % 1031,9 hPa 0,0 mm 3,0 km/h (1 Bft) O 80 ° 0 min 0,000 mm 0,0 UV-I 7 W/m² -8,5 °C 4,8 km/h (1 Bft)
29.11.2016 08:01 -7,5 °C -7,5 °C 93 % 1031,9 hPa 0,0 mm 5,5 km/h (1 Bft) O-NO 71 ° 0 min 0,000 mm 0,0 UV-I 7 W/m² -8,4 °C 8,0 km/h (2 Bft)
29.11.2016 08:02 -7,6 °C -7,5 °C 93 % 1031,9 hPa 0,0 mm 4,6 km/h (1 Bft) O 83 ° 0 min 0,000 mm 0,0 UV-I 7 W/m² -8,5 °C 12,9 km/h (3 Bft)
29.11.2016 08:03 -7,5 °C -7,5 °C 93 % 1031,9 hPa 0,0 mm 5,1 km/h (1 Bft) O-NO 58 ° 0 min 0,000 mm 0,0 UV-I 7 W/m² -8,4 °C 6,4 km/h (2 Bft)
29.11.2016 08:04 -7,5 °C -7,4 °C 93 % 1031,9 hPa 0,0 mm 5,4 km/h (1 Bft) O 91 ° 0 min 0,000 mm 0,0 UV-I 7 W/m² -8,4 °C 6,4 km/h (2 Bft)
29.11.2016 08:05 -7,4 °C -7,4 °C 93 % 1031,9 hPa 0,0 mm 3,7 km/h (1 Bft) O 81 ° 0 min 0,000 mm 0,0 UV-I 7 W/m² -8,3 °C 6,4 km/h (2 Bft)
29.11.2016 08:06 -7,4 °C -7,4 °C 93 % 1031,9 hPa 0,0 mm 5,0 km/h (1 Bft) O-NO 63 ° 0 min 0,000 mm 0,0 UV-I 9 W/m² -8,3 °C 8,0 km/h (2 Bft)
29.11.2016 08:07 -7,4 °C -7,4 °C 93 % 1031,9 hPa 0,0 mm 4,3 km/h (1 Bft) O 81 ° 0 min 0,000 mm 0,0 UV-I 9 W/m² -8,3 °C 8,0 km/h (2 Bft)
29.11.2016 08:08 -7,4 °C -7,4 °C 93 % 1031,9 hPa 0,0 mm 3,9 km/h (1 Bft) O-NO 71 ° 0 min 0,000 mm 0,0 UV-I 9 W/m² -8,3 °C 6,4 km/h (2 Bft)
29.11.2016 08:09 -7,4 °C -7,4 °C 93 % 1031,9 hPa 0,0 mm 3,9 km/h (1 Bft) O-NO 64 ° 0 min 0,000 mm 0,0 UV-I 9 W/m² -8,3 °C 6,4 km/h (2 Bft)
29.11.2016 08:10 -7,4 °C -7,4 °C 93 % 1031,9 hPa 0,0 mm 5,0 km/h (1 Bft) O-NO 63 ° 0 min 0,000 mm 0,0 UV-I 9 W/m² -8,3 °C 8,0 km/h (2 Bft)
29.11.2016 08:11 -7,4 °C -7,4 °C 93 % 1032,1 hPa 0,0 mm 4,2 km/h (1 Bft) SO 139 ° 0 min 0,000 mm 0,0 UV-I 9 W/m² -8,3 °C 6,4 km/h (2 Bft)
29.11.2016 08:12 -7,4 °C -7,4 °C 93 % 1032,1 hPa 0,0 mm 3,6 km/h (1 Bft) O-NO 63 ° 0 min 0,000 mm 0,0 UV-I 9 W/m² -8,3 °C 6,4 km/h (2 Bft)
29.11.2016 08:13 -7,4 °C -7,4 °C 93 % 1032,1 hPa 0,0 mm 6,2 km/h (2 Bft) O 95 ° 0 min 0,000 mm 0,0 UV-I 11 W/m² -8,3 °C 11,3 km/h (2 Bft)
29.11.2016 08:14 -7,4 °C -7,4 °C 93 % 1032,1 hPa 0,0 mm 3,1 km/h (1 Bft) O-NO 58 ° 0 min 0,000 mm 0,0 UV-I 11 W/m² -8,3 °C 4,8 km/h (1 Bft)
29.11.2016 08:15 -7,4 °C -7,4 °C 93 % 1032,1 hPa 0,0 mm 4,2 km/h (1 Bft) O-NO 75 ° 0 min 0,000 mm 0,0 UV-I 11 W/m² -8,3 °C 6,4 km/h (2 Bft)
29.11.2016 08:16 -7,4 °C -7,4 °C 92 % 1032,1 hPa 0,0 mm 2,5 km/h (1 Bft) O-NO 60 ° 0 min 0,000 mm 0,0 UV-I 11 W/m² -8,5 °C 4,8 km/h (1 Bft)
29.11.2016 08:17 -7,4 °C -7,4 °C 92 % 1032,1 hPa 0,0 mm 2,7 km/h (1 Bft) O-NO 69 ° 0 min 0,000 mm 0,0 UV-I 11 W/m² -8,5 °C 4,8 km/h (1 Bft)
29.11.2016 08:18 -7,4 °C -7,4 °C 92 % 1032,2 hPa 0,0 mm 3,5 km/h (1 Bft) O-NO 64 ° 0 min 0,000 mm 0,0 UV-I 11 W/m² -8,5 °C 4,8 km/h (1 Bft)
29.11.2016 08:19 -7,4 °C -7,4 °C 92 % 1032,2 hPa 0,0 mm 3,6 km/h (1 Bft) O-SO 118 ° 0 min 0,000 mm 0,0 UV-I 12 W/m² -8,5 °C 6,4 km/h (2 Bft)
29.11.2016 08:20 -7,4 °C -7,4 °C 92 % 1032,2 hPa 0,0 mm 3,6 km/h (1 Bft) O-NO 58 ° 0 min 0,000 mm 0,0 UV-I 12 W/m² -8,5 °C 4,8 km/h (1 Bft)
29.11.2016 08:21 -7,4 °C -7,4 °C 92 % 1032,2 hPa 0,0 mm 3,6 km/h (1 Bft) O-NO 62 ° 0 min 0,000 mm 0,0 UV-I 12 W/m² -8,5 °C 4,8 km/h (1 Bft)
29.11.2016 08:22 -7,4 °C -7,4 °C 92 % 1032,2 hPa 0,0 mm 1,2 km/h (1 Bft) O-NO 62 ° 0 min 0,000 mm 0,0 UV-I 12 W/m² -8,5 °C 3,2 km/h (1 Bft)
29.11.2016 08:23 -7,4 °C -7,4 °C 92 % 1032,2 hPa 0,0 mm 0,2 km/h (0 Bft) O-NO 62 ° 0 min 0,000 mm 0,0 UV-I 12 W/m² -8,5 °C 1,6 km/h (1 Bft)
29.11.2016 08:24 -7,4 °C -7,4 °C 92 % 1032,2 hPa 0,0 mm 0,3 km/h (0 Bft) O-NO 62 ° 0 min 0,000 mm 0,0 UV-I 12 W/m² -8,5 °C 1,6 km/h (1 Bft)
29.11.2016 08:25 -7,4 °C -7,4 °C 92 % 1032,2 hPa 0,0 mm 0,4 km/h (0 Bft) O-NO 62 ° 0 min 0,000 mm 0,0 UV-I 12 W/m² -8,5 °C 1,6 km/h (1 Bft)
29.11.2016 08:26 -7,4 °C -7,4 °C 92 % 1032,2 hPa 0,0 mm 0,0 km/h (0 Bft) O-NO 62 ° 0 min 0,000 mm 0,0 UV-I 12 W/m² -8,5 °C 0,0 km/h (0 Bft)
29.11.2016 08:27 -7,4 °C -7,4 °C 92 % 1032,3 hPa 0,0 mm 1,4 km/h (1 Bft) O-NO 63 ° 0 min 0,000 mm 0,0 UV-I 12 W/m² -8,5 °C 3,2 km/h (1 Bft)
29.11.2016 08:28 -7,4 °C -7,4 °C 92 % 1032,3 hPa 0,0 mm 0,6 km/h (0 Bft) O-NO 63 ° 0 min 0,000 mm 0,0 UV-I 12 W/m² -8,5 °C 1,6 km/h (1 Bft)
29.11.2016 08:29 -7,4 °C -7,4 °C 92 % 1032,3 hPa 0,0 mm 1,9 km/h (1 Bft) O-NO 63 ° 0 min 0,000 mm 0,0 UV-I 12 W/m² -8,5 °C 4,8 km/h (1 Bft)
29.11.2016 08:30 -7,4 °C -7,4 °C 92 % 1032,4 hPa 0,0 mm 1,9 km/h (1 Bft) O-NO 67 ° 0 min 0,000 mm 0,0 UV-I 14 W/m² -8,5 °C 3,2 km/h (1 Bft)
29.11.2016 08:31 -7,4 °C -7,4 °C 92 % 1032,4 hPa 0,0 mm 2,2 km/h (1 Bft) NO 56 ° 0 min 0,000 mm 0,0 UV-I 14 W/m² -8,5 °C 4,8 km/h (1 Bft)
29.11.2016 08:32 -7,4 °C -7,4 °C 92 % 1032,4 hPa 0,0 mm 1,0 km/h (0 Bft) NO 56 ° 0 min 0,000 mm 0,0 UV-I 14 W/m² -8,5 °C 3,2 km/h (1 Bft)
29.11.2016 08:33 -7,5 °C -7,4 °C 92 % 1032,4 hPa 0,0 mm 0,1 km/h (0 Bft) NO 56 ° 0 min 0,000 mm 0,0 UV-I 14 W/m² -8,6 °C 1,6 km/h (1 Bft)
29.11.2016 08:34 -7,4 °C -7,4 °C 92 % 1032,5 hPa 0,0 mm 0,0 km/h (0 Bft) NO 55 ° 0 min 0,000 mm 0,0 UV-I 14 W/m² -8,5 °C 0,0 km/h (0 Bft)
29.11.2016 08:35 -7,5 °C -7,4 °C 92 % 1032,4 hPa 0,0 mm 0,0 km/h (0 Bft) NO 55 ° 0 min 0,000 mm 0,0 UV-I 14 W/m² -8,6 °C 0,0 km/h (0 Bft)
29.11.2016 08:36 -7,5 °C -7,4 °C 92 % 1032,5 hPa 0,0 mm 0,0 km/h (0 Bft) NO 56 ° 0 min 0,000 mm 0,0 UV-I 16 W/m² -8,6 °C 0,0 km/h (0 Bft)
29.11.2016 08:37 -7,5 °C -7,4 °C 92 % 1032,5 hPa 0,0 mm 0,0 km/h (0 Bft) NO 55 ° 0 min 0,000 mm 0,0 UV-I 16 W/m² -8,6 °C 0,0 km/h (0 Bft)
29.11.2016 08:38 -7,5 °C -7,4 °C 92 % 1032,5 hPa 0,0 mm 0,3 km/h (0 Bft) NO 55 ° 0 min 0,000 mm 0,0 UV-I 16 W/m² -8,6 °C 1,6 km/h (1 Bft)
29.11.2016 08:39 -7,5 °C -7,4 °C 92 % 1032,5 hPa 0,0 mm 0,1 km/h (0 Bft) NO 56 ° 0 min 0,000 mm 0,0 UV-I 16 W/m² -8,6 °C 1,6 km/h (1 Bft)
29.11.2016 08:40 -7,5 °C -7,5 °C 92 % 1032,5 hPa 0,0 mm 0,0 km/h (0 Bft) NO 56 ° 0 min 0,000 mm 0,0 UV-I 16 W/m² -8,6 °C 0,0 km/h (0 Bft)
29.11.2016 08:41 -7,5 °C -7,5 °C 92 % 1032,5 hPa 0,0 mm 0,0 km/h (0 Bft) NO 56 ° 0 min 0,000 mm 0,0 UV-I 16 W/m² -8,6 °C 0,0 km/h (0 Bft)
29.11.2016 08:42 -7,5 °C -7,5 °C 92 % 1032,5 hPa 0,0 mm 0,7 km/h (0 Bft) O-SO 110 ° 0 min 0,000 mm 0,0 UV-I 16 W/m² -8,6 °C 1,6 km/h (1 Bft)
29.11.2016 08:43 -7,5 °C -7,5 °C 92 % 1032,6 hPa 0,0 mm 1,7 km/h (1 Bft) O-NO 71 ° 0 min 0,000 mm 0,0 UV-I 16 W/m² -8,6 °C 3,2 km/h (1 Bft)
29.11.2016 08:44 -7,6 °C -7,5 °C 92 % 1032,6 hPa 0,0 mm 2,4 km/h (1 Bft) NO 53 ° 0 min 0,000 mm 0,0 UV-I 18 W/m² -8,7 °C 4,8 km/h (1 Bft)
29.11.2016 08:45 -7,5 °C -7,5 °C 92 % 1032,6 hPa 0,0 mm 2,5 km/h (1 Bft) NO 53 ° 0 min 0,000 mm 0,0 UV-I 18 W/m² -8,6 °C 4,8 km/h (1 Bft)
29.11.2016 08:46 -7,6 °C -7,5 °C 92 % 1032,6 hPa 0,0 mm 1,0 km/h (0 Bft) NO 53 ° 0 min 0,000 mm 0,0 UV-I 18 W/m² -8,7 °C 1,6 km/h (1 Bft)
29.11.2016 08:47 -7,6 °C -7,5 °C 92 % 1032,6 hPa 0,0 mm 1,5 km/h (1 Bft) NO 53 ° 0 min 0,000 mm 0,0 UV-I 18 W/m² -8,7 °C 3,2 km/h (1 Bft)
29.11.2016 08:48 -7,6 °C -7,5 °C 92 % 1032,6 hPa 0,0 mm 1,3 km/h (1 Bft) NO 53 ° 0 min 0,000 mm 0,0 UV-I 19 W/m² -8,7 °C 3,2 km/h (1 Bft)
29.11.2016 08:49 -7,6 °C -7,5 °C 92 % 1032,6 hPa 0,0 mm 0,1 km/h (0 Bft) NO 53 ° 0 min 0,000 mm 0,0 UV-I 19 W/m² -8,7 °C 1,6 km/h (1 Bft)
29.11.2016 08:50 -7,6 °C -7,5 °C 92 % 1032,7 hPa 0,0 mm 0,2 km/h (0 Bft) NO 53 ° 0 min 0,000 mm 0,0 UV-I 21 W/m² -8,7 °C 1,6 km/h (1 Bft)
29.11.2016 08:51 -7,6 °C -7,6 °C 92 % 1032,6 hPa 0,0 mm 0,0 km/h (0 Bft) NO 53 ° 0 min 0,000 mm 0,0 UV-I 19 W/m² -8,7 °C 0,0 km/h (0 Bft)
29.11.2016 08:52 -7,6 °C -7,6 °C 92 % 1032,6 hPa 0,0 mm 1,0 km/h (0 Bft) O-NO 60 ° 0 min 0,000 mm 0,0 UV-I 18 W/m² -8,7 °C 3,2 km/h (1 Bft)
29.11.2016 08:53 -7,6 °C -7,6 °C 92 % 1032,6 hPa 0,0 mm 2,3 km/h (1 Bft) O 88 ° 0 min 0,000 mm 0,0 UV-I 18 W/m² -8,7 °C 4,8 km/h (1 Bft)
29.11.2016 08:54 -7,5 °C -7,5 °C 92 % 1032,6 hPa 0,0 mm 1,3 km/h (1 Bft) O 88 ° 0 min 0,000 mm 0,0 UV-I 19 W/m² -8,6 °C 3,2 km/h (1 Bft)
29.11.2016 08:55 -7,6 °C -7,5 °C 92 % 1032,6 hPa 0,0 mm 0,9 km/h (0 Bft) O 88 ° 0 min 0,000 mm 0,0 UV-I 19 W/m² -8,7 °C 3,2 km/h (1 Bft)
29.11.2016 08:56 -7,6 °C -7,5 °C 92 % 1032,6 hPa 0,0 mm 1,5 km/h (1 Bft) O 88 ° 0 min 0,000 mm 0,0 UV-I 21 W/m² -8,7 °C 3,2 km/h (1 Bft)
29.11.2016 08:57 -7,6 °C -7,5 °C 92 % 1032,6 hPa 0,0 mm 1,8 km/h (1 Bft) O 88 ° 0 min 0,000 mm 0,0 UV-I 23 W/m² -8,7 °C 3,2 km/h (1 Bft)
29.11.2016 08:58 -7,6 °C -7,5 °C 92 % 1032,6 hPa 0,0 mm 2,5 km/h (1 Bft) O 88 ° 0 min 0,000 mm 0,0 UV-I 23 W/m² -8,7 °C 3,2 km/h (1 Bft)
29.11.2016 08:59 -7,6 °C -7,6 °C 92 % 1032,6 hPa 0,0 mm 1,5 km/h (1 Bft) O 88 ° 0 min 0,000 mm 0,0 UV-I 21 W/m² -8,7 °C 3,2 km/h (1 Bft)
29.11.2016 09:00 -7,6 °C -7,5 °C 92 % 1032,6 hPa 0,0 mm 2,1 km/h (1 Bft) O 95 ° 0 min 0,000 mm 0,0 UV-I 25 W/m² -8,7 °C 4,8 km/h (1 Bft)
29.11.2016 09:01 -7,5 °C -7,5 °C 92 % 1032,6 hPa 0,0 mm 2,3 km/h (1 Bft) O 96 ° 0 min 0,000 mm 0,0 UV-I 23 W/m² -8,6 °C 3,2 km/h (1 Bft)
29.11.2016 09:02 -7,5 °C -7,5 °C 92 % 1032,6 hPa 0,0 mm 2,0 km/h (1 Bft) O 96 ° 0 min 0,000 mm 0,0 UV-I 19 W/m² -8,6 °C 4,8 km/h (1 Bft)
29.11.2016 09:03 -7,5 °C -7,5 °C 92 % 1032,7 hPa 0,0 mm 3,5 km/h (1 Bft) O-SO 105 ° 0 min 0,000 mm 0,0 UV-I 21 W/m² -8,6 °C 4,8 km/h (1 Bft)
29.11.2016 09:04 -7,4 °C -7,4 °C 92 % 1032,7 hPa 0,0 mm 3,4 km/h (1 Bft) O-NO 64 ° 0 min 0,000 mm 0,0 UV-I 23 W/m² -8,5 °C 4,8 km/h (1 Bft)
29.11.2016 09:05 -7,4 °C -7,4 °C 92 % 1032,7 hPa 0,0 mm 3,4 km/h (1 Bft) O-NO 71 ° 0 min 0,000 mm 0,0 UV-I 23 W/m² -8,5 °C 4,8 km/h (1 Bft)
29.11.2016 09:06 -7,4 °C -7,4 °C 92 % 1032,7 hPa 0,0 mm 2,4 km/h (1 Bft) O 82 ° 0 min 0,000 mm 0,0 UV-I 26 W/m² -8,5 °C 4,8 km/h (1 Bft)
29.11.2016 09:07 -7,4 °C -7,4 °C 92 % 1032,7 hPa 0,0 mm 3,6 km/h (1 Bft) NO 55 ° 0 min 0,000 mm 0,0 UV-I 26 W/m² -8,5 °C 6,4 km/h (2 Bft)
29.11.2016 09:08 -7,4 °C -7,4 °C 92 % 1032,7 hPa 0,0 mm 4,3 km/h (1 Bft) O 97 ° 0 min 0,000 mm 0,0 UV-I 26 W/m² -8,5 °C 6,4 km/h (2 Bft)
29.11.2016 09:09 -7,4 °C -7,4 °C 93 % 1032,7 hPa 0,0 mm 3,9 km/h (1 Bft) O-NO 60 ° 0 min 0,000 mm 0,0 UV-I 30 W/m² -8,3 °C 6,4 km/h (2 Bft)
29.11.2016 09:10 -7,4 °C -7,4 °C 93 % 1032,7 hPa 0,0 mm 2,8 km/h (1 Bft) O-NO 78 ° 0 min 0,000 mm 0,0 UV-I 26 W/m² -8,3 °C 4,8 km/h (1 Bft)
29.11.2016 09:11 -7,4 °C -7,4 °C 93 % 1032,7 hPa 0,0 mm 3,8 km/h (1 Bft) O-SO 105 ° 0 min 0,000 mm 0,0 UV-I 25 W/m² -8,3 °C 6,4 km/h (2 Bft)
29.11.2016 09:12 -7,3 °C -7,3 °C 93 % 1032,7 hPa 0,0 mm 4,6 km/h (1 Bft) O-NO 78 ° 0 min 0,000 mm 0,0 UV-I 32 W/m² -8,2 °C 6,4 km/h (2 Bft)
29.11.2016 09:13 -7,3 °C -7,3 °C 93 % 1032,7 hPa 0,0 mm 5,4 km/h (1 Bft) O-NO 66 ° 0 min 0,000 mm 0,0 UV-I 28 W/m² -8,2 °C 8,0 km/h (2 Bft)
29.11.2016 09:14 -7,3 °C -7,3 °C 93 % 1032,7 hPa 0,0 mm 6,0 km/h (2 Bft) O-NO 59 ° 0 min 0,000 mm 0,0 UV-I 25 W/m² -8,2 °C 8,0 km/h (2 Bft)
29.11.2016 09:15 -7,3 °C -7,3 °C 93 % 1032,7 hPa 0,0 mm 5,0 km/h (1 Bft) O 80 ° 0 min 0,000 mm 0,0 UV-I 23 W/m² -8,2 °C 8,0 km/h (2 Bft)
29.11.2016 09:16 -7,3 °C -7,3 °C 93 % 1032,6 hPa 0,0 mm 4,3 km/h (1 Bft) O-NO 74 ° 0 min 0,000 mm 0,0 UV-I 28 W/m² -8,2 °C 4,8 km/h (1 Bft)
29.11.2016 09:17 -7,3 °C -7,3 °C 93 % 1032,7 hPa 0,0 mm 4,3 km/h (1 Bft) O-NO 71 ° 0 min 0,000 mm 0,0 UV-I 28 W/m² -8,2 °C 6,4 km/h (2 Bft)
29.11.2016 09:18 -7,3 °C -7,3 °C 93 % 1032,7 hPa 0,0 mm 3,2 km/h (1 Bft) O-NO 72 ° 0 min 0,000 mm 0,0 UV-I 23 W/m² -8,2 °C 4,8 km/h (1 Bft)
29.11.2016 09:19 -7,3 °C -7,3 °C 93 % 1032,7 hPa 0,0 mm 4,9 km/h (1 Bft) O-NO 65 ° 0 min 0,000 mm 0,0 UV-I 25 W/m² -8,2 °C 8,0 km/h (2 Bft)
29.11.2016 09:20 -7,3 °C -7,3 °C 93 % 1032,7 hPa 0,0 mm 6,3 km/h (2 Bft) O-NO 64 ° 0 min 0,000 mm 0,0 UV-I 25 W/m² -8,2 °C 8,0 km/h (2 Bft)
29.11.2016 09:21 -7,3 °C -7,3 °C 93 % 1032,6 hPa 0,0 mm 4,3 km/h (1 Bft) O 87 ° 0 min 0,000 mm 0,0 UV-I 23 W/m² -8,2 °C 6,4 km/h (2 Bft)
29.11.2016 09:22 -7,2 °C -7,2 °C 93 % 1032,6 hPa 0,0 mm 3,9 km/h (1 Bft) O-NO 78 ° 0 min 0,000 mm 0,0 UV-I 21 W/m² -8,1 °C 6,4 km/h (2 Bft)
29.11.2016 09:23 -7,3 °C -7,2 °C 93 % 1032,6 hPa 0,0 mm 6,2 km/h (2 Bft) O 98 ° 0 min 0,000 mm 0,0 UV-I 23 W/m² -8,2 °C 9,7 km/h (2 Bft)
29.11.2016 09:24 -7,2 °C -7,2 °C 93 % 1032,6 hPa 0,0 mm 5,7 km/h (1 Bft) O 96 ° 0 min 0,000 mm 0,0 UV-I 21 W/m² -8,1 °C 8,0 km/h (2 Bft)
29.11.2016 09:25 -7,2 °C -7,2 °C 93 % 1032,6 hPa 0,0 mm 4,7 km/h (1 Bft) O 93 ° 0 min 0,000 mm 0,0 UV-I 21 W/m² -8,1 °C 9,7 km/h (2 Bft)
29.11.2016 09:26 -7,2 °C -7,2 °C 93 % 1032,6 hPa 0,0 mm 5,6 km/h (1 Bft) O 80 ° 0 min 0,000 mm 0,0 UV-I 23 W/m² -8,1 °C 8,0 km/h (2 Bft)
29.11.2016 09:27 -7,2 °C -7,2 °C 93 % 1032,6 hPa 0,0 mm 6,1 km/h (2 Bft) O 86 ° 0 min 0,000 mm 0,0 UV-I 25 W/m² -8,1 °C 8,0 km/h (2 Bft)
29.11.2016 09:28 -7,2 °C -7,2 °C 93 % 1032,7 hPa 0,0 mm 4,4 km/h (1 Bft) O-NO 74 ° 0 min 0,000 mm 0,0 UV-I 23 W/m² -8,1 °C 6,4 km/h (2 Bft)
29.11.2016 09:29 -7,2 °C -7,2 °C 93 % 1032,6 hPa 0,0 mm 5,5 km/h (1 Bft) O 92 ° 0 min 0,000 mm 0,0 UV-I 23 W/m² -8,1 °C 8,0 km/h (2 Bft)
29.11.2016 09:30 -7,1 °C -7,1 °C 93 % 1032,7 hPa 0,0 mm 5,9 km/h (2 Bft) O-NO 76 ° 0 min 0,000 mm 0,0 UV-I 21 W/m² -8,0 °C 8,0 km/h (2 Bft)
29.11.2016 09:31 -7,1 °C -7,1 °C 93 % 1032,7 hPa 0,0 mm 5,2 km/h (1 Bft) O-NO 78 ° 0 min 0,000 mm 0,0 UV-I 23 W/m² -8,0 °C 6,4 km/h (2 Bft)
29.11.2016 09:32 -7,1 °C -7,1 °C 93 % 1032,7 hPa 0,0 mm 6,6 km/h (2 Bft) NO 48 ° 0 min 0,000 mm 0,0 UV-I 23 W/m² -8,0 °C 8,0 km/h (2 Bft)
29.11.2016 09:33 -7,1 °C -7,1 °C 93 % 1032,7 hPa 0,0 mm 6,7 km/h (2 Bft) NO 41 ° 0 min 0,000 mm 0,0 UV-I 21 W/m² -8,0 °C 8,0 km/h (2 Bft)
29.11.2016 09:34 -7,1 °C -7,1 °C 93 % 1032,7 hPa 0,0 mm 7,3 km/h (2 Bft) O-NO 70 ° 0 min 0,000 mm 0,0 UV-I 19 W/m² -8,0 °C 12,9 km/h (3 Bft)
29.11.2016 09:35 -7,1 °C -7,1 °C 93 % 1032,7 hPa 0,0 mm 8,2 km/h (2 Bft) O-NO 71 ° 0 min 0,000 mm 0,0 UV-I 19 W/m² -8,0 °C 12,9 km/h (3 Bft)
29.11.2016 09:36 -7,0 °C -7,0 °C 93 % 1032,7 hPa 0,0 mm 4,7 km/h (1 Bft) O-NO 59 ° 0 min 0,000 mm 0,0 UV-I 19 W/m² -7,9 °C 6,4 km/h (2 Bft)
29.11.2016 09:37 -7,1 °C -7,0 °C 93 % 1032,7 hPa 0,0 mm 7,8 km/h (2 Bft) O-NO 78 ° 0 min 0,000 mm 0,0 UV-I 19 W/m² -8,0 °C 12,9 km/h (3 Bft)
29.11.2016 09:38 -7,0 °C -7,0 °C 93 % 1032,7 hPa 0,0 mm 6,4 km/h (2 Bft) O-NO 57 ° 0 min 0,000 mm 0,0 UV-I 19 W/m² -7,9 °C 12,9 km/h (3 Bft)
29.11.2016 09:39 -7,0 °C -7,0 °C 93 % 1032,7 hPa 0,0 mm 6,8 km/h (2 Bft) NO 55 ° 0 min 0,000 mm 0,0 UV-I 19 W/m² -7,9 °C 11,3 km/h (2 Bft)
29.11.2016 09:40 -7,0 °C -6,9 °C 93 % 1032,7 hPa 0,0 mm 7,2 km/h (2 Bft) O 97 ° 0 min 0,000 mm 0,0 UV-I 19 W/m² -7,9 °C 11,3 km/h (2 Bft)
29.11.2016 09:41 -6,9 °C -6,9 °C 93 % 1032,7 hPa 0,0 mm 7,4 km/h (2 Bft) O-NO 72 ° 0 min 0,000 mm 0,0 UV-I 19 W/m² -7,8 °C 11,3 km/h (2 Bft)
29.11.2016 09:42 -6,9 °C -6,9 °C 93 % 1032,7 hPa 0,0 mm 7,6 km/h (2 Bft) O-NO 57 ° 0 min 0,000 mm 0,0 UV-I 19 W/m² -7,8 °C 12,9 km/h (3 Bft)
29.11.2016 09:43 -6,9 °C -6,9 °C 93 % 1032,7 hPa 0,0 mm 7,9 km/h (2 Bft) O-NO 78 ° 0 min 0,000 mm 0,0 UV-I 19 W/m² -7,8 °C 12,9 km/h (3 Bft)
29.11.2016 09:44 -6,9 °C -6,9 °C 93 % 1032,7 hPa 0,0 mm 6,6 km/h (2 Bft) O-NO 63 ° 0 min 0,000 mm 0,0 UV-I 19 W/m² -7,8 °C 11,3 km/h (2 Bft)
29.11.2016 09:45 -6,9 °C -6,9 °C 93 % 1032,8 hPa 0,0 mm 9,5 km/h (2 Bft) O-NO 61 ° 0 min 0,000 mm 0,0 UV-I 21 W/m² -7,8 °C 12,9 km/h (3 Bft)
29.11.2016 09:46 -6,9 °C -6,9 °C 93 % 1032,8 hPa 0,0 mm 8,7 km/h (2 Bft) O-NO 61 ° 0 min 0,000 mm 0,0 UV-I 21 W/m² -7,8 °C 14,5 km/h (3 Bft)
29.11.2016 09:47 -6,9 °C -6,9 °C 93 % 1032,8 hPa 0,0 mm 6,0 km/h (2 Bft) O-NO 67 ° 0 min 0,000 mm 0,0 UV-I 21 W/m² -7,8 °C 8,0 km/h (2 Bft)
29.11.2016 09:48 -6,9 °C -6,9 °C 93 % 1032,8 hPa 0,0 mm 6,9 km/h (2 Bft) O-NO 63 ° 0 min 0,000 mm 0,0 UV-I 21 W/m² -7,8 °C 9,7 km/h (2 Bft)
29.11.2016 09:49 -6,9 °C -6,9 °C 93 % 1032,8 hPa 0,0 mm 8,1 km/h (2 Bft) O-NO 75 ° 0 min 0,000 mm 0,0 UV-I 21 W/m² -7,8 °C 11,3 km/h (2 Bft)
29.11.2016 09:50 -6,9 °C -6,9 °C 93 % 1032,8 hPa 0,0 mm 7,4 km/h (2 Bft) O-NO 64 ° 0 min 0,000 mm 0,0 UV-I 21 W/m² -7,8 °C 9,7 km/h (2 Bft)
29.11.2016 09:51 -6,8 °C -6,8 °C 93 % 1032,8 hPa 0,0 mm 4,7 km/h (1 Bft) NO 49 ° 0 min 0,000 mm 0,0 UV-I 21 W/m² -7,7 °C 8,0 km/h (2 Bft)
29.11.2016 09:52 -6,8 °C -6,8 °C 93 % 1032,8 hPa 0,0 mm 5,0 km/h (1 Bft) NO 42 ° 0 min 0,000 mm 0,0 UV-I 21 W/m² -7,7 °C 6,4 km/h (2 Bft)
29.11.2016 09:53 -6,8 °C -6,8 °C 93 % 1032,8 hPa 0,0 mm 6,2 km/h (2 Bft) O-NO 65 ° 0 min 0,000 mm 0,0 UV-I 25 W/m² -7,7 °C 9,7 km/h (2 Bft)
29.11.2016 09:54 -6,8 °C -6,8 °C 93 % 1032,9 hPa 0,0 mm 5,4 km/h (1 Bft) O 94 ° 0 min 0,000 mm 0,0 UV-I 25 W/m² -7,7 °C 8,0 km/h (2 Bft)
29.11.2016 09:55 -6,8 °C -6,8 °C 93 % 1032,8 hPa 0,0 mm 6,3 km/h (2 Bft) O-NO 59 ° 0 min 0,000 mm 0,0 UV-I 26 W/m² -7,7 °C 9,7 km/h (2 Bft)
29.11.2016 09:56 -6,8 °C -6,8 °C 93 % 1032,8 hPa 0,0 mm 5,7 km/h (1 Bft) N-NO 14 ° 0 min 0,000 mm 0,0 UV-I 26 W/m² -7,7 °C 8,0 km/h (2 Bft)
29.11.2016 09:57 -6,8 °C -6,8 °C 93 % 1032,8 hPa 0,0 mm 3,6 km/h (1 Bft) O-NO 57 ° 0 min 0,000 mm 0,0 UV-I 28 W/m² -7,7 °C 6,4 km/h (2 Bft)
29.11.2016 09:58 -6,7 °C -6,7 °C 93 % 1032,8 hPa 0,0 mm 6,3 km/h (2 Bft) O-NO 67 ° 0 min 0,000 mm 0,0 UV-I 32 W/m² -7,6 °C 8,0 km/h (2 Bft)
29.11.2016 09:59 -6,7 °C -6,7 °C 93 % 1032,9 hPa 0,0 mm 5,6 km/h (1 Bft) O-NO 63 ° 0 min 0,000 mm 0,0 UV-I 37 W/m² -7,6 °C 8,0 km/h (2 Bft)
29.11.2016 10:00 -6,7 °C -6,7 °C 93 % 1032,9 hPa 0,0 mm 4,2 km/h (1 Bft) O-NO 65 ° 0 min 0,000 mm 0,0 UV-I 42 W/m² -7,6 °C 6,4 km/h (2 Bft)
29.11.2016 10:01 -6,7 °C -6,7 °C 93 % 1032,9 hPa 0,0 mm 1,3 km/h (1 Bft) O-NO 65 ° 0 min 0,000 mm 0,0 UV-I 44 W/m² -7,6 °C 3,2 km/h (1 Bft)
29.11.2016 10:02 -6,7 °C -6,7 °C 93 % 1033,0 hPa 0,0 mm 3,8 km/h (1 Bft) O-NO 59 ° 0 min 0,000 mm 0,0 UV-I 42 W/m² -7,6 °C 6,4 km/h (2 Bft)
29.11.2016 10:03 -6,6 °C -6,6 °C 93 % 1033,0 hPa 0,0 mm 2,5 km/h (1 Bft) NO 51 ° 0 min 0,000 mm 0,0 UV-I 39 W/m² -7,5 °C 4,8 km/h (1 Bft)
29.11.2016 10:04 -6,7 °C -6,6 °C 93 % 1032,9 hPa 0,0 mm 2,6 km/h (1 Bft) NO 40 ° 0 min 0,000 mm 0,0 UV-I 37 W/m² -7,6 °C 4,8 km/h (1 Bft)
29.11.2016 10:05 -6,6 °C -6,6 °C 93 % 1033,0 hPa 0,0 mm 2,9 km/h (1 Bft) O-NO 66 ° 0 min 0,000 mm 0,0 UV-I 39 W/m² -7,5 °C 4,8 km/h (1 Bft)
29.11.2016 10:06 -6,6 °C -6,6 °C 93 % 1033,0 hPa 0,0 mm 2,3 km/h (1 Bft) NO 51 ° 0 min 0,000 mm 0,0 UV-I 40 W/m² -7,5 °C 3,2 km/h (1 Bft)
29.11.2016 10:07 -6,6 °C -6,6 °C 93 % 1033,1 hPa 0,0 mm 3,4 km/h (1 Bft) O-NO 68 ° 0 min 0,000 mm 0,0 UV-I 53 W/m² -7,5 °C 6,4 km/h (2 Bft)
29.11.2016 10:08 -6,6 °C -6,6 °C 93 % 1033,1 hPa 0,0 mm 6,2 km/h (2 Bft) O 84 ° 0 min 0,000 mm 0,6 UV-I 65 W/m² -7,5 °C 8,0 km/h (2 Bft)
29.11.2016 10:09 -6,5 °C -6,5 °C 93 % 1033,1 hPa 0,0 mm 5,8 km/h (2 Bft) O-NO 67 ° 0 min 0,000 mm 0,6 UV-I 62 W/m² -7,4 °C 8,0 km/h (2 Bft)
29.11.2016 10:10 -6,4 °C -6,4 °C 93 % 1033,1 hPa 0,0 mm 5,4 km/h (1 Bft) O-NO 57 ° 0 min 0,000 mm 0,6 UV-I 69 W/m² -7,3 °C 8,0 km/h (2 Bft)
29.11.2016 10:11 -6,4 °C -6,4 °C 94 % 1033,1 hPa 0,0 mm 3,2 km/h (1 Bft) O-NO 74 ° 0 min 0,000 mm 0,7 UV-I 69 W/m² -7,2 °C 4,8 km/h (1 Bft)
29.11.2016 10:12 -6,3 °C -6,3 °C 94 % 1033,1 hPa 0,0 mm 2,1 km/h (1 Bft) O 79 ° 0 min 0,000 mm 0,6 UV-I 79 W/m² -7,1 °C 3,2 km/h (1 Bft)
29.11.2016 10:13 -6,2 °C -6,2 °C 94 % 1033,1 hPa 0,0 mm 3,7 km/h (1 Bft) NO 40 ° 0 min 0,000 mm 0,7 UV-I 91 W/m² -7,0 °C 6,4 km/h (2 Bft)
29.11.2016 10:14 -6,1 °C -6,1 °C 93 % 1033,2 hPa 0,0 mm 3,1 km/h (1 Bft) NO 42 ° 0 min 0,000 mm 0,7 UV-I 95 W/m² -7,0 °C 4,8 km/h (1 Bft)
29.11.2016 10:15 -6,1 °C -6,1 °C 93 % 1033,2 hPa 0,0 mm 5,6 km/h (1 Bft) O 81 ° 0 min 0,000 mm 0,7 UV-I 83 W/m² -7,0 °C 9,7 km/h (2 Bft)
29.11.2016 10:16 -6,1 °C -6,0 °C 93 % 1033,1 hPa 0,0 mm 5,2 km/h (1 Bft) O 90 ° 0 min 0,000 mm 0,7 UV-I 60 W/m² -7,0 °C 6,4 km/h (2 Bft)
29.11.2016 10:17 -6,0 °C -6,0 °C 93 % 1033,2 hPa 0,0 mm 3,2 km/h (1 Bft) O-NO 61 ° 0 min 0,000 mm 0,0 UV-I 53 W/m² -6,9 °C 4,8 km/h (1 Bft)
29.11.2016 10:18 -6,0 °C -6,0 °C 93 % 1033,2 hPa 0,0 mm 5,9 km/h (2 Bft) O 80 ° 0 min 0,000 mm 0,0 UV-I 53 W/m² -6,9 °C 8,0 km/h (2 Bft)
29.11.2016 10:19 -5,9 °C -5,9 °C 93 % 1033,2 hPa 0,0 mm 5,6 km/h (1 Bft) O-NO 76 ° 0 min 0,000 mm 0,0 UV-I 46 W/m² -6,8 °C 8,0 km/h (2 Bft)
29.11.2016 10:20 -5,9 °C -5,9 °C 92 % 1033,2 hPa 0,0 mm 3,6 km/h (1 Bft) NO 56 ° 0 min 0,000 mm 0,7 UV-I 56 W/m² -7,0 °C 4,8 km/h (1 Bft)
29.11.2016 10:21 -5,9 °C -5,9 °C 92 % 1033,2 hPa 0,0 mm 7,0 km/h (2 Bft) O-NO 65 ° 0 min 0,000 mm 0,0 UV-I 42 W/m² -7,0 °C 11,3 km/h (2 Bft)
29.11.2016 10:22 -5,9 °C -5,9 °C 92 % 1033,3 hPa 0,0 mm 5,4 km/h (1 Bft) O-NO 78 ° 0 min 0,000 mm 0,0 UV-I 47 W/m² -7,0 °C 6,4 km/h (2 Bft)
29.11.2016 12:43 -3,6 °C -3,6 °C 87 % 1033,2 hPa 0,0 mm 5,8 km/h (2 Bft) O 80 ° 0 min 0,000 mm 0,0 UV-I 23 W/m² -5,4 °C 6,4 km/h (2 Bft)
29.11.2016 12:44 -3,6 °C -3,6 °C 87 % 1033,2 hPa 0,0 mm 4,6 km/h (1 Bft) NO 46 ° 0 min 0,000 mm 0,0 UV-I 23 W/m² -5,4 °C 6,4 km/h (2 Bft)
29.11.2016 12:45 -3,6 °C -3,6 °C 87 % 1033,2 hPa 0,0 mm 4,9 km/h (1 Bft) O-NO 74 ° 0 min 0,000 mm 0,0 UV-I 23 W/m² -5,4 °C 9,7 km/h (2 Bft)
29.11.2016 12:46 -3,6 °C -3,6 °C 88 % 1033,2 hPa 0,0 mm 4,6 km/h (1 Bft) O-NO 65 ° 0 min 0,000 mm 0,0 UV-I 23 W/m² -5,3 °C 6,4 km/h (2 Bft)
29.11.2016 12:47 -3,6 °C -3,6 °C 88 % 1033,2 hPa 0,0 mm 2,6 km/h (1 Bft) NO 55 ° 0 min 0,000 mm 0,0 UV-I 23 W/m² -5,3 °C 8,0 km/h (2 Bft)
29.11.2016 12:48 -3,6 °C -3,6 °C 88 % 1033,2 hPa 0,0 mm 5,5 km/h (1 Bft) O 90 ° 0 min 0,000 mm 0,0 UV-I 23 W/m² -5,3 °C 8,0 km/h (2 Bft)
29.11.2016 12:49 -3,6 °C -3,6 °C 88 % 1033,2 hPa 0,0 mm 2,4 km/h (1 Bft) O-NO 76 ° 0 min 0,000 mm 0,0 UV-I 23 W/m² -5,3 °C 4,8 km/h (1 Bft)
29.11.2016 12:50 -3,6 °C -3,6 °C 88 % 1033,2 hPa 0,0 mm 3,5 km/h (1 Bft) O-NO 65 ° 0 min 0,000 mm 0,0 UV-I 23 W/m² -5,3 °C 6,4 km/h (2 Bft)
29.11.2016 12:51 -3,6 °C -3,6 °C 88 % 1033,1 hPa 0,0 mm 1,1 km/h (1 Bft) O-NO 65 ° 0 min 0,000 mm 0,0 UV-I 23 W/m² -5,3 °C 1,6 km/h (1 Bft)
29.11.2016 12:52 -3,6 °C -3,6 °C 88 % 1033,2 hPa 0,0 mm 1,5 km/h (1 Bft) O-NO 65 ° 0 min 0,000 mm 0,0 UV-I 23 W/m² -5,3 °C 3,2 km/h (1 Bft)
29.11.2016 12:53 -3,6 °C -3,6 °C 88 % 1033,2 hPa 0,0 mm 4,0 km/h (1 Bft) O-NO 63 ° 0 min 0,000 mm 0,0 UV-I 23 W/m² -5,3 °C 6,4 km/h (2 Bft)
29.11.2016 12:54 -3,6 °C -3,6 °C 88 % 1033,2 hPa 0,0 mm 4,5 km/h (1 Bft) O 88 ° 0 min 0,000 mm 0,0 UV-I 23 W/m² -5,3 °C 6,4 km/h (2 Bft)
29.11.2016 12:55 -3,6 °C -3,6 °C 88 % 1033,2 hPa 0,0 mm 2,4 km/h (1 Bft) O-NO 61 ° 0 min 0,000 mm 0,0 UV-I 25 W/m² -5,3 °C 4,8 km/h (1 Bft)
29.11.2016 12:56 -3,6 °C -3,6 °C 88 % 1033,1 hPa 0,0 mm 6,0 km/h (2 Bft) SO 125 ° 0 min 0,000 mm 0,0 UV-I 26 W/m² -5,3 °C 9,7 km/h (2 Bft)
29.11.2016 12:57 -3,6 °C -3,6 °C 88 % 1033,2 hPa 0,0 mm 7,1 km/h (2 Bft) O 90 ° 0 min 0,000 mm 0,0 UV-I 26 W/m² -5,3 °C 12,9 km/h (3 Bft)
29.11.2016 12:58 -3,5 °C -3,5 °C 87 % 1033,2 hPa 0,0 mm 3,7 km/h (1 Bft) O 90 ° 0 min 0,000 mm 0,0 UV-I 25 W/m² -5,3 °C 4,8 km/h (1 Bft)
29.11.2016 12:59 -3,6 °C -3,5 °C 87 % 1033,1 hPa 0,0 mm 4,7 km/h (1 Bft) O-NO 57 ° 0 min 0,000 mm 0,0 UV-I 23 W/m² -5,4 °C 9,7 km/h (2 Bft)
29.11.2016 13:00 -3,6 °C -3,5 °C 87 % 1033,1 hPa 0,0 mm 2,7 km/h (1 Bft) O-NO 59 ° 0 min 0,000 mm 0,0 UV-I 23 W/m² -5,4 °C 4,8 km/h (1 Bft)
29.11.2016 13:01 -3,5 °C -3,5 °C 87 % 1033,2 hPa 0,0 mm 3,4 km/h (1 Bft) O 82 ° 0 min 0,000 mm 0,0 UV-I 23 W/m² -5,3 °C 6,4 km/h (2 Bft)
29.11.2016 13:02 -3,5 °C -3,5 °C 87 % 1033,1 hPa 0,0 mm 3,5 km/h (1 Bft) O 88 ° 0 min 0,000 mm 0,0 UV-I 23 W/m² -5,3 °C 4,8 km/h (1 Bft)
29.11.2016 13:03 -3,5 °C -3,5 °C 87 % 1033,2 hPa 0,0 mm 1,4 km/h (1 Bft) O-SO 105 ° 0 min 0,000 mm 0,0 UV-I 23 W/m² -5,3 °C 3,2 km/h (1 Bft)
29.11.2016 13:04 -3,5 °C -3,5 °C 87 % 1033,1 hPa 0,0 mm 2,8 km/h (1 Bft) O 84 ° 0 min 0,000 mm 0,0 UV-I 23 W/m² -5,3 °C 4,8 km/h (1 Bft)
29.11.2016 13:05 -3,5 °C -3,5 °C 87 % 1033,2 hPa 0,0 mm 2,3 km/h (1 Bft) O-NO 68 ° 0 min 0,000 mm 0,0 UV-I 23 W/m² -5,3 °C 4,8 km/h (1 Bft)
29.11.2016 13:06 -3,5 °C -3,4 °C 87 % 1033,1 hPa 0,0 mm 3,7 km/h (1 Bft) O-NO 75 ° 0 min 0,000 mm 0,0 UV-I 23 W/m² -5,3 °C 4,8 km/h (1 Bft)
29.11.2016 13:07 -3,4 °C -3,4 °C 87 % 1033,2 hPa 0,0 mm 3,9 km/h (1 Bft) O-SO 121 ° 0 min 0,000 mm 0,0 UV-I 23 W/m² -5,2 °C 6,4 km/h (2 Bft)
29.11.2016 13:08 -3,4 °C -3,4 °C 87 % 1033,1 hPa 0,0 mm 4,4 km/h (1 Bft) O-NO 74 ° 0 min 0,000 mm 0,0 UV-I 23 W/m² -5,2 °C 8,0 km/h (2 Bft)
29.11.2016 13:09 -3,4 °C -3,4 °C 87 % 1033,1 hPa 0,0 mm 5,8 km/h (2 Bft) O 90 ° 0 min 0,000 mm 0,0 UV-I 23 W/m² -5,2 °C 8,0 km/h (2 Bft)
29.11.2016 13:10 -3,4 °C -3,4 °C 87 % 1033,2 hPa 0,0 mm 6,9 km/h (2 Bft) S-SO 153 ° 0 min 0,000 mm 0,0 UV-I 23 W/m² -5,2 °C 11,3 km/h (2 Bft)
29.11.2016 13:11 -3,4 °C -3,4 °C 87 % 1033,2 hPa 0,0 mm 4,4 km/h (1 Bft) O-NO 59 ° 0 min 0,000 mm 0,0 UV-I 23 W/m² -5,2 °C 8,0 km/h (2 Bft)
29.11.2016 13:12 -3,4 °C -3,4 °C 86 % 1033,2 hPa 0,0 mm 5,6 km/h (1 Bft) NO 54 ° 0 min 0,000 mm 0,0 UV-I 23 W/m² -5,4 °C 11,3 km/h (2 Bft)
29.11.2016 13:13 -3,4 °C -3,4 °C 86 % 1033,2 hPa 0,0 mm 5,2 km/h (1 Bft) O 86 ° 0 min 0,000 mm 0,0 UV-I 23 W/m² -5,4 °C 8,0 km/h (2 Bft)
29.11.2016 13:14 -3,4 °C -3,4 °C 86 % 1033,2 hPa 0,0 mm 4,8 km/h (1 Bft) O 93 ° 0 min 0,000 mm 0,0 UV-I 23 W/m² -5,4 °C 6,4 km/h (2 Bft)
29.11.2016 13:15 -3,4 °C -3,4 °C 86 % 1033,2 hPa 0,0 mm 3,1 km/h (1 Bft) NO 42 ° 0 min 0,000 mm 0,0 UV-I 23 W/m² -5,4 °C 4,8 km/h (1 Bft)
29.11.2016 13:16 -3,4 °C -3,4 °C 86 % 1033,2 hPa 0,0 mm 5,2 km/h (1 Bft) O-NO 60 ° 0 min 0,000 mm 0,0 UV-I 23 W/m² -5,4 °C 8,0 km/h (2 Bft)
29.11.2016 13:17 -3,4 °C -3,3 °C 86 % 1033,2 hPa 0,0 mm 3,8 km/h (1 Bft) SO 128 ° 0 min 0,000 mm 0,0 UV-I 23 W/m² -5,4 °C 4,8 km/h (1 Bft)
29.11.2016 13:18 -3,4 °C -3,3 °C 86 % 1033,2 hPa 0,0 mm 5,0 km/h (1 Bft) O-NO 70 ° 0 min 0,000 mm 0,0 UV-I 23 W/m² -5,4 °C 9,7 km/h (2 Bft)
29.11.2016 13:19 -3,3 °C -3,3 °C 86 % 1033,2 hPa 0,0 mm 4,7 km/h (1 Bft) O-NO 66 ° 0 min 0,000 mm 0,0 UV-I 23 W/m² -5,3 °C 9,7 km/h (2 Bft)
29.11.2016 13:20 -3,3 °C -3,3 °C 86 % 1033,2 hPa 0,0 mm 3,8 km/h (1 Bft) O-NO 78 ° 0 min 0,000 mm 0,0 UV-I 23 W/m² -5,3 °C 8,0 km/h (2 Bft)
29.11.2016 13:21 -3,3 °C -3,3 °C 86 % 1033,2 hPa 0,0 mm 9,0 km/h (2 Bft) O 80 ° 0 min 0,000 mm 0,0 UV-I 23 W/m² -5,3 °C 14,5 km/h (3 Bft)
29.11.2016 13:22 -3,3 °C -3,3 °C 85 % 1033,2 hPa 0,0 mm 6,6 km/h (2 Bft) O-NO 72 ° 0 min 0,000 mm 0,0 UV-I 23 W/m² -5,5 °C 11,3 km/h (2 Bft)
29.11.2016 13:23 -3,3 °C -3,3 °C 85 % 1033,2 hPa 0,0 mm 2,9 km/h (1 Bft) NO 55 ° 0 min 0,000 mm 0,0 UV-I 23 W/m² -5,5 °C 6,4 km/h (2 Bft)
29.11.2016 13:24 -3,3 °C -3,3 °C 85 % 1033,2 hPa 0,0 mm 5,3 km/h (1 Bft) O-NO 58 ° 0 min 0,000 mm 0,0 UV-I 23 W/m² -5,5 °C 11,3 km/h (2 Bft)
29.11.2016 13:25 -3,3 °C -3,2 °C 85 % 1033,2 hPa 0,0 mm 5,6 km/h (1 Bft) NO 41 ° 0 min 0,000 mm 0,0 UV-I 23 W/m² -5,5 °C 9,7 km/h (2 Bft)
29.11.2016 13:26 -3,2 °C -3,2 °C 86 % 1033,2 hPa 0,0 mm 6,8 km/h (2 Bft) O-NO 57 ° 0 min 0,000 mm 0,0 UV-I 25 W/m² -5,2 °C 11,3 km/h (2 Bft)
29.11.2016 13:27 -3,2 °C -3,2 °C 85 % 1033,2 hPa 0,0 mm 5,8 km/h (2 Bft) O-NO 73 ° 0 min 0,000 mm 0,0 UV-I 23 W/m² -5,4 °C 11,3 km/h (2 Bft)
29.11.2016 13:28 -3,2 °C -3,2 °C 85 % 1033,2 hPa 0,0 mm 6,0 km/h (2 Bft) O-NO 66 ° 0 min 0,000 mm 0,0 UV-I 23 W/m² -5,4 °C 12,9 km/h (3 Bft)
29.11.2016 13:29 -3,2 °C -3,2 °C 85 % 1033,2 hPa 0,0 mm 8,0 km/h (2 Bft) O-NO 69 ° 0 min 0,000 mm 0,0 UV-I 25 W/m² -5,4 °C 12,9 km/h (3 Bft)
29.11.2016 13:30 -3,2 °C -3,2 °C 85 % 1033,1 hPa 0,0 mm 6,5 km/h (2 Bft) O-SO 109 ° 0 min 0,000 mm 0,0 UV-I 33 W/m² -5,4 °C 11,3 km/h (2 Bft)
29.11.2016 13:31 -3,1 °C -3,1 °C 85 % 1033,2 hPa 0,0 mm 7,1 km/h (2 Bft) N-NO 24 ° 0 min 0,000 mm 0,0 UV-I 33 W/m² -5,3 °C 11,3 km/h (2 Bft)
29.11.2016 13:32 -3,1 °C -3,1 °C 85 % 1033,1 hPa 0,0 mm 4,4 km/h (1 Bft) O-NO 57 ° 0 min 0,000 mm 0,7 UV-I 62 W/m² -5,3 °C 6,4 km/h (2 Bft)
29.11.2016 13:33 -3,1 °C -3,1 °C 84 % 1033,1 hPa 0,0 mm 7,0 km/h (2 Bft) O-NO 60 ° 0 min 0,000 mm 0,8 UV-I 91 W/m² -5,4 °C 12,9 km/h (3 Bft)
29.11.2016 13:34 -3,1 °C -3,1 °C 84 % 1033,1 hPa 0,0 mm 6,8 km/h (2 Bft) O-NO 71 ° 0 min 0,000 mm 0,8 UV-I 130 W/m² -5,4 °C 11,3 km/h (2 Bft)
29.11.2016 13:35 -2,9 °C -2,9 °C 84 % 1033,1 hPa 0,0 mm 8,0 km/h (2 Bft) O-SO 120 ° 0 min 0,000 mm 0,8 UV-I 149 W/m² -5,2 °C 12,9 km/h (3 Bft)
29.11.2016 13:36 -2,9 °C -2,9 °C 84 % 1033,2 hPa 0,0 mm 5,3 km/h (1 Bft) SO 138 ° 0 min 0,000 mm 0,8 UV-I 146 W/m² -5,2 °C 11,3 km/h (2 Bft)
29.11.2016 13:37 -2,8 °C -2,8 °C 83 % 1033,1 hPa 0,0 mm 5,2 km/h (1 Bft) O-NO 65 ° 0 min 0,000 mm 0,8 UV-I 141 W/m² -5,3 °C 12,9 km/h (3 Bft)
29.11.2016 13:38 -2,7 °C -2,7 °C 83 % 1033,1 hPa 0,0 mm 6,7 km/h (2 Bft) NO 41 ° 0 min 0,000 mm 0,8 UV-I 144 W/m² -5,2 °C 9,7 km/h (2 Bft)
29.11.2016 13:39 -2,7 °C -2,7 °C 83 % 1033,1 hPa 0,0 mm 3,7 km/h (1 Bft) O 84 ° 0 min 0,000 mm 0,8 UV-I 156 W/m² -5,2 °C 6,4 km/h (2 Bft)
29.11.2016 13:40 -2,7 °C -2,7 °C 83 % 1033,1 hPa 0,0 mm 5,7 km/h (1 Bft) NO 42 ° 0 min 0,000 mm 0,8 UV-I 174 W/m² -5,2 °C 12,9 km/h (3 Bft)
29.11.2016 13:41 -2,7 °C -2,7 °C 84 % 1033,1 hPa 0,0 mm 6,3 km/h (2 Bft) O 101 ° 0 min 0,000 mm 0,8 UV-I 195 W/m² -5,0 °C 9,7 km/h (2 Bft)
29.11.2016 13:42 -2,6 °C -2,6 °C 83 % 1033,1 hPa 0,0 mm 6,1 km/h (2 Bft) O 94 ° 1 min 0,000 mm 0,9 UV-I 207 W/m² -5,1 °C 8,0 km/h (2 Bft)
29.11.2016 13:43 -2,6 °C -2,6 °C 83 % 1033,1 hPa 0,0 mm 4,4 km/h (1 Bft) O 79 ° 1 min 0,000 mm 0,9 UV-I 213 W/m² -5,1 °C 9,7 km/h (2 Bft)
29.11.2016 13:44 -2,6 °C -2,6 °C 83 % 1033,1 hPa 0,0 mm 2,1 km/h (1 Bft) O-NO 78 ° 1 min 0,000 mm 0,9 UV-I 216 W/m² -5,1 °C 4,8 km/h (1 Bft)
29.11.2016 13:45 -2,6 °C -2,6 °C 82 % 1033,1 hPa 0,0 mm 2,1 km/h (1 Bft) O-NO 78 ° 1 min 0,000 mm 0,8 UV-I 216 W/m² -5,2 °C 4,8 km/h (1 Bft)
29.11.2016 13:46 -2,5 °C -2,5 °C 82 % 1033,1 hPa 0,0 mm 2,0 km/h (1 Bft) O-NO 65 ° 1 min 0,000 mm 0,8 UV-I 220 W/m² -5,1 °C 4,8 km/h (1 Bft)
29.11.2016 13:47 -2,5 °C -2,5 °C 82 % 1033,1 hPa 0,0 mm 3,6 km/h (1 Bft) O-NO 74 ° 1 min 0,000 mm 0,8 UV-I 223 W/m² -5,1 °C 6,4 km/h (2 Bft)
29.11.2016 13:48 -2,5 °C -2,5 °C 82 % 1033,1 hPa 0,0 mm 7,2 km/h (2 Bft) O-SO 111 ° 1 min 0,000 mm 0,8 UV-I 227 W/m² -5,1 °C 11,3 km/h (2 Bft)
29.11.2016 13:49 -2,4 °C -2,4 °C 82 % 1033,1 hPa 0,0 mm 4,5 km/h (1 Bft) O-NO 67 ° 1 min 0,000 mm 0,8 UV-I 227 W/m² -5,0 °C 8,0 km/h (2 Bft)
29.11.2016 13:50 -2,4 °C -2,4 °C 82 % 1033,1 hPa 0,0 mm 2,3 km/h (1 Bft) O-NO 76 ° 1 min 0,000 mm 0,8 UV-I 206 W/m² -5,0 °C 4,8 km/h (1 Bft)
29.11.2016 13:51 -2,3 °C -2,3 °C 81 % 1033,0 hPa 0,0 mm 1,2 km/h (1 Bft) O 83 ° 0 min 0,000 mm 0,7 UV-I 118 W/m² -5,1 °C 4,8 km/h (1 Bft)
29.11.2016 13:52 -2,4 °C -2,3 °C 82 % 1033,1 hPa 0,0 mm 4,8 km/h (1 Bft) O-NO 70 ° 0 min 0,000 mm 0,7 UV-I 88 W/m² -5,0 °C 8,0 km/h (2 Bft)
29.11.2016 13:53 -2,4 °C -2,3 °C 82 % 1033,1 hPa 0,0 mm 5,0 km/h (1 Bft) O-NO 64 ° 0 min 0,000 mm 0,7 UV-I 181 W/m² -5,0 °C 8,0 km/h (2 Bft)
29.11.2016 13:54 -2,4 °C -2,3 °C 82 % 1033,1 hPa 0,0 mm 1,9 km/h (1 Bft) O-NO 64 ° 0 min 0,000 mm 0,8 UV-I 195 W/m² -5,0 °C 4,8 km/h (1 Bft)
29.11.2016 13:55 -2,4 °C -2,4 °C 82 % 1033,1 hPa 0,0 mm 0,6 km/h (0 Bft) O-NO 64 ° 1 min 0,000 mm 0,8 UV-I 209 W/m² -5,0 °C 1,6 km/h (1 Bft)
29.11.2016 13:56 -2,4 °C -2,4 °C 82 % 1033,1 hPa 0,0 mm 2,0 km/h (1 Bft) O-NO 64 ° 1 min 0,000 mm 0,8 UV-I 229 W/m² -5,0 °C 3,2 km/h (1 Bft)
29.11.2016 13:57 -2,5 °C -2,4 °C 82 % 1033,2 hPa 0,0 mm 5,1 km/h (1 Bft) O-NO 61 ° 1 min 0,000 mm 0,8 UV-I 221 W/m² -5,1 °C 8,0 km/h (2 Bft)
29.11.2016 13:58 -2,4 °C -2,4 °C 81 % 1033,2 hPa 0,0 mm 5,4 km/h (1 Bft) O 92 ° 0 min 0,000 mm 0,7 UV-I 151 W/m² -5,2 °C 8,0 km/h (2 Bft)
29.11.2016 13:59 -2,4 °C -2,4 °C 81 % 1033,1 hPa 0,0 mm 3,6 km/h (1 Bft) O-NO 76 ° 0 min 0,000 mm 0,7 UV-I 63 W/m² -5,2 °C 6,4 km/h (2 Bft)
29.11.2016 14:00 -2,4 °C -2,4 °C 81 % 1033,1 hPa 0,0 mm 5,5 km/h (1 Bft) NO 51 ° 0 min 0,000 mm 0,6 UV-I 58 W/m² -5,2 °C 11,3 km/h (2 Bft)
29.11.2016 14:01 -2,4 °C -2,3 °C 80 % 1033,1 hPa 0,0 mm 4,0 km/h (1 Bft) O 86 ° 0 min 0,025 mm 0,0 UV-I 44 W/m² -5,4 °C 6,4 km/h (2 Bft)
29.11.2016 14:02 -2,3 °C -2,3 °C 81 % 1033,1 hPa 0,0 mm 3,7 km/h (1 Bft) O-NO 67 ° 0 min 0,000 mm 0,0 UV-I 37 W/m² -5,1 °C 6,4 km/h (2 Bft)
29.11.2016 14:03 -2,4 °C -2,3 °C 81 % 1033,0 hPa 0,0 mm 6,0 km/h (2 Bft) O 90 ° 0 min 0,000 mm 0,0 UV-I 30 W/m² -5,2 °C 11,3 km/h (2 Bft)
29.11.2016 14:04 -2,4 °C -2,4 °C 80 % 1033,0 hPa 0,0 mm 5,0 km/h (1 Bft) O-NO 68 ° 0 min 0,000 mm 0,0 UV-I 25 W/m² -5,4 °C 8,0 km/h (2 Bft)
29.11.2016 14:05 -2,4 °C -2,4 °C 80 % 1033,1 hPa 0,0 mm 2,6 km/h (1 Bft) O 87 ° 0 min 0,000 mm 0,0 UV-I 23 W/m² -5,4 °C 4,8 km/h (1 Bft)
29.11.2016 14:06 -2,4 °C -2,4 °C 80 % 1033,0 hPa 0,0 mm 5,5 km/h (1 Bft) O-NO 61 ° 0 min 0,000 mm 0,0 UV-I 25 W/m² -5,4 °C 8,0 km/h (2 Bft)
29.11.2016 14:07 -2,4 °C -2,4 °C 80 % 1033,0 hPa 0,0 mm 4,0 km/h (1 Bft) O-NO 73 ° 0 min 0,000 mm 0,0 UV-I 32 W/m² -5,4 °C 6,4 km/h (2 Bft)
29.11.2016 14:08 -2,4 °C -2,4 °C 80 % 1032,9 hPa 0,0 mm 1,8 km/h (1 Bft) O-NO 68 ° 0 min 0,000 mm 0,6 UV-I 62 W/m² -5,4 °C 4,8 km/h (1 Bft)
29.11.2016 14:09 -2,4 °C -2,4 °C 80 % 1032,9 hPa 0,0 mm 1,5 km/h (1 Bft) O-NO 68 ° 0 min 0,000 mm 0,6 UV-I 90 W/m² -5,4 °C 4,8 km/h (1 Bft)
29.11.2016 14:10 -2,4 °C -2,4 °C 80 % 1032,9 hPa 0,0 mm 3,1 km/h (1 Bft) NO 45 ° 0 min 0,000 mm 0,6 UV-I 42 W/m² -5,4 °C 6,4 km/h (2 Bft)
29.11.2016 14:11 -2,4 °C -2,4 °C 80 % 1032,9 hPa 0,0 mm 1,3 km/h (1 Bft) NO 45 ° 0 min 0,000 mm 0,0 UV-I 42 W/m² -5,4 °C 3,2 km/h (1 Bft)
29.11.2016 14:12 -2,4 °C -2,4 °C 80 % 1032,9 hPa 0,0 mm 4,2 km/h (1 Bft) O 82 ° 0 min 0,000 mm 0,0 UV-I 47 W/m² -5,4 °C 8,0 km/h (2 Bft)
29.11.2016 14:13 -2,4 °C -2,4 °C 81 % 1032,9 hPa 0,0 mm 2,5 km/h (1 Bft) O-NO 73 ° 0 min 0,000 mm 0,0 UV-I 33 W/m² -5,2 °C 3,2 km/h (1 Bft)
29.11.2016 14:14 -2,4 °C -2,4 °C 81 % 1032,9 hPa 0,0 mm 2,7 km/h (1 Bft) O 83 ° 0 min 0,000 mm 0,0 UV-I 28 W/m² -5,2 °C 4,8 km/h (1 Bft)
29.11.2016 14:15 -2,5 °C -2,4 °C 81 % 1032,9 hPa 0,0 mm 4,6 km/h (1 Bft) O 98 ° 0 min 0,000 mm 0,0 UV-I 33 W/m² -5,3 °C 6,4 km/h (2 Bft)
29.11.2016 14:16 -2,5 °C -2,5 °C 81 % 1032,9 hPa 0,0 mm 5,3 km/h (1 Bft) O 79 ° 0 min 0,000 mm 0,0 UV-I 23 W/m² -5,3 °C 9,7 km/h (2 Bft)
29.11.2016 14:17 -2,5 °C -2,5 °C 81 % 1032,9 hPa 0,0 mm 2,9 km/h (1 Bft) O-NO 65 ° 0 min 0,000 mm 0,0 UV-I 21 W/m² -5,3 °C 4,8 km/h (1 Bft)
29.11.2016 14:18 -2,5 °C -2,5 °C 81 % 1033,0 hPa 0,0 mm 1,5 km/h (1 Bft) O-NO 65 ° 0 min 0,000 mm 0,0 UV-I 21 W/m² -5,3 °C 3,2 km/h (1 Bft)
29.11.2016 14:19 -2,6 °C -2,5 °C 82 % 1032,9 hPa 0,0 mm 3,8 km/h (1 Bft) O 92 ° 0 min 0,000 mm 0,0 UV-I 21 W/m² -5,2 °C 6,4 km/h (2 Bft)
29.11.2016 14:20 -2,6 °C -2,6 °C 83 % 1032,9 hPa 0,0 mm 4,2 km/h (1 Bft) O-NO 61 ° 0 min 0,000 mm 0,0 UV-I 21 W/m² -5,1 °C 6,4 km/h (2 Bft)
29.11.2016 14:21 -2,6 °C -2,6 °C 82 % 1032,9 hPa 0,0 mm 2,5 km/h (1 Bft) O 88 ° 0 min 0,000 mm 0,0 UV-I 21 W/m² -5,2 °C 4,8 km/h (1 Bft)
29.11.2016 14:22 -2,6 °C -2,6 °C 81 % 1033,0 hPa 0,0 mm 5,3 km/h (1 Bft) O-NO 73 ° 0 min 0,000 mm 0,0 UV-I 21 W/m² -5,4 °C 8,0 km/h (2 Bft)
29.11.2016 14:23 -2,6 °C -2,6 °C 82 % 1032,9 hPa 0,0 mm 4,3 km/h (1 Bft) O 94 ° 0 min 0,000 mm 0,0 UV-I 21 W/m² -5,2 °C 6,4 km/h (2 Bft)
29.11.2016 14:24 -2,6 °C -2,5 °C 82 % 1033,0 hPa 0,0 mm 4,3 km/h (1 Bft) NO 55 ° 0 min 0,000 mm 0,0 UV-I 21 W/m² -5,2 °C 6,4 km/h (2 Bft)
29.11.2016 14:25 -2,6 °C -2,6 °C 82 % 1033,0 hPa 0,0 mm 1,9 km/h (1 Bft) NO 55 ° 0 min 0,000 mm 0,0 UV-I 21 W/m² -5,2 °C 4,8 km/h (1 Bft)
29.11.2016 14:26 -2,6 °C -2,6 °C 82 % 1033,0 hPa 0,0 mm 4,8 km/h (1 Bft) O-SO 117 ° 0 min 0,000 mm 0,0 UV-I 21 W/m² -5,2 °C 9,7 km/h (2 Bft)
29.11.2016 14:27 -2,6 °C -2,6 °C 83 % 1033,0 hPa 0,0 mm 5,0 km/h (1 Bft) O-SO 113 ° 0 min 0,000 mm 0,0 UV-I 21 W/m² -5,1 °C 9,7 km/h (2 Bft)
29.11.2016 14:28 -2,6 °C -2,6 °C 82 % 1033,0 hPa 0,0 mm 2,3 km/h (1 Bft) O-NO 75 ° 0 min 0,000 mm 0,0 UV-I 44 W/m² -5,2 °C 4,8 km/h (1 Bft)
29.11.2016 14:29 -2,5 °C -2,5 °C 81 % 1033,0 hPa 0,0 mm 4,9 km/h (1 Bft) O-NO 74 ° 0 min 0,000 mm 0,5 UV-I 65 W/m² -5,3 °C 8,0 km/h (2 Bft)
29.11.2016 14:30 -2,5 °C -2,4 °C 81 % 1033,0 hPa 0,0 mm 6,7 km/h (2 Bft) O 90 ° 0 min 0,000 mm 0,5 UV-I 62 W/m² -5,3 °C 12,9 km/h (3 Bft)
29.11.2016 14:31 -2,4 °C -2,4 °C 81 % 1033,0 hPa 0,0 mm 3,3 km/h (1 Bft) O-NO 73 ° 0 min 0,000 mm 0,0 UV-I 42 W/m² -5,2 °C 4,8 km/h (1 Bft)
29.11.2016 14:32 -2,4 °C -2,4 °C 80 % 1033,0 hPa 0,0 mm 3,5 km/h (1 Bft) O-NO 72 ° 0 min 0,000 mm 0,0 UV-I 28 W/m² -5,4 °C 6,4 km/h (2 Bft)
29.11.2016 14:33 -2,4 °C -2,4 °C 81 % 1033,0 hPa 0,0 mm 5,4 km/h (1 Bft) O 88 ° 0 min 0,000 mm 0,0 UV-I 26 W/m² -5,2 °C 6,4 km/h (2 Bft)
29.11.2016 14:34 -2,4 °C -2,4 °C 81 % 1033,0 hPa 0,0 mm 5,2 km/h (1 Bft) O-SO 122 ° 0 min 0,000 mm 0,0 UV-I 26 W/m² -5,2 °C 11,3 km/h (2 Bft)
29.11.2016 14:35 -2,4 °C -2,4 °C 81 % 1033,1 hPa 0,0 mm 5,6 km/h (1 Bft) O-NO 63 ° 0 min 0,000 mm 0,0 UV-I 21 W/m² -5,2 °C 11,3 km/h (2 Bft)
29.11.2016 14:36 -2,3 °C -2,3 °C 80 % 1033,1 hPa 0,0 mm 4,0 km/h (1 Bft) O-NO 67 ° 0 min 0,000 mm 0,0 UV-I 21 W/m² -5,3 °C 8,0 km/h (2 Bft)
29.11.2016 14:37 -2,3 °C -2,3 °C 80 % 1033,1 hPa 0,0 mm 3,7 km/h (1 Bft) O 85 ° 0 min 0,000 mm 0,0 UV-I 21 W/m² -5,3 °C 6,4 km/h (2 Bft)
29.11.2016 14:38 -2,3 °C -2,3 °C 80 % 1033,1 hPa 0,0 mm 2,6 km/h (1 Bft) O-NO 78 ° 0 min 0,000 mm 0,0 UV-I 21 W/m² -5,3 °C 4,8 km/h (1 Bft)
29.11.2016 14:39 -2,3 °C -2,3 °C 81 % 1033,1 hPa 0,0 mm 1,5 km/h (1 Bft) O-NO 78 ° 0 min 0,000 mm 0,0 UV-I 21 W/m² -5,1 °C 3,2 km/h (1 Bft)
29.11.2016 14:40 -2,3 °C -2,3 °C 81 % 1033,1 hPa 0,0 mm 3,3 km/h (1 Bft) NO 54 ° 0 min 0,000 mm 0,0 UV-I 21 W/m² -5,1 °C 4,8 km/h (1 Bft)
29.11.2016 14:41 -2,4 °C -2,3 °C 81 % 1033,1 hPa 0,0 mm 5,0 km/h (1 Bft) O 81 ° 0 min 0,000 mm 0,0 UV-I 21 W/m² -5,2 °C 11,3 km/h (2 Bft)
29.11.2016 14:42 -2,4 °C -2,4 °C 81 % 1033,1 hPa 0,0 mm 5,4 km/h (1 Bft) NO 50 ° 0 min 0,000 mm 0,0 UV-I 21 W/m² -5,2 °C 6,4 km/h (2 Bft)
29.11.2016 14:43 -2,4 °C -2,4 °C 81 % 1033,1 hPa 0,0 mm 3,1 km/h (1 Bft) O-NO 62 ° 0 min 0,000 mm 0,0 UV-I 19 W/m² -5,2 °C 4,8 km/h (1 Bft)
29.11.2016 14:44 -2,4 °C -2,4 °C 81 % 1033,2 hPa 0,0 mm 2,0 km/h (1 Bft) O-NO 62 ° 0 min 0,000 mm 0,0 UV-I 19 W/m² -5,2 °C 3,2 km/h (1 Bft)
29.11.2016 14:45 -2,4 °C -2,4 °C 81 % 1033,2 hPa 0,0 mm 2,0 km/h (1 Bft) O-NO 72 ° 0 min 0,000 mm 0,0 UV-I 19 W/m² -5,2 °C 3,2 km/h (1 Bft)
29.11.2016 14:46 -2,5 °C -2,4 °C 81 % 1033,1 hPa 0,0 mm 2,0 km/h (1 Bft) O-NO 60 ° 0 min 0,000 mm 0,0 UV-I 19 W/m² -5,3 °C 6,4 km/h (2 Bft)
29.11.2016 14:47 -2,5 °C -2,5 °C 81 % 1033,1 hPa 0,0 mm 3,8 km/h (1 Bft) O-NO 76 ° 0 min 0,000 mm 0,0 UV-I 19 W/m² -5,3 °C 6,4 km/h (2 Bft)
29.11.2016 14:48 -2,5 °C -2,5 °C 81 % 1033,1 hPa 0,0 mm 4,6 km/h (1 Bft) O 83 ° 0 min 0,000 mm 0,0 UV-I 19 W/m² -5,3 °C 8,0 km/h (2 Bft)
29.11.2016 14:49 -2,5 °C -2,5 °C 81 % 1033,1 hPa 0,0 mm 1,9 km/h (1 Bft) O 83 ° 0 min 0,000 mm 0,0 UV-I 19 W/m² -5,3 °C 3,2 km/h (1 Bft)
29.11.2016 14:50 -2,5 °C -2,5 °C 82 % 1033,1 hPa 0,0 mm 2,9 km/h (1 Bft) O 84 ° 0 min 0,000 mm 0,0 UV-I 19 W/m² -5,1 °C 6,4 km/h (2 Bft)
29.11.2016 14:51 -2,5 °C -2,5 °C 82 % 1033,1 hPa 0,0 mm 1,6 km/h (1 Bft) O 84 ° 0 min 0,000 mm 0,0 UV-I 19 W/m² -5,1 °C 3,2 km/h (1 Bft)
29.11.2016 14:52 -2,5 °C -2,5 °C 81 % 1033,1 hPa 0,0 mm 2,9 km/h (1 Bft) O-NO 61 ° 0 min 0,000 mm 0,0 UV-I 19 W/m² -5,3 °C 4,8 km/h (1 Bft)
29.11.2016 14:53 -2,5 °C -2,5 °C 81 % 1033,1 hPa 0,0 mm 5,1 km/h (1 Bft) O-SO 119 ° 0 min 0,000 mm 0,0 UV-I 19 W/m² -5,3 °C 8,0 km/h (2 Bft)
29.11.2016 14:54 -2,5 °C -2,5 °C 81 % 1033,1 hPa 0,0 mm 1,3 km/h (1 Bft) O-SO 118 ° 0 min 0,000 mm 0,0 UV-I 19 W/m² -5,3 °C 3,2 km/h (1 Bft)
29.11.2016 14:55 -2,5 °C -2,5 °C 81 % 1033,2 hPa 0,0 mm 2,7 km/h (1 Bft) O-NO 71 ° 0 min 0,000 mm 0,0 UV-I 19 W/m² -5,3 °C 6,4 km/h (2 Bft)
29.11.2016 14:56 -2,5 °C -2,5 °C 81 % 1033,1 hPa 0,0 mm 6,1 km/h (2 Bft) O-NO 62 ° 0 min 0,000 mm 0,0 UV-I 19 W/m² -5,3 °C 8,0 km/h (2 Bft)
29.11.2016 14:57 -2,5 °C -2,5 °C 82 % 1033,2 hPa 0,0 mm 3,2 km/h (1 Bft) O 82 ° 0 min 0,000 mm 0,0 UV-I 19 W/m² -5,1 °C 6,4 km/h (2 Bft)
29.11.2016 14:58 -2,5 °C -2,5 °C 82 % 1033,2 hPa 0,0 mm 1,9 km/h (1 Bft) O 82 ° 0 min 0,000 mm 0,0 UV-I 18 W/m² -5,1 °C 3,2 km/h (1 Bft)
29.11.2016 14:59 -2,5 °C -2,5 °C 81 % 1033,2 hPa 0,0 mm 2,2 km/h (1 Bft) NO 46 ° 0 min 0,000 mm 0,0 UV-I 18 W/m² -5,3 °C 4,8 km/h (1 Bft)
29.11.2016 15:00 -2,5 °C -2,5 °C 81 % 1033,2 hPa 0,0 mm 2,2 km/h (1 Bft) O-NO 76 ° 0 min 0,000 mm 0,0 UV-I 18 W/m² -5,3 °C 8,0 km/h (2 Bft)
29.11.2016 15:01 -2,5 °C -2,5 °C 81 % 1033,2 hPa 0,0 mm 3,1 km/h (1 Bft) O 97 ° 0 min 0,026 mm 0,0 UV-I 18 W/m² -5,3 °C 4,8 km/h (1 Bft)
29.11.2016 15:02 -2,5 °C -2,5 °C 81 % 1033,2 hPa 0,0 mm 3,1 km/h (1 Bft) O-SO 105 ° 0 min 0,000 mm 0,0 UV-I 18 W/m² -5,3 °C 6,4 km/h (2 Bft)
29.11.2016 15:03 -2,6 °C -2,5 °C 81 % 1033,3 hPa 0,0 mm 2,8 km/h (1 Bft) O 84 ° 0 min 0,000 mm 0,0 UV-I 18 W/m² -5,4 °C 4,8 km/h (1 Bft)
29.11.2016 15:04 -2,6 °C -2,5 °C 81 % 1033,4 hPa 0,0 mm 5,1 km/h (1 Bft) O 85 ° 0 min 0,000 mm 0,0 UV-I 18 W/m² -5,4 °C 12,9 km/h (3 Bft)
29.11.2016 15:05 -2,6 °C -2,5 °C 81 % 1033,3 hPa 0,0 mm 1,1 km/h (1 Bft) O 85 ° 0 min 0,000 mm 0,0 UV-I 18 W/m² -5,4 °C 3,2 km/h (1 Bft)
29.11.2016 15:06 -2,5 °C -2,5 °C 81 % 1033,4 hPa 0,0 mm 1,2 km/h (1 Bft) O 96 ° 0 min 0,000 mm 0,0 UV-I 18 W/m² -5,3 °C 3,2 km/h (1 Bft)
29.11.2016 15:07 -2,5 °C -2,5 °C 82 % 1033,3 hPa 0,0 mm 1,5 km/h (1 Bft) NO 49 ° 0 min 0,000 mm 0,0 UV-I 18 W/m² -5,1 °C 4,8 km/h (1 Bft)
29.11.2016 15:08 -2,6 °C -2,5 °C 82 % 1033,4 hPa 0,0 mm 2,4 km/h (1 Bft) O 94 ° 0 min 0,000 mm 0,0 UV-I 18 W/m² -5,2 °C 4,8 km/h (1 Bft)
29.11.2016 15:09 -2,5 °C -2,5 °C 82 % 1033,4 hPa 0,0 mm 1,9 km/h (1 Bft) O 94 ° 0 min 0,000 mm 0,0 UV-I 18 W/m² -5,1 °C 3,2 km/h (1 Bft)
29.11.2016 15:10 -2,5 °C -2,5 °C 81 % 1033,4 hPa 0,0 mm 1,3 km/h (1 Bft) O 87 ° 0 min 0,000 mm 0,0 UV-I 18 W/m² -5,3 °C 3,2 km/h (1 Bft)
29.11.2016 15:11 -2,5 °C -2,5 °C 82 % 1033,4 hPa 0,0 mm 3,7 km/h (1 Bft) NO 49 ° 0 min 0,000 mm 0,0 UV-I 18 W/m² -5,1 °C 6,4 km/h (2 Bft)
29.11.2016 15:12 -2,6 °C -2,5 °C 82 % 1033,5 hPa 0,0 mm 1,3 km/h (1 Bft) NO 49 ° 0 min 0,000 mm 0,0 UV-I 18 W/m² -5,2 °C 1,6 km/h (1 Bft)
29.11.2016 15:13 -2,6 °C -2,5 °C 82 % 1033,5 hPa 0,0 mm 1,5 km/h (1 Bft) NO 49 ° 0 min 0,000 mm 0,0 UV-I 18 W/m² -5,2 °C 3,2 km/h (1 Bft)
29.11.2016 15:14 -2,5 °C -2,5 °C 82 % 1033,5 hPa 0,0 mm 2,1 km/h (1 Bft) NO 49 ° 0 min 0,000 mm 0,0 UV-I 18 W/m² -5,1 °C 3,2 km/h (1 Bft)
29.11.2016 15:15 -2,6 °C -2,5 °C 82 % 1033,5 hPa 0,0 mm 2,1 km/h (1 Bft) O 82 ° 0 min 0,000 mm 0,0 UV-I 16 W/m² -5,2 °C 6,4 km/h (2 Bft)
29.11.2016 15:16 -2,6 °C -2,5 °C 82 % 1033,6 hPa 0,0 mm 3,9 km/h (1 Bft) NO 56 ° 0 min 0,000 mm 0,0 UV-I 16 W/m² -5,2 °C 6,4 km/h (2 Bft)
29.11.2016 15:17 -2,5 °C -2,5 °C 82 % 1033,6 hPa 0,0 mm 1,5 km/h (1 Bft) NO 56 ° 0 min 0,000 mm 0,0 UV-I 16 W/m² -5,1 °C 3,2 km/h (1 Bft)
29.11.2016 15:18 -2,6 °C -2,5 °C 82 % 1033,6 hPa 0,0 mm 0,6 km/h (0 Bft) NO 56 ° 0 min 0,000 mm 0,0 UV-I 16 W/m² -5,2 °C 1,6 km/h (1 Bft)
29.11.2016 15:19 -2,6 °C -2,6 °C 82 % 1033,6 hPa 0,0 mm 0,8 km/h (0 Bft) NO 56 ° 0 min 0,000 mm 0,0 UV-I 16 W/m² -5,2 °C 1,6 km/h (1 Bft)
29.11.2016 15:20 -2,6 °C -2,6 °C 82 % 1033,5 hPa 0,0 mm 3,1 km/h (1 Bft) O-NO 74 ° 0 min 0,000 mm 0,0 UV-I 16 W/m² -5,2 °C 4,8 km/h (1 Bft)
29.11.2016 15:21 -2,6 °C -2,6 °C 82 % 1033,6 hPa 0,0 mm 3,5 km/h (1 Bft) O-NO 74 ° 0 min 0,000 mm 0,0 UV-I 16 W/m² -5,2 °C 8,0 km/h (2 Bft)
29.11.2016 15:22 -2,6 °C -2,6 °C 82 % 1033,6 hPa 0,0 mm 1,7 km/h (1 Bft) O-NO 74 ° 0 min 0,000 mm 0,0 UV-I 16 W/m² -5,2 °C 3,2 km/h (1 Bft)
29.11.2016 15:23 -2,6 °C -2,6 °C 82 % 1033,6 hPa 0,0 mm 1,7 km/h (1 Bft) O-NO 74 ° 0 min 0,000 mm 0,0 UV-I 16 W/m² -5,2 °C 3,2 km/h (1 Bft)
29.11.2016 15:24 -2,6 °C -2,6 °C 82 % 1033,5 hPa 0,0 mm 4,3 km/h (1 Bft) NO 45 ° 0 min 0,000 mm 0,0 UV-I 16 W/m² -5,2 °C 11,3 km/h (2 Bft)
29.11.2016 15:25 -2,6 °C -2,6 °C 82 % 1033,5 hPa 0,0 mm 5,5 km/h (1 Bft) SO 136 ° 0 min 0,000 mm 0,0 UV-I 16 W/m² -5,2 °C 6,4 km/h (2 Bft)
29.11.2016 15:26 -2,6 °C -2,6 °C 82 % 1033,5 hPa 0,0 mm 3,2 km/h (1 Bft) O-NO 63 ° 0 min 0,000 mm 0,0 UV-I 16 W/m² -5,2 °C 4,8 km/h (1 Bft)
29.11.2016 15:27 -2,6 °C -2,6 °C 82 % 1033,5 hPa 0,0 mm 2,9 km/h (1 Bft) O-NO 65 ° 0 min 0,000 mm 0,0 UV-I 16 W/m² -5,2 °C 4,8 km/h (1 Bft)
29.11.2016 15:28 -2,6 °C -2,6 °C 82 % 1033,6 hPa 0,0 mm 1,9 km/h (1 Bft) O-NO 65 ° 0 min 0,000 mm 0,0 UV-I 16 W/m² -5,2 °C 3,2 km/h (1 Bft)
29.11.2016 15:29 -2,6 °C -2,6 °C 82 % 1033,6 hPa 0,0 mm 1,3 km/h (1 Bft) O-NO 65 ° 0 min 0,000 mm 0,0 UV-I 14 W/m² -5,2 °C 4,8 km/h (1 Bft)
29.11.2016 15:30 -2,6 °C -2,6 °C 82 % 1033,6 hPa 0,0 mm 2,7 km/h (1 Bft) O-NO 65 ° 0 min 0,000 mm 0,0 UV-I 14 W/m² -5,2 °C 4,8 km/h (1 Bft)
29.11.2016 15:31 -2,6 °C -2,6 °C 82 % 1033,6 hPa 0,0 mm 2,7 km/h (1 Bft) N-NO 28 ° 0 min 0,000 mm 0,0 UV-I 14 W/m² -5,2 °C 6,4 km/h (2 Bft)
29.11.2016 15:32 -2,6 °C -2,6 °C 82 % 1033,6 hPa 0,0 mm 3,4 km/h (1 Bft) NO 52 ° 0 min 0,000 mm 0,0 UV-I 14 W/m² -5,2 °C 4,8 km/h (1 Bft)
29.11.2016 15:33 -2,6 °C -2,6 °C 82 % 1033,6 hPa 0,0 mm 1,9 km/h (1 Bft) O-NO 65 ° 0 min 0,000 mm 0,0 UV-I 14 W/m² -5,2 °C 3,2 km/h (1 Bft)
29.11.2016 15:34 -2,6 °C -2,6 °C 82 % 1033,6 hPa 0,0 mm 2,0 km/h (1 Bft) O-NO 74 ° 0 min 0,000 mm 0,0 UV-I 14 W/m² -5,2 °C 4,8 km/h (1 Bft)
29.11.2016 15:35 -2,6 °C -2,6 °C 82 % 1033,6 hPa 0,0 mm 0,1 km/h (0 Bft) O-NO 74 ° 0 min 0,000 mm 0,0 UV-I 14 W/m² -5,2 °C 1,6 km/h (1 Bft)
29.11.2016 15:36 -2,6 °C -2,6 °C 83 % 1033,6 hPa 0,0 mm 0,5 km/h (0 Bft) O-NO 74 ° 0 min 0,000 mm 0,0 UV-I 14 W/m² -5,1 °C 1,6 km/h (1 Bft)
29.11.2016 15:37 -2,7 °C -2,6 °C 83 % 1033,6 hPa 0,0 mm 1,4 km/h (1 Bft) O-NO 74 ° 0 min 0,000 mm 0,0 UV-I 14 W/m² -5,2 °C 3,2 km/h (1 Bft)
29.11.2016 15:38 -2,6 °C -2,6 °C 83 % 1033,6 hPa 0,0 mm 1,3 km/h (1 Bft) NO 36 ° 0 min 0,000 mm 0,0 UV-I 14 W/m² -5,1 °C 3,2 km/h (1 Bft)
29.11.2016 15:39 -2,7 °C -2,6 °C 82 % 1033,6 hPa 0,0 mm 0,7 km/h (0 Bft) NO 36 ° 0 min 0,000 mm 0,0 UV-I 14 W/m² -5,3 °C 1,6 km/h (1 Bft)
29.11.2016 15:40 -2,7 °C -2,7 °C 82 % 1033,6 hPa 0,0 mm 0,1 km/h (0 Bft) NO 36 ° 0 min 0,000 mm 0,0 UV-I 14 W/m² -5,3 °C 1,6 km/h (1 Bft)
29.11.2016 15:41 -2,7 °C -2,7 °C 82 % 1033,6 hPa 0,0 mm 0,2 km/h (0 Bft) NO 36 ° 0 min 0,000 mm 0,0 UV-I 14 W/m² -5,3 °C 1,6 km/h (1 Bft)
29.11.2016 15:42 -2,7 °C -2,7 °C 83 % 1033,6 hPa 0,0 mm 0,7 km/h (0 Bft) O 86 ° 0 min 0,000 mm 0,0 UV-I 14 W/m² -5,2 °C 3,2 km/h (1 Bft)
29.11.2016 15:43 -2,7 °C -2,7 °C 83 % 1033,6 hPa 0,0 mm 2,7 km/h (1 Bft) O 92 ° 0 min 0,000 mm 0,0 UV-I 12 W/m² -5,2 °C 4,8 km/h (1 Bft)
29.11.2016 15:44 -2,7 °C -2,7 °C 83 % 1033,6 hPa 0,0 mm 0,7 km/h (0 Bft) O 92 ° 0 min 0,000 mm 0,0 UV-I 12 W/m² -5,2 °C 3,2 km/h (1 Bft)
29.11.2016 15:45 -2,7 °C -2,7 °C 83 % 1033,5 hPa 0,0 mm 2,4 km/h (1 Bft) O 92 ° 0 min 0,000 mm 0,0 UV-I 12 W/m² -5,2 °C 4,8 km/h (1 Bft)
29.11.2016 15:46 -2,7 °C -2,7 °C 83 % 1033,5 hPa 0,0 mm 3,1 km/h (1 Bft) O-SO 109 ° 0 min 0,000 mm 0,0 UV-I 12 W/m² -5,2 °C 3,2 km/h (1 Bft)
29.11.2016 15:47 -2,7 °C -2,7 °C 83 % 1033,5 hPa 0,0 mm 3,4 km/h (1 Bft) O-SO 122 ° 0 min 0,000 mm 0,0 UV-I 12 W/m² -5,2 °C 4,8 km/h (1 Bft)
29.11.2016 15:48 -2,7 °C -2,7 °C 83 % 1033,5 hPa 0,0 mm 2,9 km/h (1 Bft) O-SO 122 ° 0 min 0,000 mm 0,0 UV-I 12 W/m² -5,2 °C 4,8 km/h (1 Bft)
29.11.2016 15:49 -2,7 °C -2,7 °C 83 % 1033,4 hPa 0,0 mm 3,8 km/h (1 Bft) O-SO 122 ° 0 min 0,000 mm 0,0 UV-I 12 W/m² -5,2 °C 4,8 km/h (1 Bft)
29.11.2016 15:50 -2,7 °C -2,7 °C 83 % 1033,4 hPa 0,0 mm 2,4 km/h (1 Bft) O-SO 122 ° 0 min 0,000 mm 0,0 UV-I 12 W/m² -5,2 °C 3,2 km/h (1 Bft)
29.11.2016 15:51 -2,7 °C -2,7 °C 84 % 1033,4 hPa 0,0 mm 2,4 km/h (1 Bft) O-SO 122 ° 0 min 0,000 mm 0,0 UV-I 12 W/m² -5,0 °C 3,2 km/h (1 Bft)
29.11.2016 15:52 -2,7 °C -2,7 °C 84 % 1033,4 hPa 0,0 mm 2,1 km/h (1 Bft) O-SO 122 ° 0 min 0,000 mm 0,0 UV-I 12 W/m² -5,0 °C 3,2 km/h (1 Bft)
29.11.2016 15:53 -2,7 °C -2,7 °C 84 % 1033,5 hPa 0,0 mm 2,3 km/h (1 Bft) O-SO 122 ° 0 min 0,000 mm 0,0 UV-I 11 W/m² -5,0 °C 3,2 km/h (1 Bft)
29.11.2016 15:54 -2,7 °C -2,7 °C 84 % 1033,5 hPa 0,0 mm 2,4 km/h (1 Bft) O-SO 122 ° 0 min 0,000 mm 0,0 UV-I 11 W/m² -5,0 °C 3,2 km/h (1 Bft)
29.11.2016 15:55 -2,8 °C -2,7 °C 84 % 1033,4 hPa 0,0 mm 1,7 km/h (1 Bft) O-SO 122 ° 0 min 0,000 mm 0,0 UV-I 11 W/m² -5,1 °C 3,2 km/h (1 Bft)
29.11.2016 15:56 -2,7 °C -2,7 °C 84 % 1033,4 hPa 0,0 mm 1,0 km/h (0 Bft) O-SO 122 ° 0 min 0,000 mm 0,0 UV-I 11 W/m² -5,0 °C 1,6 km/h (1 Bft)
29.11.2016 15:57 -2,7 °C -2,7 °C 84 % 1033,4 hPa 0,0 mm 0,5 km/h (0 Bft) O-SO 122 ° 0 min 0,000 mm 0,0 UV-I 11 W/m² -5,0 °C 1,6 km/h (1 Bft)
29.11.2016 15:58 -2,8 °C -2,7 °C 84 % 1033,4 hPa 0,0 mm 1,0 km/h (0 Bft) O-SO 122 ° 0 min 0,000 mm 0,0 UV-I 11 W/m² -5,1 °C 1,6 km/h (1 Bft)
29.11.2016 15:59 -2,8 °C -2,8 °C 84 % 1033,4 hPa 0,0 mm 2,4 km/h (1 Bft) O-SO 122 ° 0 min 0,000 mm 0,0 UV-I 11 W/m² -5,1 °C 3,2 km/h (1 Bft)
29.11.2016 16:00 -2,8 °C -2,8 °C 84 % 1033,5 hPa 0,0 mm 0,7 km/h (0 Bft) O-SO 122 ° 0 min 0,000 mm 0,0 UV-I 11 W/m² -5,1 °C 3,2 km/h (1 Bft)
29.11.2016 16:01 -2,8 °C -2,8 °C 84 % 1033,4 hPa 0,0 mm 0,8 km/h (0 Bft) O-SO 122 ° 0 min 0,000 mm 0,0 UV-I 9 W/m² -5,1 °C 1,6 km/h (1 Bft)
29.11.2016 16:02 -2,8 °C -2,8 °C 84 % 1033,4 hPa 0,0 mm 0,0 km/h (0 Bft) O-SO 122 ° 0 min 0,000 mm 0,0 UV-I 9 W/m² -5,1 °C 0,0 km/h (0 Bft)
29.11.2016 16:03 -2,8 °C -2,8 °C 84 % 1033,4 hPa 0,0 mm 0,0 km/h (0 Bft) O-SO 122 ° 0 min 0,000 mm 0,0 UV-I 9 W/m² -5,1 °C 0,0 km/h (0 Bft)
29.11.2016 16:04 -2,9 °C -2,8 °C 84 % 1033,4 hPa 0,0 mm 0,0 km/h (0 Bft) O-SO 122 ° 0 min 0,000 mm 0,0 UV-I 9 W/m² -5,2 °C 0,0 km/h (0 Bft)
29.11.2016 16:05 -2,8 °C -2,8 °C 84 % 1033,4 hPa 0,0 mm 0,0 km/h (0 Bft) O-SO 122 ° 0 min 0,000 mm 0,0 UV-I 9 W/m² -5,1 °C 0,0 km/h (0 Bft)
29.11.2016 16:06 -2,8 °C -2,8 °C 84 % 1033,4 hPa 0,0 mm 0,0 km/h (0 Bft) O-SO 122 ° 0 min 0,000 mm 0,0 UV-I 9 W/m² -5,1 °C 0,0 km/h (0 Bft)
29.11.2016 16:07 -2,9 °C -2,8 °C 84 % 1033,5 hPa 0,0 mm 0,0 km/h (0 Bft) O-SO 122 ° 0 min 0,000 mm 0,0 UV-I 9 W/m² -5,2 °C 0,0 km/h (0 Bft)
29.11.2016 16:08 -2,9 °C -2,8 °C 84 % 1033,5 hPa 0,0 mm 0,0 km/h (0 Bft) O-SO 122 ° 0 min 0,000 mm 0,0 UV-I 7 W/m² -5,2 °C 0,0 km/h (0 Bft)
29.11.2016 16:09 -2,9 °C -2,9 °C 83 % 1033,5 hPa 0,0 mm 1,0 km/h (0 Bft) O 95 ° 0 min 0,000 mm 0,0 UV-I 7 W/m² -5,4 °C 3,2 km/h (1 Bft)
29.11.2016 16:10 -2,9 °C -2,9 °C 84 % 1033,5 hPa 0,0 mm 1,6 km/h (1 Bft) O 95 ° 0 min 0,000 mm 0,0 UV-I 7 W/m² -5,2 °C 3,2 km/h (1 Bft)
29.11.2016 16:11 -2,9 °C -2,9 °C 84 % 1033,5 hPa 0,0 mm 0,4 km/h (0 Bft) O 95 ° 0 min 0,000 mm 0,0 UV-I 7 W/m² -5,2 °C 1,6 km/h (1 Bft)
29.11.2016 16:12 -2,9 °C -2,9 °C 84 % 1033,6 hPa 0,0 mm 0,0 km/h (0 Bft) O 95 ° 0 min 0,000 mm 0,0 UV-I 7 W/m² -5,2 °C 0,0 km/h (0 Bft)
29.11.2016 16:13 -3,0 °C -2,9 °C 84 % 1033,6 hPa 0,0 mm 0,9 km/h (0 Bft) O 95 ° 0 min 0,000 mm 0,0 UV-I 7 W/m² -5,3 °C 1,6 km/h (1 Bft)
29.11.2016 16:14 -3,0 °C -2,9 °C 84 % 1033,6 hPa 0,0 mm 1,5 km/h (1 Bft) O 95 ° 0 min 0,000 mm 0,0 UV-I 7 W/m² -5,3 °C 1,6 km/h (1 Bft)
29.11.2016 16:15 -3,0 °C -3,0 °C 84 % 1033,6 hPa 0,0 mm 0,8 km/h (0 Bft) O 95 ° 0 min 0,000 mm 0,0 UV-I 5 W/m² -5,3 °C 1,6 km/h (1 Bft)
29.11.2016 16:16 -3,1 °C -3,0 °C 84 % 1033,7 hPa 0,0 mm 1,2 km/h (1 Bft) O 95 ° 0 min 0,000 mm 0,0 UV-I 5 W/m² -5,4 °C 1,6 km/h (1 Bft)
29.11.2016 16:17 -3,1 °C -3,0 °C 84 % 1033,6 hPa 0,0 mm 2,1 km/h (1 Bft) O 95 ° 0 min 0,000 mm 0,0 UV-I 5 W/m² -5,4 °C 3,2 km/h (1 Bft)
29.11.2016 16:18 -3,1 °C -3,1 °C 84 % 1033,6 hPa 0,0 mm 1,9 km/h (1 Bft) O 95 ° 0 min 0,000 mm 0,0 UV-I 5 W/m² -5,4 °C 3,2 km/h (1 Bft)
29.11.2016 16:19 -3,1 °C -3,1 °C 84 % 1033,6 hPa 0,0 mm 2,0 km/h (1 Bft) O 95 ° 0 min 0,000 mm 0,0 UV-I 5 W/m² -5,4 °C 3,2 km/h (1 Bft)
29.11.2016 16:20 -3,1 °C -3,1 °C 84 % 1033,6 hPa 0,0 mm 1,9 km/h (1 Bft) O 95 ° 0 min 0,000 mm 0,0 UV-I 5 W/m² -5,4 °C 3,2 km/h (1 Bft)
29.11.2016 16:21 -3,1 °C -3,1 °C 84 % 1033,6 hPa 0,0 mm 2,1 km/h (1 Bft) O 96 ° 0 min 0,000 mm 0,0 UV-I 5 W/m² -5,4 °C 3,2 km/h (1 Bft)
29.11.2016 16:22 -3,1 °C -3,1 °C 84 % 1033,7 hPa 0,0 mm 1,3 km/h (1 Bft) O 95 ° 0 min 0,000 mm 0,0 UV-I 5 W/m² -5,4 °C 3,2 km/h (1 Bft)
29.11.2016 16:23 -3,1 °C -3,1 °C 84 % 1033,7 hPa 0,0 mm 0,9 km/h (0 Bft) O 96 ° 0 min 0,000 mm 0,0 UV-I 5 W/m² -5,4 °C 1,6 km/h (1 Bft)
29.11.2016 16:24 -3,1 °C -3,1 °C 84 % 1033,7 hPa 0,0 mm 0,8 km/h (0 Bft) O 95 ° 0 min 0,000 mm 0,0 UV-I 5 W/m² -5,4 °C 1,6 km/h (1 Bft)
29.11.2016 16:25 -3,2 °C -3,1 °C 84 % 1033,8 hPa 0,0 mm 0,8 km/h (0 Bft) O 95 ° 0 min 0,000 mm 0,0 UV-I 0 W/m² -5,5 °C 1,6 km/h (1 Bft)
29.11.2016 16:26 -3,2 °C -3,2 °C 84 % 1033,7 hPa 0,0 mm 0,8 km/h (0 Bft) O 95 ° 0 min 0,000 mm 0,0 UV-I 0 W/m² -5,5 °C 1,6 km/h (1 Bft)
29.11.2016 16:27 -3,2 °C -3,2 °C 84 % 1033,8 hPa 0,0 mm 1,0 km/h (0 Bft) O 95 ° 0 min 0,000 mm 0,0 UV-I 0 W/m² -5,5 °C 1,6 km/h (1 Bft)
29.11.2016 16:28 -3,2 °C -3,2 °C 84 % 1033,8 hPa 0,0 mm 1,5 km/h (1 Bft) O 95 ° 0 min 0,000 mm 0,0 UV-I 0 W/m² -5,5 °C 3,2 km/h (1 Bft)
29.11.2016 16:29 -3,2 °C -3,2 °C 84 % 1033,8 hPa 0,0 mm 1,3 km/h (1 Bft) O 95 ° 0 min 0,000 mm 0,0 UV-I 0 W/m² -5,5 °C 1,6 km/h (1 Bft)
29.11.2016 16:30 -3,2 °C -3,2 °C 84 % 1033,8 hPa 0,0 mm 2,3 km/h (1 Bft) O 95 ° 0 min 0,000 mm 0,0 UV-I 0 W/m² -5,5 °C 3,2 km/h (1 Bft)
29.11.2016 16:31 -3,2 °C -3,2 °C 84 % 1033,8 hPa 0,0 mm 2,0 km/h (1 Bft) O 96 ° 0 min 0,000 mm 0,0 UV-I 0 W/m² -5,5 °C 3,2 km/h (1 Bft)
29.11.2016 16:32 -3,3 °C -3,2 °C 85 % 1033,8 hPa 0,0 mm 2,0 km/h (1 Bft) O 96 ° 0 min 0,000 mm 0,0 UV-I 0 W/m² -5,5 °C 3,2 km/h (1 Bft)
29.11.2016 16:33 -3,3 °C -3,3 °C 85 % 1033,7 hPa 0,0 mm 1,8 km/h (1 Bft) O 96 ° 0 min 0,000 mm 0,0 UV-I 0 W/m² -5,5 °C 3,2 km/h (1 Bft)
29.11.2016 16:34 -3,3 °C -3,3 °C 85 % 1033,7 hPa 0,0 mm 2,3 km/h (1 Bft) O 96 ° 0 min 0,000 mm 0,0 UV-I 0 W/m² -5,5 °C 4,8 km/h (1 Bft)
29.11.2016 16:35 -3,3 °C -3,3 °C 85 % 1033,8 hPa 0,0 mm 1,5 km/h (1 Bft) O 96 ° 0 min 0,000 mm 0,0 UV-I 0 W/m² -5,5 °C 3,2 km/h (1 Bft)
29.11.2016 16:36 -3,3 °C -3,3 °C 84 % 1033,7 hPa 0,0 mm 1,4 km/h (1 Bft) O 96 ° 0 min 0,000 mm 0,0 UV-I 0 W/m² -5,6 °C 1,6 km/h (1 Bft)
29.11.2016 16:37 -3,4 °C -3,3 °C 85 % 1033,8 hPa 0,0 mm 1,6 km/h (1 Bft) O 96 ° 0 min 0,000 mm 0,0 UV-I 0 W/m² -5,5 °C 1,6 km/h (1 Bft)
29.11.2016 16:38 -3,4 °C -3,3 °C 85 % 1033,8 hPa 0,0 mm 0,9 km/h (0 Bft) O 96 ° 0 min 0,000 mm 0,0 UV-I 0 W/m² -5,5 °C 1,6 km/h (1 Bft)
29.11.2016 16:39 -3,4 °C -3,3 °C 85 % 1033,8 hPa 0,0 mm 1,9 km/h (1 Bft) O 96 ° 0 min 0,000 mm 0,0 UV-I 0 W/m² -5,5 °C 3,2 km/h (1 Bft)
29.11.2016 16:40 -3,4 °C -3,3 °C 85 % 1033,8 hPa 0,0 mm 3,1 km/h (1 Bft) O 96 ° 0 min 0,000 mm 0,0 UV-I 0 W/m² -5,5 °C 3,2 km/h (1 Bft)
29.11.2016 16:41 -3,4 °C -3,4 °C 85 % 1033,8 hPa 0,0 mm 2,1 km/h (1 Bft) O 96 ° 0 min 0,000 mm 0,0 UV-I 0 W/m² -5,5 °C 3,2 km/h (1 Bft)
29.11.2016 16:42 -3,4 °C -3,4 °C 85 % 1033,8 hPa 0,0 mm 2,3 km/h (1 Bft) O 96 ° 0 min 0,000 mm 0,0 UV-I 0 W/m² -5,5 °C 3,2 km/h (1 Bft)
29.11.2016 16:43 -3,4 °C -3,4 °C 85 % 1033,8 hPa 0,0 mm 1,6 km/h (1 Bft) O 96 ° 0 min 0,000 mm 0,0 UV-I 0 W/m² -5,5 °C 3,2 km/h (1 Bft)
29.11.2016 16:44 -3,4 °C -3,4 °C 85 % 1033,8 hPa 0,0 mm 1,6 km/h (1 Bft) O 96 ° 0 min 0,000 mm 0,0 UV-I 0 W/m² -5,5 °C 3,2 km/h (1 Bft)
29.11.2016 16:45 -3,4 °C -3,4 °C 85 % 1033,8 hPa 0,0 mm 1,5 km/h (1 Bft) O 96 ° 0 min 0,000 mm 0,0 UV-I 0 W/m² -5,5 °C 3,2 km/h (1 Bft)
29.11.2016 16:46 -3,4 °C -3,4 °C 85 % 1033,9 hPa 0,0 mm 2,2 km/h (1 Bft) O 96 ° 0 min 0,000 mm 0,0 UV-I 0 W/m² -5,5 °C 3,2 km/h (1 Bft)
29.11.2016 16:47 -3,4 °C -3,4 °C 85 % 1033,8 hPa 0,0 mm 1,9 km/h (1 Bft) O 96 ° 0 min 0,000 mm 0,0 UV-I 0 W/m² -5,5 °C 3,2 km/h (1 Bft)
29.11.2016 16:48 -3,5 °C -3,4 °C 85 % 1033,8 hPa 0,0 mm 1,7 km/h (1 Bft) O 96 ° 0 min 0,000 mm 0,0 UV-I 0 W/m² -5,6 °C 3,2 km/h (1 Bft)
29.11.2016 16:49 -3,5 °C -3,4 °C 85 % 1033,8 hPa 0,0 mm 1,3 km/h (1 Bft) O 96 ° 0 min 0,000 mm 0,0 UV-I 0 W/m² -5,6 °C 3,2 km/h (1 Bft)
29.11.2016 16:50 -3,5 °C -3,5 °C 85 % 1033,9 hPa 0,0 mm 1,7 km/h (1 Bft) O 96 ° 0 min 0,000 mm 0,0 UV-I 0 W/m² -5,6 °C 3,2 km/h (1 Bft)
29.11.2016 16:51 -3,5 °C -3,5 °C 85 % 1033,8 hPa 0,0 mm 1,4 km/h (1 Bft) O 96 ° 0 min 0,000 mm 0,0 UV-I 0 W/m² -5,6 °C 3,2 km/h (1 Bft)
29.11.2016 16:52 -3,5 °C -3,5 °C 85 % 1033,8 hPa 0,0 mm 1,5 km/h (1 Bft) O 96 ° 0 min 0,000 mm 0,0 UV-I 0 W/m² -5,6 °C 3,2 km/h (1 Bft)
29.11.2016 16:53 -3,6 °C -3,5 °C 85 % 1033,9 hPa 0,0 mm 1,9 km/h (1 Bft) O 96 ° 0 min 0,000 mm 0,0 UV-I 0 W/m² -5,7 °C 3,2 km/h (1 Bft)
29.11.2016 16:54 -3,5 °C -3,5 °C 85 % 1033,9 hPa 0,0 mm 1,8 km/h (1 Bft) O 96 ° 0 min 0,000 mm 0,0 UV-I 0 W/m² -5,6 °C 3,2 km/h (1 Bft)
29.11.2016 16:55 -3,6 °C -3,5 °C 85 % 1033,8 hPa 0,0 mm 1,5 km/h (1 Bft) O 96 ° 0 min 0,000 mm 0,0 UV-I 0 W/m² -5,7 °C 1,6 km/h (1 Bft)
29.11.2016 16:56 -3,6 °C -3,6 °C 86 % 1033,9 hPa 0,0 mm 1,4 km/h (1 Bft) O 96 ° 0 min 0,000 mm 0,0 UV-I 0 W/m² -5,6 °C 3,2 km/h (1 Bft)
29.11.2016 16:57 -3,6 °C -3,6 °C 86 % 1033,9 hPa 0,0 mm 2,3 km/h (1 Bft) O 96 ° 0 min 0,000 mm 0,0 UV-I 0 W/m² -5,6 °C 3,2 km/h (1 Bft)
29.11.2016 16:58 -3,6 °C -3,6 °C 86 % 1033,9 hPa 0,0 mm 1,4 km/h (1 Bft) O 96 ° 0 min 0,000 mm 0,0 UV-I 0 W/m² -5,6 °C 1,6 km/h (1 Bft)
29.11.2016 16:59 -3,6 °C -3,6 °C 86 % 1033,9 hPa 0,0 mm 1,5 km/h (1 Bft) O 96 ° 0 min 0,000 mm 0,0 UV-I 0 W/m² -5,6 °C 3,2 km/h (1 Bft)
29.11.2016 17:00 -3,6 °C -3,6 °C 86 % 1033,9 hPa 0,0 mm 2,1 km/h (1 Bft) O 96 ° 0 min 0,000 mm 0,0 UV-I 0 W/m² -5,6 °C 3,2 km/h (1 Bft)
29.11.2016 17:01 -3,6 °C -3,6 °C 86 % 1033,9 hPa 0,0 mm 1,9 km/h (1 Bft) O 96 ° 0 min 0,000 mm 0,0 UV-I 0 W/m² -5,6 °C 3,2 km/h (1 Bft)
29.11.2016 17:02 -3,6 °C -3,6 °C 86 % 1033,9 hPa 0,0 mm 1,9 km/h (1 Bft) O 96 ° 0 min 0,000 mm 0,0 UV-I 0 W/m² -5,6 °C 3,2 km/h (1 Bft)
29.11.2016 17:03 -3,6 °C -3,6 °C 86 % 1033,9 hPa 0,0 mm 2,1 km/h (1 Bft) O 96 ° 0 min 0,000 mm 0,0 UV-I 0 W/m² -5,6 °C 3,2 km/h (1 Bft)
29.11.2016 17:04 -3,6 °C -3,6 °C 86 % 1033,9 hPa 0,0 mm 1,8 km/h (1 Bft) O 96 ° 0 min 0,000 mm 0,0 UV-I 0 W/m² -5,6 °C 3,2 km/h (1 Bft)
29.11.2016 17:05 -3,7 °C -3,6 °C 86 % 1033,9 hPa 0,0 mm 1,3 km/h (1 Bft) O 96 ° 0 min 0,000 mm 0,0 UV-I 0 W/m² -5,7 °C 3,2 km/h (1 Bft)
29.11.2016 17:06 -3,7 °C -3,7 °C 86 % 1033,9 hPa 0,0 mm 1,7 km/h (1 Bft) O 96 ° 0 min 0,000 mm 0,0 UV-I 0 W/m² -5,7 °C 3,2 km/h (1 Bft)
29.11.2016 17:07 -3,7 °C -3,7 °C 86 % 1033,9 hPa 0,0 mm 0,9 km/h (0 Bft) O 96 ° 0 min 0,000 mm 0,0 UV-I 0 W/m² -5,7 °C 3,2 km/h (1 Bft)
29.11.2016 17:08 -3,7 °C -3,7 °C 86 % 1033,9 hPa 0,0 mm 0,7 km/h (0 Bft) O 96 ° 0 min 0,000 mm 0,0 UV-I 0 W/m² -5,7 °C 1,6 km/h (1 Bft)
29.11.2016 17:09 -3,7 °C -3,7 °C 86 % 1034,0 hPa 0,0 mm 1,1 km/h (1 Bft) O 96 ° 0 min 0,000 mm 0,0 UV-I 0 W/m² -5,7 °C 1,6 km/h (1 Bft)
29.11.2016 17:10 -3,7 °C -3,7 °C 86 % 1033,9 hPa 0,0 mm 0,7 km/h (0 Bft) O 96 ° 0 min 0,000 mm 0,0 UV-I 0 W/m² -5,7 °C 3,2 km/h (1 Bft)
29.11.2016 17:11 -3,8 °C -3,7 °C 86 % 1033,9 hPa 0,0 mm 1,1 km/h (1 Bft) O 96 ° 0 min 0,000 mm 0,0 UV-I 0 W/m² -5,8 °C 3,2 km/h (1 Bft)
29.11.2016 17:12 -3,8 °C -3,7 °C 86 % 1034,0 hPa 0,0 mm 1,0 km/h (0 Bft) O 96 ° 0 min 0,000 mm 0,0 UV-I 0 W/m² -5,8 °C 3,2 km/h (1 Bft)
29.11.2016 17:13 -3,8 °C -3,8 °C 86 % 1033,9 hPa 0,0 mm 1,9 km/h (1 Bft) O 96 ° 0 min 0,000 mm 0,0 UV-I 0 W/m² -5,8 °C 3,2 km/h (1 Bft)
29.11.2016 17:14 -3,8 °C -3,8 °C 86 % 1034,0 hPa 0,0 mm 1,4 km/h (1 Bft) O 96 ° 0 min 0,000 mm 0,0 UV-I 0 W/m² -5,8 °C 1,6 km/h (1 Bft)
29.11.2016 17:15 -3,8 °C -3,8 °C 86 % 1034,0 hPa 0,0 mm 0,9 km/h (0 Bft) O 96 ° 0 min 0,000 mm 0,0 UV-I 0 W/m² -5,8 °C 1,6 km/h (1 Bft)
29.11.2016 17:16 -3,8 °C -3,8 °C 86 % 1034,0 hPa 0,0 mm 2,3 km/h (1 Bft) O 96 ° 0 min 0,000 mm 0,0 UV-I 0 W/m² -5,8 °C 3,2 km/h (1 Bft)
29.11.2016 17:17 -3,8 °C -3,8 °C 86 % 1034,1 hPa 0,0 mm 1,0 km/h (0 Bft) O 96 ° 0 min 0,000 mm 0,0 UV-I 0 W/m² -5,8 °C 1,6 km/h (1 Bft)
29.11.2016 17:18 -3,8 °C -3,8 °C 86 % 1034,1 hPa 0,0 mm 1,1 km/h (1 Bft) O 96 ° 0 min 0,000 mm 0,0 UV-I 0 W/m² -5,8 °C 3,2 km/h (1 Bft)
29.11.2016 17:19 -3,8 °C -3,8 °C 86 % 1034,1 hPa 0,0 mm 1,7 km/h (1 Bft) O 96 ° 0 min 0,000 mm 0,0 UV-I 0 W/m² -5,8 °C 3,2 km/h (1 Bft)
29.11.2016 17:20 -3,9 °C -3,8 °C 86 % 1034,1 hPa 0,0 mm 1,1 km/h (1 Bft) O 96 ° 0 min 0,000 mm 0,0 UV-I 0 W/m² -5,9 °C 1,6 km/h (1 Bft)
29.11.2016 17:21 -3,9 °C -3,9 °C 86 % 1034,2 hPa 0,0 mm 1,1 km/h (1 Bft) O 96 ° 0 min 0,000 mm 0,0 UV-I 0 W/m² -5,9 °C 1,6 km/h (1 Bft)
29.11.2016 17:22 -3,9 °C -3,9 °C 86 % 1034,2 hPa 0,0 mm 1,5 km/h (1 Bft) O 96 ° 0 min 0,000 mm 0,0 UV-I 0 W/m² -5,9 °C 3,2 km/h (1 Bft)
29.11.2016 17:23 -3,9 °C -3,9 °C 86 % 1034,2 hPa 0,0 mm 2,5 km/h (1 Bft) O 96 ° 0 min 0,000 mm 0,0 UV-I 0 W/m² -5,9 °C 3,2 km/h (1 Bft)
29.11.2016 17:24 -3,9 °C -3,9 °C 86 % 1034,2 hPa 0,0 mm 1,1 km/h (1 Bft) O 96 ° 0 min 0,000 mm 0,0 UV-I 0 W/m² -5,9 °C 3,2 km/h (1 Bft)
29.11.2016 17:25 -4,0 °C -3,9 °C 86 % 1034,2 hPa 0,0 mm 0,3 km/h (0 Bft) O 96 ° 0 min 0,000 mm 0,0 UV-I 0 W/m² -6,0 °C 1,6 km/h (1 Bft)
29.11.2016 17:26 -4,1 °C -4,0 °C 86 % 1034,3 hPa 0,0 mm 0,9 km/h (0 Bft) O 96 ° 0 min 0,000 mm 0,0 UV-I 0 W/m² -6,1 °C 1,6 km/h (1 Bft)
29.11.2016 17:27 -4,1 °C -4,0 °C 86 % 1034,2 hPa 0,0 mm 0,9 km/h (0 Bft) O 96 ° 0 min 0,000 mm 0,0 UV-I 0 W/m² -6,1 °C 1,6 km/h (1 Bft)
29.11.2016 17:28 -4,1 °C -4,1 °C 86 % 1034,3 hPa 0,0 mm 1,1 km/h (1 Bft) O 96 ° 0 min 0,000 mm 0,0 UV-I 0 W/m² -6,1 °C 1,6 km/h (1 Bft)
29.11.2016 17:29 -4,1 °C -4,1 °C 86 % 1034,3 hPa 0,0 mm 0,3 km/h (0 Bft) O 96 ° 0 min 0,000 mm 0,0 UV-I 0 W/m² -6,1 °C 1,6 km/h (1 Bft)
29.11.2016 17:30 -4,1 °C -4,1 °C 86 % 1034,3 hPa 0,0 mm 1,0 km/h (0 Bft) O 96 ° 0 min 0,000 mm 0,0 UV-I 0 W/m² -6,1 °C 3,2 km/h (1 Bft)
29.11.2016 17:31 -4,2 °C -4,1 °C 86 % 1034,3 hPa 0,0 mm 1,6 km/h (1 Bft) O 96 ° 0 min 0,000 mm 0,0 UV-I 0 W/m² -6,2 °C 3,2 km/h (1 Bft)
29.11.2016 17:32 -4,2 °C -4,2 °C 86 % 1034,3 hPa 0,0 mm 1,9 km/h (1 Bft) O 96 ° 0 min 0,000 mm 0,0 UV-I 0 W/m² -6,2 °C 3,2 km/h (1 Bft)
29.11.2016 17:33 -4,2 °C -4,2 °C 86 % 1034,3 hPa 0,0 mm 1,2 km/h (1 Bft) O 96 ° 0 min 0,000 mm 0,0 UV-I 0 W/m² -6,2 °C 1,6 km/h (1 Bft)
29.11.2016 17:34 -4,2 °C -4,2 °C 87 % 1034,3 hPa 0,0 mm 1,0 km/h (0 Bft) O 96 ° 0 min 0,000 mm 0,0 UV-I 0 W/m² -6,0 °C 1,6 km/h (1 Bft)
29.11.2016 17:35 -4,2 °C -4,2 °C 87 % 1034,3 hPa 0,0 mm 3,2 km/h (1 Bft) O 84 ° 0 min 0,000 mm 0,0 UV-I 0 W/m² -6,0 °C 4,8 km/h (1 Bft)
29.11.2016 17:36 -4,2 °C -4,2 °C 87 % 1034,4 hPa 0,0 mm 1,4 km/h (1 Bft) O 84 ° 0 min 0,000 mm 0,0 UV-I 0 W/m² -6,0 °C 3,2 km/h (1 Bft)
29.11.2016 17:37 -4,3 °C -4,2 °C 87 % 1034,4 hPa 0,0 mm 0,5 km/h (0 Bft) O 84 ° 0 min 0,000 mm 0,0 UV-I 0 W/m² -6,1 °C 1,6 km/h (1 Bft)
29.11.2016 17:38 -4,3 °C -4,3 °C 87 % 1034,4 hPa 0,0 mm 1,3 km/h (1 Bft) O 84 ° 0 min 0,000 mm 0,0 UV-I 0 W/m² -6,1 °C 3,2 km/h (1 Bft)
29.11.2016 17:39 -4,3 °C -4,3 °C 87 % 1034,4 hPa 0,0 mm 0,6 km/h (0 Bft) O 84 ° 0 min 0,000 mm 0,0 UV-I 0 W/m² -6,1 °C 1,6 km/h (1 Bft)
29.11.2016 17:40 -4,3 °C -4,3 °C 87 % 1034,4 hPa 0,0 mm 1,7 km/h (1 Bft) O-SO 103 ° 0 min 0,000 mm 0,0 UV-I 0 W/m² -6,1 °C 4,8 km/h (1 Bft)
29.11.2016 17:41 -4,3 °C -4,3 °C 87 % 1034,4 hPa 0,0 mm 0,5 km/h (0 Bft) O-SO 103 ° 0 min 0,000 mm 0,0 UV-I 0 W/m² -6,1 °C 1,6 km/h (1 Bft)
29.11.2016 17:42 -4,3 °C -4,3 °C 87 % 1034,5 hPa 0,0 mm 1,3 km/h (1 Bft) O-SO 103 ° 0 min 0,000 mm 0,0 UV-I 0 W/m² -6,1 °C 3,2 km/h (1 Bft)
29.11.2016 17:43 -4,3 °C -4,3 °C 87 % 1034,5 hPa 0,0 mm 1,9 km/h (1 Bft) O-SO 103 ° 0 min 0,000 mm 0,0 UV-I 0 W/m² -6,1 °C 3,2 km/h (1 Bft)
29.11.2016 17:44 -4,3 °C -4,3 °C 87 % 1034,5 hPa 0,0 mm 1,6 km/h (1 Bft) O-SO 103 ° 0 min 0,000 mm 0,0 UV-I 0 W/m² -6,1 °C 3,2 km/h (1 Bft)
29.11.2016 17:45 -4,3 °C -4,3 °C 87 % 1034,5 hPa 0,0 mm 1,5 km/h (1 Bft) O-SO 103 ° 0 min 0,000 mm 0,0 UV-I 0 W/m² -6,1 °C 3,2 km/h (1 Bft)
29.11.2016 17:46 -4,4 °C -4,3 °C 87 % 1034,5 hPa 0,0 mm 0,7 km/h (0 Bft) O-SO 103 ° 0 min 0,000 mm 0,0 UV-I 0 W/m² -6,2 °C 3,2 km/h (1 Bft)
29.11.2016 17:47 -4,3 °C -4,3 °C 87 % 1034,5 hPa 0,0 mm 1,5 km/h (1 Bft) O-SO 103 ° 0 min 0,000 mm 0,0 UV-I 0 W/m² -6,1 °C 3,2 km/h (1 Bft)
29.11.2016 17:48 -4,4 °C -4,3 °C 87 % 1034,5 hPa 0,0 mm 1,8 km/h (1 Bft) O-SO 103 ° 0 min 0,000 mm 0,0 UV-I 0 W/m² -6,2 °C 3,2 km/h (1 Bft)
29.11.2016 17:49 -4,4 °C -4,4 °C 87 % 1034,5 hPa 0,0 mm 1,6 km/h (1 Bft) O-SO 103 ° 0 min 0,000 mm 0,0 UV-I 0 W/m² -6,2 °C 3,2 km/h (1 Bft)
29.11.2016 17:50 -4,4 °C -4,4 °C 87 % 1034,5 hPa 0,0 mm 2,7 km/h (1 Bft) O-SO 103 ° 0 min 0,000 mm 0,0 UV-I 0 W/m² -6,2 °C 3,2 km/h (1 Bft)
29.11.2016 17:51 -4,4 °C -4,4 °C 87 % 1034,5 hPa 0,0 mm 2,4 km/h (1 Bft) O-SO 103 ° 0 min 0,000 mm 0,0 UV-I 0 W/m² -6,2 °C 4,8 km/h (1 Bft)
29.11.2016 17:52 -4,4 °C -4,4 °C 87 % 1034,5 hPa 0,0 mm 1,3 km/h (1 Bft) O-SO 103 ° 0 min 0,000 mm 0,0 UV-I 0 W/m² -6,2 °C 3,2 km/h (1 Bft)
29.11.2016 17:53 -4,4 °C -4,4 °C 87 % 1034,5 hPa 0,0 mm 2,5 km/h (1 Bft) O-SO 112 ° 0 min 0,000 mm 0,0 UV-I 0 W/m² -6,2 °C 3,2 km/h (1 Bft)
29.11.2016 17:54 -4,4 °C -4,4 °C 87 % 1034,5 hPa 0,0 mm 2,0 km/h (1 Bft) O-SO 112 ° 0 min 0,000 mm 0,0 UV-I 0 W/m² -6,2 °C 4,8 km/h (1 Bft)
29.11.2016 17:55 -4,4 °C -4,4 °C 87 % 1034,5 hPa 0,0 mm 1,3 km/h (1 Bft) O-SO 112 ° 0 min 0,000 mm 0,0 UV-I 0 W/m² -6,2 °C 3,2 km/h (1 Bft)
29.11.2016 17:56 -4,4 °C -4,4 °C 87 % 1034,5 hPa 0,0 mm 1,9 km/h (1 Bft) O-SO 112 ° 0 min 0,000 mm 0,0 UV-I 0 W/m² -6,2 °C 3,2 km/h (1 Bft)
29.11.2016 17:57 -4,4 °C -4,4 °C 88 % 1034,6 hPa 0,0 mm 1,4 km/h (1 Bft) O-SO 112 ° 0 min 0,000 mm 0,0 UV-I 0 W/m² -6,1 °C 3,2 km/h (1 Bft)
29.11.2016 17:58 -4,4 °C -4,4 °C 88 % 1034,5 hPa 0,0 mm 1,0 km/h (0 Bft) O-SO 112 ° 0 min 0,000 mm 0,0 UV-I 0 W/m² -6,1 °C 1,6 km/h (1 Bft)
29.11.2016 17:59 -4,4 °C -4,4 °C 88 % 1034,5 hPa 0,0 mm 1,0 km/h (0 Bft) O-SO 112 ° 0 min 0,000 mm 0,0 UV-I 0 W/m² -6,1 °C 3,2 km/h (1 Bft)
29.11.2016 18:00 -4,4 °C -4,4 °C 88 % 1034,5 hPa 0,0 mm 2,0 km/h (1 Bft) O-SO 112 ° 0 min 0,000 mm 0,0 UV-I 0 W/m² -6,1 °C 3,2 km/h (1 Bft)
29.11.2016 18:01 -4,4 °C -4,4 °C 87 % 1034,5 hPa 0,0 mm 2,2 km/h (1 Bft) O-SO 112 ° 0 min 0,000 mm 0,0 UV-I 0 W/m² -6,2 °C 3,2 km/h (1 Bft)
29.11.2016 18:02 -4,4 °C -4,4 °C 87 % 1034,5 hPa 0,0 mm 1,6 km/h (1 Bft) O-SO 112 ° 0 min 0,000 mm 0,0 UV-I 0 W/m² -6,2 °C 3,2 km/h (1 Bft)
29.11.2016 18:03 -4,4 °C -4,4 °C 87 % 1034,5 hPa 0,0 mm 1,7 km/h (1 Bft) O-SO 112 ° 0 min 0,000 mm 0,0 UV-I 0 W/m² -6,2 °C 3,2 km/h (1 Bft)
29.11.2016 18:04 -4,5 °C -4,4 °C 87 % 1034,5 hPa 0,0 mm 3,2 km/h (1 Bft) O-SO 112 ° 0 min 0,000 mm 0,0 UV-I 0 W/m² -6,3 °C 4,8 km/h (1 Bft)
29.11.2016 18:05 -4,5 °C -4,5 °C 88 % 1034,5 hPa 0,0 mm 3,6 km/h (1 Bft) SO 130 ° 0 min 0,000 mm 0,0 UV-I 0 W/m² -6,2 °C 6,4 km/h (2 Bft)
29.11.2016 18:06 -4,5 °C -4,4 °C 88 % 1034,5 hPa 0,0 mm 3,8 km/h (1 Bft) O-SO 107 ° 0 min 0,000 mm 0,0 UV-I 0 W/m² -6,2 °C 4,8 km/h (1 Bft)
29.11.2016 18:07 -4,5 °C -4,5 °C 87 % 1034,5 hPa 0,0 mm 2,1 km/h (1 Bft) O-SO 107 ° 0 min 0,000 mm 0,0 UV-I 0 W/m² -6,3 °C 3,2 km/h (1 Bft)
29.11.2016 18:08 -4,5 °C -4,5 °C 87 % 1034,4 hPa 0,0 mm 0,9 km/h (0 Bft) O-SO 107 ° 0 min 0,000 mm 0,0 UV-I 0 W/m² -6,3 °C 1,6 km/h (1 Bft)
29.11.2016 18:09 -4,6 °C -4,5 °C 87 % 1034,5 hPa 0,0 mm 1,3 km/h (1 Bft) O-SO 107 ° 0 min 0,000 mm 0,0 UV-I 0 W/m² -6,4 °C 3,2 km/h (1 Bft)
29.11.2016 18:10 -4,6 °C -4,5 °C 87 % 1034,5 hPa 0,0 mm 1,6 km/h (1 Bft) O-SO 107 ° 0 min 0,000 mm 0,0 UV-I 0 W/m² -6,4 °C 3,2 km/h (1 Bft)
29.11.2016 18:11 -4,6 °C -4,5 °C 87 % 1034,5 hPa 0,0 mm 2,0 km/h (1 Bft) O-SO 107 ° 0 min 0,000 mm 0,0 UV-I 0 W/m² -6,4 °C 3,2 km/h (1 Bft)
29.11.2016 18:12 -4,6 °C -4,5 °C 87 % 1034,5 hPa 0,0 mm 1,7 km/h (1 Bft) O-SO 107 ° 0 min 0,000 mm 0,0 UV-I 0 W/m² -6,4 °C 3,2 km/h (1 Bft)
29.11.2016 18:13 -4,6 °C -4,6 °C 87 % 1034,5 hPa 0,0 mm 2,7 km/h (1 Bft) O-SO 107 ° 0 min 0,000 mm 0,0 UV-I 0 W/m² -6,4 °C 3,2 km/h (1 Bft)
29.11.2016 18:14 -4,6 °C -4,6 °C 88 % 1034,5 hPa 0,0 mm 2,1 km/h (1 Bft) O-SO 107 ° 0 min 0,000 mm 0,0 UV-I 0 W/m² -6,3 °C 3,2 km/h (1 Bft)
29.11.2016 18:15 -4,6 °C -4,6 °C 88 % 1034,5 hPa 0,0 mm 2,1 km/h (1 Bft) O-SO 107 ° 0 min 0,000 mm 0,0 UV-I 0 W/m² -6,3 °C 3,2 km/h (1 Bft)
29.11.2016 18:16 -4,6 °C -4,6 °C 88 % 1034,4 hPa 0,0 mm 1,5 km/h (1 Bft) O-SO 107 ° 0 min 0,000 mm 0,0 UV-I 0 W/m² -6,3 °C 3,2 km/h (1 Bft)
29.11.2016 18:17 -4,6 °C -4,6 °C 88 % 1034,5 hPa 0,0 mm 2,5 km/h (1 Bft) O-SO 107 ° 0 min 0,000 mm 0,0 UV-I 0 W/m² -6,3 °C 4,8 km/h (1 Bft)
29.11.2016 18:18 -4,6 °C -4,6 °C 88 % 1034,5 hPa 0,0 mm 1,7 km/h (1 Bft) O-SO 107 ° 0 min 0,000 mm 0,0 UV-I 0 W/m² -6,3 °C 3,2 km/h (1 Bft)
29.11.2016 18:19 -4,6 °C -4,6 °C 88 % 1034,5 hPa 0,0 mm 2,6 km/h (1 Bft) O-SO 108 ° 0 min 0,000 mm 0,0 UV-I 0 W/m² -6,3 °C 4,8 km/h (1 Bft)
29.11.2016 18:20 -4,6 °C -4,6 °C 88 % 1034,5 hPa 0,0 mm 2,4 km/h (1 Bft) O-SO 108 ° 0 min 0,000 mm 0,0 UV-I 0 W/m² -6,3 °C 3,2 km/h (1 Bft)
29.11.2016 18:21 -4,6 °C -4,6 °C 88 % 1034,5 hPa 0,0 mm 1,9 km/h (1 Bft) O-SO 108 ° 0 min 0,000 mm 0,0 UV-I 0 W/m² -6,3 °C 3,2 km/h (1 Bft)
29.11.2016 18:22 -4,7 °C -4,6 °C 88 % 1034,5 hPa 0,0 mm 1,5 km/h (1 Bft) O-SO 108 ° 0 min 0,000 mm 0,0 UV-I 0 W/m² -6,4 °C 3,2 km/h (1 Bft)
29.11.2016 18:23 -4,7 °C -4,6 °C 88 % 1034,5 hPa 0,0 mm 1,8 km/h (1 Bft) O-SO 108 ° 0 min 0,000 mm 0,0 UV-I 0 W/m² -6,4 °C 3,2 km/h (1 Bft)
29.11.2016 18:24 -4,7 °C -4,7 °C 88 % 1034,5 hPa 0,0 mm 1,3 km/h (1 Bft) O-SO 108 ° 0 min 0,000 mm 0,0 UV-I 0 W/m² -6,4 °C 1,6 km/h (1 Bft)
29.11.2016 18:25 -4,7 °C -4,7 °C 88 % 1034,6 hPa 0,0 mm 1,5 km/h (1 Bft) O-SO 108 ° 0 min 0,000 mm 0,0 UV-I 0 W/m² -6,4 °C 3,2 km/h (1 Bft)
29.11.2016 18:26 -4,7 °C -4,7 °C 88 % 1034,6 hPa 0,0 mm 1,4 km/h (1 Bft) O-SO 108 ° 0 min 0,000 mm 0,0 UV-I 0 W/m² -6,4 °C 3,2 km/h (1 Bft)
29.11.2016 18:27 -4,7 °C -4,7 °C 88 % 1034,6 hPa 0,0 mm 0,5 km/h (0 Bft) O-SO 108 ° 0 min 0,000 mm 0,0 UV-I 0 W/m² -6,4 °C 1,6 km/h (1 Bft)
29.11.2016 18:28 -4,7 °C -4,7 °C 88 % 1034,7 hPa 0,0 mm 0,8 km/h (0 Bft) O-SO 108 ° 0 min 0,000 mm 0,0 UV-I 0 W/m² -6,4 °C 1,6 km/h (1 Bft)
29.11.2016 18:29 -4,7 °C -4,7 °C 88 % 1034,6 hPa 0,0 mm 1,4 km/h (1 Bft) O-SO 108 ° 0 min 0,000 mm 0,0 UV-I 0 W/m² -6,4 °C 1,6 km/h (1 Bft)
29.11.2016 18:30 -4,7 °C -4,7 °C 88 % 1034,7 hPa 0,0 mm 1,3 km/h (1 Bft) O-SO 108 ° 0 min 0,000 mm 0,0 UV-I 0 W/m² -6,4 °C 1,6 km/h (1 Bft)
29.11.2016 18:31 -4,7 °C -4,7 °C 88 % 1034,6 hPa 0,0 mm 1,9 km/h (1 Bft) O-SO 108 ° 0 min 0,000 mm 0,0 UV-I 0 W/m² -6,4 °C 3,2 km/h (1 Bft)
29.11.2016 18:32 -4,8 °C -4,7 °C 88 % 1034,7 hPa 0,0 mm 1,6 km/h (1 Bft) O-SO 108 ° 0 min 0,000 mm 0,0 UV-I 0 W/m² -6,5 °C 1,6 km/h (1 Bft)
29.11.2016 18:33 -4,8 °C -4,8 °C 88 % 1034,7 hPa 0,0 mm 1,9 km/h (1 Bft) O-SO 108 ° 0 min 0,000 mm 0,0 UV-I 0 W/m² -6,5 °C 3,2 km/h (1 Bft)
29.11.2016 18:34 -4,8 °C -4,8 °C 88 % 1034,7 hPa 0,0 mm 1,8 km/h (1 Bft) O-SO 108 ° 0 min 0,000 mm 0,0 UV-I 0 W/m² -6,5 °C 3,2 km/h (1 Bft)
29.11.2016 18:35 -4,8 °C -4,8 °C 89 % 1034,7 hPa 0,0 mm 1,5 km/h (1 Bft) O-SO 108 ° 0 min 0,000 mm 0,0 UV-I 0 W/m² -6,3 °C 3,2 km/h (1 Bft)
29.11.2016 18:36 -4,8 °C -4,8 °C 89 % 1034,7 hPa 0,0 mm 1,1 km/h (1 Bft) O-SO 108 ° 0 min 0,000 mm 0,0 UV-I 0 W/m² -6,3 °C 1,6 km/h (1 Bft)
29.11.2016 18:37 -4,8 °C -4,8 °C 89 % 1034,7 hPa 0,0 mm 1,3 km/h (1 Bft) O-SO 108 ° 0 min 0,000 mm 0,0 UV-I 0 W/m² -6,3 °C 1,6 km/h (1 Bft)
29.11.2016 18:38 -4,8 °C -4,8 °C 89 % 1034,8 hPa 0,0 mm 1,3 km/h (1 Bft) O-SO 108 ° 0 min 0,000 mm 0,0 UV-I 0 W/m² -6,3 °C 3,2 km/h (1 Bft)
29.11.2016 18:39 -4,8 °C -4,8 °C 89 % 1034,8 hPa 0,0 mm 2,6 km/h (1 Bft) O-SO 108 ° 0 min 0,000 mm 0,0 UV-I 0 W/m² -6,3 °C 3,2 km/h (1 Bft)
29.11.2016 18:40 -4,8 °C -4,8 °C 89 % 1034,8 hPa 0,0 mm 1,9 km/h (1 Bft) O-SO 108 ° 0 min 0,000 mm 0,0 UV-I 0 W/m² -6,3 °C 3,2 km/h (1 Bft)
29.11.2016 18:41 -4,9 °C -4,8 °C 89 % 1034,8 hPa 0,0 mm 1,8 km/h (1 Bft) O-SO 108 ° 0 min 0,000 mm 0,0 UV-I 0 W/m² -6,4 °C 3,2 km/h (1 Bft)
29.11.2016 18:42 -4,8 °C -4,8 °C 89 % 1034,8 hPa 0,0 mm 1,7 km/h (1 Bft) O-SO 108 ° 0 min 0,000 mm 0,0 UV-I 0 W/m² -6,3 °C 3,2 km/h (1 Bft)
29.11.2016 18:43 -4,8 °C -4,8 °C 89 % 1034,7 hPa 0,0 mm 1,1 km/h (1 Bft) O-SO 108 ° 0 min 0,000 mm 0,0 UV-I 0 W/m² -6,3 °C 3,2 km/h (1 Bft)
29.11.2016 18:44 -4,9 °C -4,8 °C 89 % 1034,8 hPa 0,0 mm 0,6 km/h (0 Bft) O-SO 108 ° 0 min 0,000 mm 0,0 UV-I 0 W/m² -6,4 °C 1,6 km/h (1 Bft)
29.11.2016 18:45 -4,9 °C -4,9 °C 89 % 1034,7 hPa 0,0 mm 0,9 km/h (0 Bft) O-SO 108 ° 0 min 0,000 mm 0,0 UV-I 0 W/m² -6,4 °C 1,6 km/h (1 Bft)
29.11.2016 18:46 -4,9 °C -4,9 °C 89 % 1034,8 hPa 0,0 mm 1,1 km/h (1 Bft) O-SO 108 ° 0 min 0,000 mm 0,0 UV-I 0 W/m² -6,4 °C 3,2 km/h (1 Bft)
29.11.2016 18:47 -4,9 °C -4,9 °C 89 % 1034,7 hPa 0,0 mm 2,0 km/h (1 Bft) O-SO 108 ° 0 min 0,000 mm 0,0 UV-I 0 W/m² -6,4 °C 3,2 km/h (1 Bft)
29.11.2016 18:48 -4,9 °C -4,9 °C 89 % 1034,7 hPa 0,0 mm 1,6 km/h (1 Bft) O-SO 108 ° 0 min 0,000 mm 0,0 UV-I 0 W/m² -6,4 °C 3,2 km/h (1 Bft)
29.11.2016 18:49 -4,9 °C -4,9 °C 89 % 1034,7 hPa 0,0 mm 1,6 km/h (1 Bft) O-SO 108 ° 0 min 0,000 mm 0,0 UV-I 0 W/m² -6,4 °C 3,2 km/h (1 Bft)
29.11.2016 18:50 -4,9 °C -4,9 °C 89 % 1034,7 hPa 0,0 mm 1,1 km/h (1 Bft) O-SO 108 ° 0 min 0,000 mm 0,0 UV-I 0 W/m² -6,4 °C 1,6 km/h (1 Bft)
29.11.2016 18:51 -4,9 °C -4,9 °C 89 % 1034,7 hPa 0,0 mm 0,5 km/h (0 Bft) O-SO 108 ° 0 min 0,000 mm 0,0 UV-I 0 W/m² -6,4 °C 1,6 km/h (1 Bft)
29.11.2016 18:52 -4,9 °C -4,9 °C 89 % 1034,7 hPa 0,0 mm 1,8 km/h (1 Bft) O-SO 108 ° 0 min 0,000 mm 0,0 UV-I 0 W/m² -6,4 °C 3,2 km/h (1 Bft)
29.11.2016 18:53 -4,9 °C -4,9 °C 89 % 1034,7 hPa 0,0 mm 1,6 km/h (1 Bft) O-SO 108 ° 0 min 0,000 mm 0,0 UV-I 0 W/m² -6,4 °C 3,2 km/h (1 Bft)
29.11.2016 18:54 -4,9 °C -4,9 °C 89 % 1034,6 hPa 0,0 mm 1,1 km/h (1 Bft) O-SO 108 ° 0 min 0,000 mm 0,0 UV-I 0 W/m² -6,4 °C 1,6 km/h (1 Bft)
29.11.2016 18:55 -4,9 °C -4,9 °C 89 % 1034,6 hPa 0,0 mm 1,6 km/h (1 Bft) O-SO 108 ° 0 min 0,000 mm 0,0 UV-I 0 W/m² -6,4 °C 3,2 km/h (1 Bft)
29.11.2016 18:56 -4,9 °C -4,9 °C 89 % 1034,6 hPa 0,0 mm 1,4 km/h (1 Bft) O-SO 108 ° 0 min 0,000 mm 0,0 UV-I 0 W/m² -6,4 °C 1,6 km/h (1 Bft)
29.11.2016 18:57 -4,9 °C -4,9 °C 89 % 1034,6 hPa 0,0 mm 0,9 km/h (0 Bft) O-SO 108 ° 0 min 0,000 mm 0,0 UV-I 0 W/m² -6,4 °C 1,6 km/h (1 Bft)
29.11.2016 18:58 -4,9 °C -4,9 °C 89 % 1034,6 hPa 0,0 mm 0,3 km/h (0 Bft) O-SO 108 ° 0 min 0,000 mm 0,0 UV-I 0 W/m² -6,4 °C 1,6 km/h (1 Bft)
29.11.2016 18:59 -4,9 °C -4,9 °C 89 % 1034,6 hPa 0,0 mm 0,1 km/h (0 Bft) O-SO 108 ° 0 min 0,000 mm 0,0 UV-I 0 W/m² -6,4 °C 1,6 km/h (1 Bft)
29.11.2016 19:00 -4,9 °C -4,9 °C 89 % 1034,6 hPa 0,0 mm 0,0 km/h (0 Bft) O-SO 108 ° 0 min 0,000 mm 0,0 UV-I 0 W/m² -6,4 °C 0,0 km/h (0 Bft)
29.11.2016 19:01 -4,9 °C -4,9 °C 89 % 1034,7 hPa 0,0 mm 0,1 km/h (0 Bft) O-SO 108 ° 0 min 0,000 mm 0,0 UV-I 0 W/m² -6,4 °C 1,6 km/h (1 Bft)
29.11.2016 19:02 -5,0 °C -4,9 °C 89 % 1034,7 hPa 0,0 mm 0,0 km/h (0 Bft) O-SO 108 ° 0 min 0,000 mm 0,0 UV-I 0 W/m² -6,5 °C 0,0 km/h (0 Bft)
29.11.2016 19:03 -5,0 °C -5,0 °C 89 % 1034,6 hPa 0,0 mm 0,0 km/h (0 Bft) O-SO 108 ° 0 min 0,000 mm 0,0 UV-I 0 W/m² -6,5 °C 0,0 km/h (0 Bft)
29.11.2016 19:04 -5,1 °C -5,0 °C 90 % 1034,7 hPa 0,0 mm 0,1 km/h (0 Bft) O-SO 108 ° 0 min 0,000 mm 0,0 UV-I 0 W/m² -6,5 °C 1,6 km/h (1 Bft)
29.11.2016 19:05 -5,1 °C -5,1 °C 89 % 1034,7 hPa 0,0 mm 0,0 km/h (0 Bft) O-SO 108 ° 0 min 0,000 mm 0,0 UV-I 0 W/m² -6,6 °C 0,0 km/h (0 Bft)
29.11.2016 19:06 -5,1 °C -5,1 °C 89 % 1034,7 hPa 0,0 mm 0,0 km/h (0 Bft) O-SO 108 ° 0 min 0,000 mm 0,0 UV-I 0 W/m² -6,6 °C 0,0 km/h (0 Bft)
29.11.2016 19:07 -5,1 °C -5,1 °C 89 % 1034,7 hPa 0,0 mm 0,1 km/h (0 Bft) O-SO 108 ° 0 min 0,000 mm 0,0 UV-I 0 W/m² -6,6 °C 1,6 km/h (1 Bft)
29.11.2016 19:08 -5,1 °C -5,1 °C 88 % 1034,8 hPa 0,0 mm 0,0 km/h (0 Bft) O-SO 108 ° 0 min 0,000 mm 0,0 UV-I 0 W/m² -6,8 °C 0,0 km/h (0 Bft)
29.11.2016 19:09 -5,2 °C -5,1 °C 88 % 1034,8 hPa 0,0 mm 0,0 km/h (0 Bft) O-SO 108 ° 0 min 0,000 mm 0,0 UV-I 0 W/m² -6,9 °C 0,0 km/h (0 Bft)
29.11.2016 19:10 -5,2 °C -5,1 °C 88 % 1034,7 hPa 0,0 mm 0,0 km/h (0 Bft) O-SO 108 ° 0 min 0,000 mm 0,0 UV-I 0 W/m² -6,9 °C 0,0 km/h (0 Bft)
29.11.2016 19:11 -5,2 °C -5,2 °C 88 % 1034,7 hPa 0,0 mm 0,0 km/h (0 Bft) O-SO 108 ° 0 min 0,000 mm 0,0 UV-I 0 W/m² -6,9 °C 0,0 km/h (0 Bft)
29.11.2016 19:12 -5,2 °C -5,2 °C 88 % 1034,7 hPa 0,0 mm 0,0 km/h (0 Bft) O-SO 108 ° 0 min 0,000 mm 0,0 UV-I 0 W/m² -6,9 °C 0,0 km/h (0 Bft)
29.11.2016 19:13 -5,2 °C -5,2 °C 88 % 1034,7 hPa 0,0 mm 0,0 km/h (0 Bft) O-SO 108 ° 0 min 0,000 mm 0,0 UV-I 0 W/m² -6,9 °C 0,0 km/h (0 Bft)
29.11.2016 19:14 -5,2 °C -5,2 °C 88 % 1034,7 hPa 0,0 mm 0,0 km/h (0 Bft) O-SO 108 ° 0 min 0,000 mm 0,0 UV-I 0 W/m² -6,9 °C 0,0 km/h (0 Bft)
29.11.2016 19:15 -5,2 °C -5,2 °C 88 % 1034,7 hPa 0,0 mm 0,0 km/h (0 Bft) O-SO 108 ° 0 min 0,000 mm 0,0 UV-I 0 W/m² -6,9 °C 0,0 km/h (0 Bft)
29.11.2016 19:16 -5,3 °C -5,2 °C 88 % 1034,7 hPa 0,0 mm 0,0 km/h (0 Bft) O-SO 108 ° 0 min 0,000 mm 0,0 UV-I 0 W/m² -7,0 °C 0,0 km/h (0 Bft)
29.11.2016 19:17 -5,3 °C -5,3 °C 88 % 1034,7 hPa 0,0 mm 0,0 km/h (0 Bft) O-SO 108 ° 0 min 0,000 mm 0,0 UV-I 0 W/m² -7,0 °C 0,0 km/h (0 Bft)
29.11.2016 19:18 -5,3 °C -5,3 °C 88 % 1034,7 hPa 0,0 mm 0,0 km/h (0 Bft) O-SO 108 ° 0 min 0,000 mm 0,0 UV-I 0 W/m² -7,0 °C 0,0 km/h (0 Bft)
29.11.2016 19:19 -5,3 °C -5,3 °C 88 % 1034,7 hPa 0,0 mm 0,0 km/h (0 Bft) O-SO 108 ° 0 min 0,000 mm 0,0 UV-I 0 W/m² -7,0 °C 0,0 km/h (0 Bft)
29.11.2016 19:20 -5,4 °C -5,3 °C 88 % 1034,7 hPa 0,0 mm 0,0 km/h (0 Bft) O-SO 108 ° 0 min 0,000 mm 0,0 UV-I 0 W/m² -7,1 °C 0,0 km/h (0 Bft)
29.11.2016 19:21 -5,4 °C -5,4 °C 89 % 1034,6 hPa 0,0 mm 0,0 km/h (0 Bft) O-SO 108 ° 0 min 0,000 mm 0,0 UV-I 0 W/m² -6,9 °C 0,0 km/h (0 Bft)
29.11.2016 19:22 -5,4 °C -5,4 °C 89 % 1034,6 hPa 0,0 mm 0,0 km/h (0 Bft) O-SO 108 ° 0 min 0,000 mm 0,0 UV-I 0 W/m² -6,9 °C 0,0 km/h (0 Bft)
29.11.2016 19:23 -5,4 °C -5,4 °C 89 % 1034,6 hPa 0,0 mm 0,0 km/h (0 Bft) O-SO 108 ° 0 min 0,000 mm 0,0 UV-I 0 W/m² -6,9 °C 0,0 km/h (0 Bft)
29.11.2016 19:24 -5,4 °C -5,4 °C 89 % 1034,6 hPa 0,0 mm 0,0 km/h (0 Bft) O-SO 108 ° 0 min 0,000 mm 0,0 UV-I 0 W/m² -6,9 °C 0,0 km/h (0 Bft)
29.11.2016 19:25 -5,5 °C -5,4 °C 89 % 1034,5 hPa 0,0 mm 0,0 km/h (0 Bft) O-SO 108 ° 0 min 0,000 mm 0,0 UV-I 0 W/m² -7,0 °C 0,0 km/h (0 Bft)
29.11.2016 19:26 -5,6 °C -5,5 °C 89 % 1034,5 hPa 0,0 mm 0,0 km/h (0 Bft) O-SO 108 ° 0 min 0,000 mm 0,0 UV-I 0 W/m² -7,1 °C 0,0 km/h (0 Bft)
29.11.2016 19:27 -5,6 °C -5,6 °C 89 % 1034,6 hPa 0,0 mm 0,0 km/h (0 Bft) O-SO 108 ° 0 min 0,000 mm 0,0 UV-I 0 W/m² -7,1 °C 0,0 km/h (0 Bft)
29.11.2016 19:28 -5,6 °C -5,6 °C 89 % 1034,6 hPa 0,0 mm 0,0 km/h (0 Bft) O-SO 108 ° 0 min 0,000 mm 0,0 UV-I 0 W/m² -7,1 °C 0,0 km/h (0 Bft)
29.11.2016 19:29 -5,6 °C -5,6 °C 89 % 1034,6 hPa 0,0 mm 0,0 km/h (0 Bft) O-SO 108 ° 0 min 0,000 mm 0,0 UV-I 0 W/m² -7,1 °C 0,0 km/h (0 Bft)
29.11.2016 19:30 -5,6 °C -5,6 °C 89 % 1034,6 hPa 0,0 mm 0,0 km/h (0 Bft) O-SO 108 ° 0 min 0,000 mm 0,0 UV-I 0 W/m² -7,1 °C 0,0 km/h (0 Bft)
29.11.2016 19:31 -5,6 °C -5,6 °C 89 % 1034,5 hPa 0,0 mm 0,0 km/h (0 Bft) O-SO 108 ° 0 min 0,000 mm 0,0 UV-I 0 W/m² -7,1 °C 0,0 km/h (0 Bft)
29.11.2016 19:32 -5,7 °C -5,6 °C 89 % 1034,5 hPa 0,0 mm 0,0 km/h (0 Bft) O-SO 108 ° 0 min 0,000 mm 0,0 UV-I 0 W/m² -7,2 °C 0,0 km/h (0 Bft)
29.11.2016 19:33 -5,7 °C -5,7 °C 89 % 1034,5 hPa 0,0 mm 0,8 km/h (0 Bft) O-SO 108 ° 0 min 0,000 mm 0,0 UV-I 0 W/m² -7,2 °C 1,6 km/h (1 Bft)
29.11.2016 19:34 -5,7 °C -5,7 °C 89 % 1034,5 hPa 0,0 mm 1,1 km/h (1 Bft) O-SO 108 ° 0 min 0,000 mm 0,0 UV-I 0 W/m² -7,2 °C 1,6 km/h (1 Bft)
29.11.2016 19:35 -5,8 °C -5,7 °C 89 % 1034,5 hPa 0,0 mm 0,6 km/h (0 Bft) O-SO 108 ° 0 min 0,000 mm 0,0 UV-I 0 W/m² -7,3 °C 1,6 km/h (1 Bft)
29.11.2016 19:36 -5,8 °C -5,7 °C 89 % 1034,5 hPa 0,0 mm 0,6 km/h (0 Bft) O-SO 108 ° 0 min 0,000 mm 0,0 UV-I 0 W/m² -7,3 °C 1,6 km/h (1 Bft)
29.11.2016 19:37 -5,8 °C -5,7 °C 89 % 1034,5 hPa 0,0 mm 0,3 km/h (0 Bft) O-SO 108 ° 0 min 0,000 mm 0,0 UV-I 0 W/m² -7,3 °C 1,6 km/h (1 Bft)
29.11.2016 19:38 -5,8 °C -5,8 °C 89 % 1034,5 hPa 0,0 mm 0,9 km/h (0 Bft) O-SO 108 ° 0 min 0,000 mm 0,0 UV-I 0 W/m² -7,3 °C 1,6 km/h (1 Bft)
29.11.2016 19:39 -5,8 °C -5,8 °C 88 % 1034,5 hPa 0,0 mm 1,0 km/h (0 Bft) O-SO 108 ° 0 min 0,000 mm 0,0 UV-I 0 W/m² -7,5 °C 1,6 km/h (1 Bft)
29.11.2016 19:40 -5,8 °C -5,8 °C 88 % 1034,5 hPa 0,0 mm 0,7 km/h (0 Bft) O-SO 108 ° 0 min 0,000 mm 0,0 UV-I 0 W/m² -7,5 °C 1,6 km/h (1 Bft)
29.11.2016 19:41 -5,8 °C -5,8 °C 88 % 1034,5 hPa 0,0 mm 0,5 km/h (0 Bft) O-SO 108 ° 0 min 0,000 mm 0,0 UV-I 0 W/m² -7,5 °C 1,6 km/h (1 Bft)
29.11.2016 19:42 -5,8 °C -5,8 °C 88 % 1034,5 hPa 0,0 mm 0,0 km/h (0 Bft) O-SO 108 ° 0 min 0,000 mm 0,0 UV-I 0 W/m² -7,5 °C 0,0 km/h (0 Bft)
29.11.2016 19:43 -5,9 °C -5,8 °C 88 % 1034,5 hPa 0,0 mm 0,0 km/h (0 Bft) O-SO 108 ° 0 min 0,000 mm 0,0 UV-I 0 W/m² -7,6 °C 0,0 km/h (0 Bft)
29.11.2016 19:44 -5,9 °C -5,9 °C 88 % 1034,6 hPa 0,0 mm 0,0 km/h (0 Bft) O-SO 108 ° 0 min 0,000 mm 0,0 UV-I 0 W/m² -7,6 °C 0,0 km/h (0 Bft)
29.11.2016 19:45 -5,9 °C -5,9 °C 88 % 1034,6 hPa 0,0 mm 0,0 km/h (0 Bft) O-SO 108 ° 0 min 0,000 mm 0,0 UV-I 0 W/m² -7,6 °C 0,0 km/h (0 Bft)
29.11.2016 19:46 -6,0 °C -5,9 °C 88 % 1034,6 hPa 0,0 mm 0,0 km/h (0 Bft) O-SO 108 ° 0 min 0,000 mm 0,0 UV-I 0 W/m² -7,7 °C 0,0 km/h (0 Bft)
29.11.2016 19:47 -6,0 °C -6,0 °C 88 % 1034,5 hPa 0,0 mm 0,0 km/h (0 Bft) O-SO 108 ° 0 min 0,000 mm 0,0 UV-I 0 W/m² -7,7 °C 0,0 km/h (0 Bft)
29.11.2016 19:48 -6,1 °C -6,0 °C 88 % 1034,5 hPa 0,0 mm 0,0 km/h (0 Bft) O-SO 108 ° 0 min 0,000 mm 0,0 UV-I 0 W/m² -7,8 °C 0,0 km/h (0 Bft)
29.11.2016 19:49 -6,1 °C -6,1 °C 88 % 1034,5 hPa 0,0 mm 0,0 km/h (0 Bft) O-SO 108 ° 0 min 0,000 mm 0,0 UV-I 0 W/m² -7,8 °C 0,0 km/h (0 Bft)
29.11.2016 19:50 -6,1 °C -6,1 °C 88 % 1034,5 hPa 0,0 mm 0,1 km/h (0 Bft) O-SO 108 ° 0 min 0,000 mm 0,0 UV-I 0 W/m² -7,8 °C 1,6 km/h (1 Bft)
29.11.2016 19:51 -6,1 °C -6,1 °C 88 % 1034,5 hPa 0,0 mm 0,1 km/h (0 Bft) O-SO 108 ° 0 min 0,000 mm 0,0 UV-I 0 W/m² -7,8 °C 1,6 km/h (1 Bft)
29.11.2016 19:52 -6,1 °C -6,1 °C 88 % 1034,6 hPa 0,0 mm 0,0 km/h (0 Bft) O-SO 108 ° 0 min 0,000 mm 0,0 UV-I 0 W/m² -7,8 °C 0,0 km/h (0 Bft)
29.11.2016 19:53 -6,2 °C -6,1 °C 88 % 1034,6 hPa 0,0 mm 0,0 km/h (0 Bft) O-SO 108 ° 0 min 0,000 mm 0,0 UV-I 0 W/m² -7,9 °C 0,0 km/h (0 Bft)
29.11.2016 19:54 -6,2 °C -6,2 °C 89 % 1034,5 hPa 0,0 mm 1,0 km/h (0 Bft) O-SO 108 ° 0 min 0,000 mm 0,0 UV-I 0 W/m² -7,7 °C 1,6 km/h (1 Bft)
29.11.2016 19:55 -6,2 °C -6,2 °C 89 % 1034,5 hPa 0,0 mm 1,8 km/h (1 Bft) O-SO 108 ° 0 min 0,000 mm 0,0 UV-I 0 W/m² -7,7 °C 3,2 km/h (1 Bft)
29.11.2016 19:56 -6,2 °C -6,2 °C 89 % 1034,5 hPa 0,0 mm 1,3 km/h (1 Bft) O-SO 108 ° 0 min 0,000 mm 0,0 UV-I 0 W/m² -7,7 °C 1,6 km/h (1 Bft)
29.11.2016 19:57 -6,2 °C -6,2 °C 89 % 1034,5 hPa 0,0 mm 1,1 km/h (1 Bft) O-SO 108 ° 0 min 0,000 mm 0,0 UV-I 0 W/m² -7,7 °C 1,6 km/h (1 Bft)
29.11.2016 19:58 -6,3 °C -6,2 °C 89 % 1034,5 hPa 0,0 mm 1,4 km/h (1 Bft) O-SO 108 ° 0 min 0,000 mm 0,0 UV-I 0 W/m² -7,8 °C 1,6 km/h (1 Bft)
29.11.2016 19:59 -6,3 °C -6,2 °C 89 % 1034,6 hPa 0,0 mm 2,0 km/h (1 Bft) O-SO 108 ° 0 min 0,000 mm 0,0 UV-I 0 W/m² -7,8 °C 3,2 km/h (1 Bft)
29.11.2016 20:00 -6,3 °C -6,3 °C 90 % 1034,5 hPa 0,0 mm 1,5 km/h (1 Bft) O-SO 108 ° 0 min 0,000 mm 0,0 UV-I 0 W/m² -7,7 °C 1,6 km/h (1 Bft)
29.11.2016 20:01 -6,3 °C -6,3 °C 90 % 1034,6 hPa 0,0 mm 1,4 km/h (1 Bft) O-SO 108 ° 0 min 0,000 mm 0,0 UV-I 0 W/m² -7,7 °C 3,2 km/h (1 Bft)
29.11.2016 20:02 -6,3 °C -6,3 °C 91 % 1034,5 hPa 0,0 mm 1,2 km/h (1 Bft) O-SO 108 ° 0 min 0,000 mm 0,0 UV-I 0 W/m² -7,5 °C 1,6 km/h (1 Bft)
29.11.2016 20:03 -6,3 °C -6,3 °C 91 % 1034,6 hPa 0,0 mm 1,4 km/h (1 Bft) O-SO 108 ° 0 min 0,000 mm 0,0 UV-I 0 W/m² -7,5 °C 1,6 km/h (1 Bft)
29.11.2016 20:04 -6,3 °C -6,3 °C 91 % 1034,5 hPa 0,0 mm 0,5 km/h (0 Bft) O-SO 108 ° 0 min 0,000 mm 0,0 UV-I 0 W/m² -7,5 °C 1,6 km/h (1 Bft)
29.11.2016 20:05 -6,2 °C -6,2 °C 91 % 1034,5 hPa 0,0 mm 0,4 km/h (0 Bft) O-SO 108 ° 0 min 0,000 mm 0,0 UV-I 0 W/m² -7,4 °C 1,6 km/h (1 Bft)
29.11.2016 20:06 -6,2 °C -6,2 °C 92 % 1034,5 hPa 0,0 mm 0,0 km/h (0 Bft) O-SO 108 ° 0 min 0,000 mm 0,0 UV-I 0 W/m² -7,3 °C 0,0 km/h (0 Bft)
29.11.2016 20:07 -6,2 °C -6,2 °C 92 % 1034,5 hPa 0,0 mm 0,0 km/h (0 Bft) O-SO 108 ° 0 min 0,000 mm 0,0 UV-I 0 W/m² -7,3 °C 0,0 km/h (0 Bft)
29.11.2016 20:08 -6,2 °C -6,2 °C 92 % 1034,6 hPa 0,0 mm 0,0 km/h (0 Bft) O-SO 108 ° 0 min 0,000 mm 0,0 UV-I 0 W/m² -7,3 °C 0,0 km/h (0 Bft)
29.11.2016 20:09 -6,2 °C -6,2 °C 92 % 1034,5 hPa 0,0 mm 0,0 km/h (0 Bft) O-SO 108 ° 0 min 0,000 mm 0,0 UV-I 0 W/m² -7,3 °C 0,0 km/h (0 Bft)
29.11.2016 20:10 -6,2 °C -6,2 °C 92 % 1034,4 hPa 0,0 mm 0,0 km/h (0 Bft) O-SO 108 ° 0 min 0,000 mm 0,0 UV-I 0 W/m² -7,3 °C 0,0 km/h (0 Bft)
29.11.2016 20:11 -6,2 °C -6,2 °C 92 % 1034,5 hPa 0,0 mm 0,0 km/h (0 Bft) O-SO 108 ° 0 min 0,000 mm 0,0 UV-I 0 W/m² -7,3 °C 0,0 km/h (0 Bft)
29.11.2016 20:12 -6,3 °C -6,2 °C 92 % 1034,6 hPa 0,0 mm 0,1 km/h (0 Bft) O-SO 108 ° 0 min 0,000 mm 0,0 UV-I 0 W/m² -7,4 °C 1,6 km/h (1 Bft)
29.11.2016 20:13 -6,3 °C -6,3 °C 92 % 1034,5 hPa 0,0 mm 0,0 km/h (0 Bft) O-SO 108 ° 0 min 0,000 mm 0,0 UV-I 0 W/m² -7,4 °C 0,0 km/h (0 Bft)
29.11.2016 20:14 -6,3 °C -6,3 °C 92 % 1034,5 hPa 0,0 mm 0,0 km/h (0 Bft) O-SO 108 ° 0 min 0,000 mm 0,0 UV-I 0 W/m² -7,4 °C 0,0 km/h (0 Bft)
29.11.2016 20:15 -6,3 °C -6,3 °C 92 % 1034,6 hPa 0,0 mm 0,7 km/h (0 Bft) O-SO 108 ° 0 min 0,000 mm 0,0 UV-I 0 W/m² -7,4 °C 1,6 km/h (1 Bft)
29.11.2016 20:16 -6,3 °C -6,3 °C 91 % 1034,6 hPa 0,0 mm 0,1 km/h (0 Bft) O-SO 108 ° 0 min 0,000 mm 0,0 UV-I 0 W/m² -7,5 °C 1,6 km/h (1 Bft)
29.11.2016 20:17 -6,3 °C -6,3 °C 91 % 1034,6 hPa 0,0 mm 0,0 km/h (0 Bft) O-SO 108 ° 0 min 0,000 mm 0,0 UV-I 0 W/m² -7,5 °C 0,0 km/h (0 Bft)
29.11.2016 20:18 -6,3 °C -6,3 °C 91 % 1034,6 hPa 0,0 mm 0,0 km/h (0 Bft) O-SO 108 ° 0 min 0,000 mm 0,0 UV-I 0 W/m² -7,5 °C 0,0 km/h (0 Bft)
29.11.2016 20:19 -6,3 °C -6,3 °C 91 % 1034,6 hPa 0,0 mm 0,0 km/h (0 Bft) O-SO 108 ° 0 min 0,000 mm 0,0 UV-I 0 W/m² -7,5 °C 0,0 km/h (0 Bft)
29.11.2016 20:20 -6,4 °C -6,3 °C 91 % 1034,6 hPa 0,0 mm 0,0 km/h (0 Bft) O-SO 108 ° 0 min 0,000 mm 0,0 UV-I 0 W/m² -7,6 °C 0,0 km/h (0 Bft)
29.11.2016 20:21 -6,4 °C -6,4 °C 91 % 1034,6 hPa 0,0 mm 0,0 km/h (0 Bft) O-SO 108 ° 0 min 0,000 mm 0,0 UV-I 0 W/m² -7,6 °C 0,0 km/h (0 Bft)
29.11.2016 20:22 -6,4 °C -6,4 °C 91 % 1034,6 hPa 0,0 mm 0,0 km/h (0 Bft) O-SO 108 ° 0 min 0,000 mm 0,0 UV-I 0 W/m² -7,6 °C 0,0 km/h (0 Bft)
29.11.2016 20:23 -6,4 °C -6,4 °C 91 % 1034,6 hPa 0,0 mm 0,0 km/h (0 Bft) O-SO 108 ° 0 min 0,000 mm 0,0 UV-I 0 W/m² -7,6 °C 0,0 km/h (0 Bft)
29.11.2016 20:24 -6,4 °C -6,4 °C 91 % 1034,6 hPa 0,0 mm 0,0 km/h (0 Bft) O-SO 108 ° 0 min 0,000 mm 0,0 UV-I 0 W/m² -7,6 °C 0,0 km/h (0 Bft)
29.11.2016 20:25 -6,4 °C -6,4 °C 90 % 1034,6 hPa 0,0 mm 0,0 km/h (0 Bft) O-SO 108 ° 0 min 0,000 mm 0,0 UV-I 0 W/m² -7,8 °C 0,0 km/h (0 Bft)
29.11.2016 20:26 -6,4 °C -6,4 °C 90 % 1034,6 hPa 0,0 mm 0,0 km/h (0 Bft) O-SO 108 ° 0 min 0,000 mm 0,0 UV-I 0 W/m² -7,8 °C 0,0 km/h (0 Bft)
29.11.2016 20:27 -6,5 °C -6,4 °C 90 % 1034,6 hPa 0,0 mm 0,1 km/h (0 Bft) O-SO 108 ° 0 min 0,000 mm 0,0 UV-I 0 W/m² -7,9 °C 1,6 km/h (1 Bft)
29.11.2016 20:28 -6,5 °C -6,4 °C 90 % 1034,6 hPa 0,0 mm 0,0 km/h (0 Bft) O-SO 108 ° 0 min 0,000 mm 0,0 UV-I 0 W/m² -7,9 °C 0,0 km/h (0 Bft)
29.11.2016 20:29 -6,5 °C -6,5 °C 90 % 1034,6 hPa 0,0 mm 0,0 km/h (0 Bft) O-SO 108 ° 0 min 0,000 mm 0,0 UV-I 0 W/m² -7,9 °C 0,0 km/h (0 Bft)
29.11.2016 20:30 -6,6 °C -6,5 °C 90 % 1034,6 hPa 0,0 mm 0,3 km/h (0 Bft) O-SO 108 ° 0 min 0,000 mm 0,0 UV-I 0 W/m² -8,0 °C 1,6 km/h (1 Bft)
29.11.2016 20:31 -6,6 °C -6,6 °C 90 % 1034,6 hPa 0,0 mm 0,7 km/h (0 Bft) O-SO 108 ° 0 min 0,000 mm 0,0 UV-I 0 W/m² -8,0 °C 1,6 km/h (1 Bft)
29.11.2016 20:32 -6,6 °C -6,6 °C 90 % 1034,6 hPa 0,0 mm 1,5 km/h (1 Bft) O-SO 108 ° 0 min 0,000 mm 0,0 UV-I 0 W/m² -8,0 °C 1,6 km/h (1 Bft)
29.11.2016 20:33 -6,6 °C -6,6 °C 90 % 1034,6 hPa 0,0 mm 1,2 km/h (1 Bft) O-SO 108 ° 0 min 0,000 mm 0,0 UV-I 0 W/m² -8,0 °C 1,6 km/h (1 Bft)
29.11.2016 20:34 -6,7 °C -6,6 °C 90 % 1034,6 hPa 0,0 mm 0,8 km/h (0 Bft) O-SO 108 ° 0 min 0,000 mm 0,0 UV-I 0 W/m² -8,1 °C 1,6 km/h (1 Bft)
29.11.2016 20:35 -6,7 °C -6,7 °C 90 % 1034,6 hPa 0,0 mm 0,8 km/h (0 Bft) O-SO 108 ° 0 min 0,000 mm 0,0 UV-I 0 W/m² -8,1 °C 1,6 km/h (1 Bft)
29.11.2016 20:36 -6,7 °C -6,7 °C 90 % 1034,6 hPa 0,0 mm 1,0 km/h (0 Bft) O-SO 108 ° 0 min 0,000 mm 0,0 UV-I 0 W/m² -8,1 °C 1,6 km/h (1 Bft)
29.11.2016 20:37 -6,7 °C -6,7 °C 90 % 1034,6 hPa 0,0 mm 0,1 km/h (0 Bft) O-SO 108 ° 0 min 0,000 mm 0,0 UV-I 0 W/m² -8,1 °C 1,6 km/h (1 Bft)
29.11.2016 20:38 -6,7 °C -6,7 °C 91 % 1034,5 hPa 0,0 mm 0,0 km/h (0 Bft) O-SO 108 ° 0 min 0,000 mm 0,0 UV-I 0 W/m² -7,9 °C 0,0 km/h (0 Bft)
29.11.2016 20:39 -6,7 °C -6,7 °C 91 % 1034,5 hPa 0,0 mm 0,0 km/h (0 Bft) O-SO 108 ° 0 min 0,000 mm 0,0 UV-I 0 W/m² -7,9 °C 0,0 km/h (0 Bft)
29.11.2016 20:40 -6,7 °C -6,7 °C 91 % 1034,6 hPa 0,0 mm 0,1 km/h (0 Bft) O-SO 108 ° 0 min 0,000 mm 0,0 UV-I 0 W/m² -7,9 °C 1,6 km/h (1 Bft)
29.11.2016 20:41 -6,7 °C -6,7 °C 91 % 1034,6 hPa 0,0 mm 0,5 km/h (0 Bft) O-SO 108 ° 0 min 0,000 mm 0,0 UV-I 0 W/m² -7,9 °C 1,6 km/h (1 Bft)
29.11.2016 20:42 -6,8 °C -6,7 °C 91 % 1034,6 hPa 0,0 mm 0,0 km/h (0 Bft) O-SO 108 ° 0 min 0,000 mm 0,0 UV-I 0 W/m² -8,0 °C 0,0 km/h (0 Bft)
29.11.2016 20:43 -6,7 °C -6,7 °C 91 % 1034,6 hPa 0,0 mm 0,0 km/h (0 Bft) O-SO 108 ° 0 min 0,000 mm 0,0 UV-I 0 W/m² -7,9 °C 0,0 km/h (0 Bft)
29.11.2016 20:44 -6,8 °C -6,7 °C 91 % 1034,6 hPa 0,0 mm 0,0 km/h (0 Bft) O-SO 108 ° 0 min 0,000 mm 0,0 UV-I 0 W/m² -8,0 °C 0,0 km/h (0 Bft)
29.11.2016 20:45 -6,8 °C -6,8 °C 91 % 1034,6 hPa 0,0 mm 0,1 km/h (0 Bft) O-SO 108 ° 0 min 0,000 mm 0,0 UV-I 0 W/m² -8,0 °C 1,6 km/h (1 Bft)
29.11.2016 20:46 -6,8 °C -6,8 °C 91 % 1034,6 hPa 0,0 mm 0,0 km/h (0 Bft) O-SO 108 ° 0 min 0,000 mm 0,0 UV-I 0 W/m² -8,0 °C 0,0 km/h (0 Bft)
29.11.2016 20:47 -6,8 °C -6,8 °C 91 % 1034,6 hPa 0,0 mm 0,0 km/h (0 Bft) O-SO 108 ° 0 min 0,000 mm 0,0 UV-I 0 W/m² -8,0 °C 0,0 km/h (0 Bft)
29.11.2016 20:48 -6,8 °C -6,8 °C 91 % 1034,6 hPa 0,0 mm 0,0 km/h (0 Bft) O-SO 108 ° 0 min 0,000 mm 0,0 UV-I 0 W/m² -8,0 °C 0,0 km/h (0 Bft)
29.11.2016 20:49 -6,8 °C -6,8 °C 91 % 1034,6 hPa 0,0 mm 0,1 km/h (0 Bft) O-SO 108 ° 0 min 0,000 mm 0,0 UV-I 0 W/m² -8,0 °C 1,6 km/h (1 Bft)
29.11.2016 20:50 -6,8 °C -6,8 °C 91 % 1034,6 hPa 0,0 mm 0,6 km/h (0 Bft) O-SO 108 ° 0 min 0,000 mm 0,0 UV-I 0 W/m² -8,0 °C 1,6 km/h (1 Bft)
29.11.2016 20:51 -6,8 °C -6,8 °C 91 % 1034,6 hPa 0,0 mm 0,0 km/h (0 Bft) O-SO 108 ° 0 min 0,000 mm 0,0 UV-I 0 W/m² -8,0 °C 0,0 km/h (0 Bft)
29.11.2016 20:52 -6,8 °C -6,8 °C 91 % 1034,6 hPa 0,0 mm 0,2 km/h (0 Bft) O-SO 108 ° 0 min 0,000 mm 0,0 UV-I 0 W/m² -8,0 °C 1,6 km/h (1 Bft)
29.11.2016 20:53 -6,8 °C -6,8 °C 91 % 1034,6 hPa 0,0 mm 0,0 km/h (0 Bft) O-SO 108 ° 0 min 0,000 mm 0,0 UV-I 0 W/m² -8,0 °C 0,0 km/h (0 Bft)
29.11.2016 20:54 -6,8 °C -6,8 °C 91 % 1034,7 hPa 0,0 mm 0,0 km/h (0 Bft) O-SO 108 ° 0 min 0,000 mm 0,0 UV-I 0 W/m² -8,0 °C 0,0 km/h (0 Bft)
29.11.2016 20:55 -6,8 °C -6,8 °C 91 % 1034,6 hPa 0,0 mm 0,0 km/h (0 Bft) O-SO 108 ° 0 min 0,000 mm 0,0 UV-I 0 W/m² -8,0 °C 0,0 km/h (0 Bft)
29.11.2016 20:56 -6,9 °C -6,8 °C 91 % 1034,7 hPa 0,0 mm 0,0 km/h (0 Bft) O-SO 108 ° 0 min 0,000 mm 0,0 UV-I 0 W/m² -8,1 °C 0,0 km/h (0 Bft)
29.11.2016 20:57 -6,9 °C -6,8 °C 91 % 1034,7 hPa 0,0 mm 0,0 km/h (0 Bft) O-SO 108 ° 0 min 0,000 mm 0,0 UV-I 0 W/m² -8,1 °C 0,0 km/h (0 Bft)
29.11.2016 20:58 -6,9 °C -6,9 °C 91 % 1034,6 hPa 0,0 mm 0,0 km/h (0 Bft) O-SO 108 ° 0 min 0,000 mm 0,0 UV-I 0 W/m² -8,1 °C 0,0 km/h (0 Bft)
29.11.2016 20:59 -6,9 °C -6,8 °C 91 % 1034,7 hPa 0,0 mm 0,0 km/h (0 Bft) O-SO 108 ° 0 min 0,000 mm 0,0 UV-I 0 W/m² -8,1 °C 0,0 km/h (0 Bft)
29.11.2016 21:00 -6,9 °C -6,9 °C 91 % 1034,7 hPa 0,0 mm 0,0 km/h (0 Bft) O-SO 108 ° 0 min 0,000 mm 0,0 UV-I 0 W/m² -8,1 °C 0,0 km/h (0 Bft)
29.11.2016 21:01 -6,9 °C -6,9 °C 91 % 1034,7 hPa 0,0 mm 0,0 km/h (0 Bft) O-SO 108 ° 0 min 0,000 mm 0,0 UV-I 0 W/m² -8,1 °C 0,0 km/h (0 Bft)
29.11.2016 21:02 -6,9 °C -6,9 °C 91 % 1034,7 hPa 0,0 mm 0,0 km/h (0 Bft) O-SO 108 ° 0 min 0,000 mm 0,0 UV-I 0 W/m² -8,1 °C 0,0 km/h (0 Bft)
29.11.2016 21:03 -6,9 °C -6,9 °C 91 % 1034,7 hPa 0,0 mm 0,4 km/h (0 Bft) O-SO 108 ° 0 min 0,000 mm 0,0 UV-I 0 W/m² -8,1 °C 3,2 km/h (1 Bft)
29.11.2016 21:04 -6,9 °C -6,9 °C 90 % 1034,7 hPa 0,0 mm 1,6 km/h (1 Bft) O-SO 108 ° 0 min 0,000 mm 0,0 UV-I 0 W/m² -8,3 °C 3,2 km/h (1 Bft)
29.11.2016 21:05 -6,9 °C -6,9 °C 90 % 1034,7 hPa 0,0 mm 0,1 km/h (0 Bft) O-SO 108 ° 0 min 0,000 mm 0,0 UV-I 0 W/m² -8,3 °C 1,6 km/h (1 Bft)
29.11.2016 21:06 -7,0 °C -6,9 °C 90 % 1034,7 hPa 0,0 mm 2,7 km/h (1 Bft) O-SO 108 ° 0 min 0,000 mm 0,0 UV-I 0 W/m² -8,4 °C 3,2 km/h (1 Bft)
29.11.2016 21:07 -7,1 °C -7,0 °C 90 % 1034,7 hPa 0,0 mm 2,5 km/h (1 Bft) O-SO 108 ° 0 min 0,000 mm 0,0 UV-I 0 W/m² -8,5 °C 3,2 km/h (1 Bft)
29.11.2016 21:08 -7,1 °C -7,1 °C 90 % 1034,7 hPa 0,0 mm 1,7 km/h (1 Bft) O-SO 108 ° 0 min 0,000 mm 0,0 UV-I 0 W/m² -8,5 °C 3,2 km/h (1 Bft)
29.11.2016 21:09 -7,1 °C -7,1 °C 90 % 1034,8 hPa 0,0 mm 0,5 km/h (0 Bft) O-SO 108 ° 0 min 0,000 mm 0,0 UV-I 0 W/m² -8,5 °C 1,6 km/h (1 Bft)
29.11.2016 21:10 -7,1 °C -7,1 °C 90 % 1034,8 hPa 0,0 mm 0,7 km/h (0 Bft) O-SO 108 ° 0 min 0,000 mm 0,0 UV-I 0 W/m² -8,5 °C 1,6 km/h (1 Bft)
29.11.2016 21:11 -7,1 °C -7,1 °C 90 % 1034,8 hPa 0,0 mm 0,1 km/h (0 Bft) O-SO 108 ° 0 min 0,000 mm 0,0 UV-I 0 W/m² -8,5 °C 1,6 km/h (1 Bft)
29.11.2016 21:12 -7,1 °C -7,1 °C 90 % 1034,8 hPa 0,0 mm 0,0 km/h (0 Bft) O-SO 108 ° 0 min 0,000 mm 0,0 UV-I 0 W/m² -8,5 °C 0,0 km/h (0 Bft)
29.11.2016 21:13 -7,2 °C -7,1 °C 90 % 1034,8 hPa 0,0 mm 0,0 km/h (0 Bft) O-SO 108 ° 0 min 0,000 mm 0,0 UV-I 0 W/m² -8,6 °C 0,0 km/h (0 Bft)
29.11.2016 21:14 -7,2 °C -7,2 °C 90 % 1034,8 hPa 0,0 mm 0,0 km/h (0 Bft) O-SO 108 ° 0 min 0,000 mm 0,0 UV-I 0 W/m² -8,6 °C 0,0 km/h (0 Bft)
29.11.2016 21:15 -7,2 °C -7,2 °C 90 % 1034,9 hPa 0,0 mm 0,0 km/h (0 Bft) O-SO 108 ° 0 min 0,000 mm 0,0 UV-I 0 W/m² -8,6 °C 0,0 km/h (0 Bft)
29.11.2016 21:16 -7,2 °C -7,2 °C 91 % 1034,8 hPa 0,0 mm 0,0 km/h (0 Bft) O-SO 108 ° 0 min 0,000 mm 0,0 UV-I 0 W/m² -8,4 °C 0,0 km/h (0 Bft)
29.11.2016 21:17 -7,2 °C -7,2 °C 91 % 1034,9 hPa 0,0 mm 0,0 km/h (0 Bft) O-SO 108 ° 0 min 0,000 mm 0,0 UV-I 0 W/m² -8,4 °C 0,0 km/h (0 Bft)
29.11.2016 21:18 -7,2 °C -7,2 °C 91 % 1034,9 hPa 0,0 mm 0,0 km/h (0 Bft) O-SO 108 ° 0 min 0,000 mm 0,0 UV-I 0 W/m² -8,4 °C 0,0 km/h (0 Bft)
29.11.2016 21:19 -7,2 °C -7,2 °C 91 % 1034,9 hPa 0,0 mm 0,0 km/h (0 Bft) O-SO 108 ° 0 min 0,000 mm 0,0 UV-I 0 W/m² -8,4 °C 0,0 km/h (0 Bft)
29.11.2016 21:20 -7,2 °C -7,2 °C 91 % 1034,9 hPa 0,0 mm 0,0 km/h (0 Bft) O-SO 108 ° 0 min 0,000 mm 0,0 UV-I 0 W/m² -8,4 °C 0,0 km/h (0 Bft)
29.11.2016 21:21 -7,2 °C -7,2 °C 91 % 1034,9 hPa 0,0 mm 0,0 km/h (0 Bft) O-SO 108 ° 0 min 0,000 mm 0,0 UV-I 0 W/m² -8,4 °C 0,0 km/h (0 Bft)
29.11.2016 21:22 -7,3 °C -7,2 °C 91 % 1034,9 hPa 0,0 mm 0,0 km/h (0 Bft) O-SO 108 ° 0 min 0,000 mm 0,0 UV-I 0 W/m² -8,5 °C 0,0 km/h (0 Bft)
29.11.2016 21:23 -7,3 °C -7,2 °C 91 % 1034,9 hPa 0,0 mm 0,0 km/h (0 Bft) O-SO 108 ° 0 min 0,000 mm 0,0 UV-I 0 W/m² -8,5 °C 0,0 km/h (0 Bft)
29.11.2016 21:24 -7,3 °C -7,2 °C 91 % 1034,9 hPa 0,0 mm 0,0 km/h (0 Bft) O-SO 108 ° 0 min 0,000 mm 0,0 UV-I 0 W/m² -8,5 °C 0,0 km/h (0 Bft)
29.11.2016 21:25 -7,3 °C -7,3 °C 91 % 1034,9 hPa 0,0 mm 0,0 km/h (0 Bft) O-SO 108 ° 0 min 0,000 mm 0,0 UV-I 0 W/m² -8,5 °C 0,0 km/h (0 Bft)
29.11.2016 21:26 -7,3 °C -7,3 °C 91 % 1034,9 hPa 0,0 mm 0,0 km/h (0 Bft) O-SO 108 ° 0 min 0,000 mm 0,0 UV-I 0 W/m² -8,5 °C 0,0 km/h (0 Bft)
29.11.2016 21:27 -7,3 °C -7,3 °C 91 % 1034,9 hPa 0,0 mm 0,0 km/h (0 Bft) O-SO 108 ° 0 min 0,000 mm 0,0 UV-I 0 W/m² -8,5 °C 0,0 km/h (0 Bft)
29.11.2016 21:28 -7,3 °C -7,3 °C 91 % 1034,9 hPa 0,0 mm 0,0 km/h (0 Bft) O-SO 108 ° 0 min 0,000 mm 0,0 UV-I 0 W/m² -8,5 °C 0,0 km/h (0 Bft)
29.11.2016 21:29 -7,3 °C -7,3 °C 91 % 1034,9 hPa 0,0 mm 0,0 km/h (0 Bft) O-SO 108 ° 0 min 0,000 mm 0,0 UV-I 0 W/m² -8,5 °C 0,0 km/h (0 Bft)
29.11.2016 21:30 -7,3 °C -7,3 °C 91 % 1035,0 hPa 0,0 mm 0,0 km/h (0 Bft) O-SO 108 ° 0 min 0,000 mm 0,0 UV-I 0 W/m² -8,5 °C 0,0 km/h (0 Bft)
29.11.2016 21:31 -7,3 °C -7,3 °C 91 % 1034,9 hPa 0,0 mm 0,0 km/h (0 Bft) O-SO 108 ° 0 min 0,000 mm 0,0 UV-I 0 W/m² -8,5 °C 0,0 km/h (0 Bft)
29.11.2016 21:32 -7,3 °C -7,3 °C 91 % 1034,9 hPa 0,0 mm 0,0 km/h (0 Bft) O-SO 108 ° 0 min 0,000 mm 0,0 UV-I 0 W/m² -8,5 °C 0,0 km/h (0 Bft)
29.11.2016 21:33 -7,3 °C -7,3 °C 91 % 1034,9 hPa 0,0 mm 0,0 km/h (0 Bft) O-SO 108 ° 0 min 0,000 mm 0,0 UV-I 0 W/m² -8,5 °C 0,0 km/h (0 Bft)
29.11.2016 21:34 -7,3 °C -7,3 °C 91 % 1034,9 hPa 0,0 mm 0,0 km/h (0 Bft) O-SO 108 ° 0 min 0,000 mm 0,0 UV-I 0 W/m² -8,5 °C 0,0 km/h (0 Bft)
29.11.2016 21:35 -7,3 °C -7,3 °C 91 % 1034,9 hPa 0,0 mm 0,0 km/h (0 Bft) O-SO 108 ° 0 min 0,000 mm 0,0 UV-I 0 W/m² -8,5 °C 0,0 km/h (0 Bft)
29.11.2016 21:36 -7,4 °C -7,3 °C 91 % 1034,9 hPa 0,0 mm 0,0 km/h (0 Bft) O-SO 108 ° 0 min 0,000 mm 0,0 UV-I 0 W/m² -8,6 °C 0,0 km/h (0 Bft)
29.11.2016 21:37 -7,4 °C -7,3 °C 91 % 1034,9 hPa 0,0 mm 0,0 km/h (0 Bft) O-SO 108 ° 0 min 0,000 mm 0,0 UV-I 0 W/m² -8,6 °C 0,0 km/h (0 Bft)
29.11.2016 21:38 -7,4 °C -7,3 °C 91 % 1034,9 hPa 0,0 mm 0,0 km/h (0 Bft) O-SO 108 ° 0 min 0,000 mm 0,0 UV-I 0 W/m² -8,6 °C 0,0 km/h (0 Bft)
29.11.2016 21:39 -7,4 °C -7,4 °C 91 % 1034,9 hPa 0,0 mm 0,0 km/h (0 Bft) O-SO 108 ° 0 min 0,000 mm 0,0 UV-I 0 W/m² -8,6 °C 0,0 km/h (0 Bft)
29.11.2016 21:40 -7,4 °C -7,4 °C 91 % 1034,9 hPa 0,0 mm 0,0 km/h (0 Bft) O-SO 108 ° 0 min 0,000 mm 0,0 UV-I 0 W/m² -8,6 °C 0,0 km/h (0 Bft)
29.11.2016 21:41 -7,4 °C -7,4 °C 91 % 1034,9 hPa 0,0 mm 0,5 km/h (0 Bft) O-SO 108 ° 0 min 0,000 mm 0,0 UV-I 0 W/m² -8,6 °C 1,6 km/h (1 Bft)
29.11.2016 21:42 -7,4 °C -7,4 °C 91 % 1034,9 hPa 0,0 mm 0,9 km/h (0 Bft) O-SO 108 ° 0 min 0,000 mm 0,0 UV-I 0 W/m² -8,6 °C 1,6 km/h (1 Bft)
29.11.2016 21:43 -7,4 °C -7,4 °C 91 % 1034,9 hPa 0,0 mm 1,1 km/h (1 Bft) O-SO 108 ° 0 min 0,000 mm 0,0 UV-I 0 W/m² -8,6 °C 1,6 km/h (1 Bft)
29.11.2016 21:44 -7,4 °C -7,4 °C 91 % 1034,9 hPa 0,0 mm 0,6 km/h (0 Bft) O-SO 108 ° 0 min 0,000 mm 0,0 UV-I 0 W/m² -8,6 °C 1,6 km/h (1 Bft)
29.11.2016 21:45 -7,4 °C -7,4 °C 91 % 1034,9 hPa 0,0 mm 0,0 km/h (0 Bft) O-SO 108 ° 0 min 0,000 mm 0,0 UV-I 0 W/m² -8,6 °C 0,0 km/h (0 Bft)
29.11.2016 21:46 -7,4 °C -7,4 °C 91 % 1034,9 hPa 0,0 mm 0,0 km/h (0 Bft) O-SO 108 ° 0 min 0,000 mm 0,0 UV-I 0 W/m² -8,6 °C 0,0 km/h (0 Bft)
29.11.2016 21:47 -7,4 °C -7,4 °C 92 % 1034,9 hPa 0,0 mm 0,1 km/h (0 Bft) O-SO 108 ° 0 min 0,000 mm 0,0 UV-I 0 W/m² -8,5 °C 1,6 km/h (1 Bft)
29.11.2016 21:48 -7,4 °C -7,4 °C 92 % 1034,9 hPa 0,0 mm 0,0 km/h (0 Bft) O-SO 108 ° 0 min 0,000 mm 0,0 UV-I 0 W/m² -8,5 °C 0,0 km/h (0 Bft)
29.11.2016 21:49 -7,4 °C -7,4 °C 92 % 1034,9 hPa 0,0 mm 0,3 km/h (0 Bft) O-SO 108 ° 0 min 0,000 mm 0,0 UV-I 0 W/m² -8,5 °C 1,6 km/h (1 Bft)
29.11.2016 21:50 -7,4 °C -7,4 °C 92 % 1034,9 hPa 0,0 mm 0,4 km/h (0 Bft) O-SO 108 ° 0 min 0,000 mm 0,0 UV-I 0 W/m² -8,5 °C 1,6 km/h (1 Bft)
29.11.2016 21:51 -7,4 °C -7,4 °C 92 % 1034,9 hPa 0,0 mm 0,1 km/h (0 Bft) O-SO 108 ° 0 min 0,000 mm 0,0 UV-I 0 W/m² -8,5 °C 1,6 km/h (1 Bft)
29.11.2016 21:52 -7,4 °C -7,4 °C 92 % 1034,9 hPa 0,0 mm 0,0 km/h (0 Bft) O-SO 108 ° 0 min 0,000 mm 0,0 UV-I 0 W/m² -8,5 °C 0,0 km/h (0 Bft)
29.11.2016 21:53 -7,4 °C -7,4 °C 92 % 1034,9 hPa 0,0 mm 0,1 km/h (0 Bft) O-SO 108 ° 0 min 0,000 mm 0,0 UV-I 0 W/m² -8,5 °C 1,6 km/h (1 Bft)
29.11.2016 21:54 -7,4 °C -7,4 °C 92 % 1034,9 hPa 0,0 mm 0,7 km/h (0 Bft) O-SO 108 ° 0 min 0,000 mm 0,0 UV-I 0 W/m² -8,5 °C 1,6 km/h (1 Bft)
29.11.2016 21:55 -7,4 °C -7,4 °C 92 % 1035,0 hPa 0,0 mm 1,2 km/h (1 Bft) O-SO 108 ° 0 min 0,000 mm 0,0 UV-I 0 W/m² -8,5 °C 1,6 km/h (1 Bft)
29.11.2016 21:56 -7,4 °C -7,4 °C 92 % 1034,9 hPa 0,0 mm 0,7 km/h (0 Bft) O-SO 108 ° 0 min 0,000 mm 0,0 UV-I 0 W/m² -8,5 °C 1,6 km/h (1 Bft)
29.11.2016 21:57 -7,4 °C -7,4 °C 92 % 1035,0 hPa 0,0 mm 0,1 km/h (0 Bft) O-SO 108 ° 0 min 0,000 mm 0,0 UV-I 0 W/m² -8,5 °C 1,6 km/h (1 Bft)
29.11.2016 21:58 -7,4 °C -7,4 °C 92 % 1035,0 hPa 0,0 mm 0,8 km/h (0 Bft) O-SO 108 ° 0 min 0,000 mm 0,0 UV-I 0 W/m² -8,5 °C 1,6 km/h (1 Bft)
29.11.2016 21:59 -7,4 °C -7,4 °C 92 % 1035,0 hPa 0,0 mm 1,2 km/h (1 Bft) O-SO 108 ° 0 min 0,000 mm 0,0 UV-I 0 W/m² -8,5 °C 1,6 km/h (1 Bft)
29.11.2016 22:00 -7,4 °C -7,4 °C 92 % 1034,9 hPa 0,0 mm 0,8 km/h (0 Bft) O-SO 108 ° 0 min 0,000 mm 0,0 UV-I 0 W/m² -8,5 °C 1,6 km/h (1 Bft)
29.11.2016 22:01 -7,4 °C -7,4 °C 92 % 1034,9 hPa 0,0 mm 0,4 km/h (0 Bft) O-SO 108 ° 0 min 0,000 mm 0,0 UV-I 0 W/m² -8,5 °C 1,6 km/h (1 Bft)
29.11.2016 22:02 -7,5 °C -7,4 °C 92 % 1034,9 hPa 0,0 mm 0,5 km/h (0 Bft) O-SO 108 ° 0 min 0,000 mm 0,0 UV-I 0 W/m² -8,6 °C 1,6 km/h (1 Bft)
29.11.2016 22:03 -7,5 °C -7,4 °C 92 % 1034,9 hPa 0,0 mm 0,0 km/h (0 Bft) O-SO 108 ° 0 min 0,000 mm 0,0 UV-I 0 W/m² -8,6 °C 0,0 km/h (0 Bft)
29.11.2016 22:04 -7,5 °C -7,5 °C 92 % 1034,9 hPa 0,0 mm 0,1 km/h (0 Bft) O-SO 108 ° 0 min 0,000 mm 0,0 UV-I 0 W/m² -8,6 °C 1,6 km/h (1 Bft)
29.11.2016 22:05 -7,6 °C -7,5 °C 92 % 1034,9 hPa 0,0 mm 0,0 km/h (0 Bft) O-SO 108 ° 0 min 0,000 mm 0,0 UV-I 0 W/m² -8,7 °C 0,0 km/h (0 Bft)
29.11.2016 22:06 -7,6 °C -7,5 °C 92 % 1034,9 hPa 0,0 mm 0,1 km/h (0 Bft) O-SO 108 ° 0 min 0,000 mm 0,0 UV-I 0 W/m² -8,7 °C 1,6 km/h (1 Bft)
29.11.2016 22:07 -7,6 °C -7,6 °C 92 % 1034,8 hPa 0,0 mm 0,0 km/h (0 Bft) O-SO 108 ° 0 min 0,000 mm 0,0 UV-I 0 W/m² -8,7 °C 0,0 km/h (0 Bft)
29.11.2016 22:08 -7,6 °C -7,6 °C 92 % 1034,8 hPa 0,0 mm 0,0 km/h (0 Bft) O-SO 108 ° 0 min 0,000 mm 0,0 UV-I 0 W/m² -8,7 °C 0,0 km/h (0 Bft)
29.11.2016 22:09 -7,6 °C -7,6 °C 92 % 1034,8 hPa 0,0 mm 0,0 km/h (0 Bft) O-SO 108 ° 0 min 0,000 mm 0,0 UV-I 0 W/m² -8,7 °C 0,0 km/h (0 Bft)
29.11.2016 22:10 -7,6 °C -7,6 °C 92 % 1034,9 hPa 0,0 mm 0,0 km/h (0 Bft) O-SO 108 ° 0 min 0,000 mm 0,0 UV-I 0 W/m² -8,7 °C 0,0 km/h (0 Bft)
29.11.2016 22:11 -7,6 °C -7,6 °C 92 % 1034,9 hPa 0,0 mm 0,0 km/h (0 Bft) O-SO 108 ° 0 min 0,000 mm 0,0 UV-I 0 W/m² -8,7 °C 0,0 km/h (0 Bft)
29.11.2016 22:12 -7,6 °C -7,6 °C 92 % 1034,9 hPa 0,0 mm 0,0 km/h (0 Bft) O-SO 108 ° 0 min 0,000 mm 0,0 UV-I 0 W/m² -8,7 °C 0,0 km/h (0 Bft)
29.11.2016 22:13 -7,6 °C -7,5 °C 92 % 1034,9 hPa 0,0 mm 0,0 km/h (0 Bft) O-SO 108 ° 0 min 0,000 mm 0,0 UV-I 0 W/m² -8,7 °C 0,0 km/h (0 Bft)
29.11.2016 22:14 -7,5 °C -7,5 °C 92 % 1035,0 hPa 0,0 mm 0,0 km/h (0 Bft) O-SO 108 ° 0 min 0,000 mm 0,0 UV-I 0 W/m² -8,6 °C 0,0 km/h (0 Bft)
29.11.2016 22:15 -7,5 °C -7,5 °C 92 % 1034,9 hPa 0,0 mm 0,0 km/h (0 Bft) O-SO 108 ° 0 min 0,000 mm 0,0 UV-I 0 W/m² -8,6 °C 0,0 km/h (0 Bft)
29.11.2016 22:16 -7,5 °C -7,5 °C 92 % 1034,9 hPa 0,0 mm 0,0 km/h (0 Bft) O-SO 108 ° 0 min 0,000 mm 0,0 UV-I 0 W/m² -8,6 °C 0,0 km/h (0 Bft)
29.11.2016 22:17 -7,5 °C -7,5 °C 92 % 1035,0 hPa 0,0 mm 0,0 km/h (0 Bft) O-SO 108 ° 0 min 0,000 mm 0,0 UV-I 0 W/m² -8,6 °C 0,0 km/h (0 Bft)
29.11.2016 22:18 -7,5 °C -7,4 °C 92 % 1035,0 hPa 0,0 mm 0,0 km/h (0 Bft) O-SO 108 ° 0 min 0,000 mm 0,0 UV-I 0 W/m² -8,6 °C 0,0 km/h (0 Bft)
29.11.2016 22:19 -7,5 °C -7,4 °C 92 % 1035,0 hPa 0,0 mm 0,0 km/h (0 Bft) O-SO 108 ° 0 min 0,000 mm 0,0 UV-I 0 W/m² -8,6 °C 0,0 km/h (0 Bft)
29.11.2016 22:20 -7,5 °C -7,5 °C 92 % 1035,0 hPa 0,0 mm 0,0 km/h (0 Bft) O-SO 108 ° 0 min 0,000 mm 0,0 UV-I 0 W/m² -8,6 °C 0,0 km/h (0 Bft)
29.11.2016 22:21 -7,5 °C -7,5 °C 92 % 1035,0 hPa 0,0 mm 0,0 km/h (0 Bft) O-SO 108 ° 0 min 0,000 mm 0,0 UV-I 0 W/m² -8,6 °C 0,0 km/h (0 Bft)
29.11.2016 22:22 -7,5 °C -7,5 °C 92 % 1035,0 hPa 0,0 mm 0,0 km/h (0 Bft) O-SO 108 ° 0 min 0,000 mm 0,0 UV-I 0 W/m² -8,6 °C 0,0 km/h (0 Bft)
29.11.2016 22:23 -7,5 °C -7,5 °C 93 % 1035,0 hPa 0,0 mm 0,0 km/h (0 Bft) O-SO 108 ° 0 min 0,000 mm 0,0 UV-I 0 W/m² -8,4 °C 0,0 km/h (0 Bft)
29.11.2016 22:24 -7,5 °C -7,5 °C 93 % 1035,0 hPa 0,0 mm 0,0 km/h (0 Bft) O-SO 108 ° 0 min 0,000 mm 0,0 UV-I 0 W/m² -8,4 °C 0,0 km/h (0 Bft)
29.11.2016 22:25 -7,6 °C -7,5 °C 92 % 1035,0 hPa 0,0 mm 0,0 km/h (0 Bft) O-SO 108 ° 0 min 0,000 mm 0,0 UV-I 0 W/m² -8,7 °C 0,0 km/h (0 Bft)
29.11.2016 22:26 -7,6 °C -7,6 °C 92 % 1035,0 hPa 0,0 mm 0,0 km/h (0 Bft) O-SO 108 ° 0 min 0,000 mm 0,0 UV-I 0 W/m² -8,7 °C 0,0 km/h (0 Bft)
29.11.2016 22:27 -7,6 °C -7,6 °C 92 % 1035,1 hPa 0,0 mm 0,0 km/h (0 Bft) O-SO 108 ° 0 min 0,000 mm 0,0 UV-I 0 W/m² -8,7 °C 0,0 km/h (0 Bft)
29.11.2016 22:28 -7,6 °C -7,6 °C 92 % 1035,0 hPa 0,0 mm 0,0 km/h (0 Bft) O-SO 108 ° 0 min 0,000 mm 0,0 UV-I 0 W/m² -8,7 °C 0,0 km/h (0 Bft)
29.11.2016 22:29 -7,6 °C -7,6 °C 92 % 1035,0 hPa 0,0 mm 0,7 km/h (0 Bft) O-SO 108 ° 0 min 0,000 mm 0,0 UV-I 0 W/m² -8,7 °C 1,6 km/h (1 Bft)
29.11.2016 22:30 -7,6 °C -7,6 °C 92 % 1035,0 hPa 0,0 mm 1,5 km/h (1 Bft) O-SO 108 ° 0 min 0,000 mm 0,0 UV-I 0 W/m² -8,7 °C 1,6 km/h (1 Bft)
29.11.2016 22:31 -7,6 °C -7,6 °C 92 % 1035,0 hPa 0,0 mm 0,9 km/h (0 Bft) O-SO 108 ° 0 min 0,000 mm 0,0 UV-I 0 W/m² -8,7 °C 1,6 km/h (1 Bft)
29.11.2016 22:32 -7,6 °C -7,6 °C 92 % 1034,9 hPa 0,0 mm 0,1 km/h (0 Bft) O-SO 108 ° 0 min 0,000 mm 0,0 UV-I 0 W/m² -8,7 °C 1,6 km/h (1 Bft)
29.11.2016 22:33 -7,6 °C -7,6 °C 92 % 1034,9 hPa 0,0 mm 2,1 km/h (1 Bft) O-SO 108 ° 0 min 0,000 mm 0,0 UV-I 0 W/m² -8,7 °C 3,2 km/h (1 Bft)
29.11.2016 22:34 -7,7 °C -7,6 °C 92 % 1035,0 hPa 0,0 mm 2,3 km/h (1 Bft) O-SO 108 ° 0 min 0,000 mm 0,0 UV-I 0 W/m² -8,8 °C 3,2 km/h (1 Bft)
29.11.2016 22:35 -7,7 °C -7,6 °C 92 % 1035,0 hPa 0,0 mm 0,7 km/h (0 Bft) O-SO 108 ° 0 min 0,000 mm 0,0 UV-I 0 W/m² -8,8 °C 1,6 km/h (1 Bft)
29.11.2016 22:36 -7,7 °C -7,7 °C 92 % 1035,0 hPa 0,0 mm 0,1 km/h (0 Bft) O-SO 108 ° 0 min 0,000 mm 0,0 UV-I 0 W/m² -8,8 °C 1,6 km/h (1 Bft)
29.11.2016 22:37 -7,7 °C -7,7 °C 92 % 1035,1 hPa 0,0 mm 0,0 km/h (0 Bft) O-SO 108 ° 0 min 0,000 mm 0,0 UV-I 0 W/m² -8,8 °C 0,0 km/h (0 Bft)
29.11.2016 22:38 -7,7 °C -7,7 °C 92 % 1035,0 hPa 0,0 mm 0,0 km/h (0 Bft) O-SO 108 ° 0 min 0,000 mm 0,0 UV-I 0 W/m² -8,8 °C 0,0 km/h (0 Bft)
29.11.2016 22:39 -7,7 °C -7,7 °C 92 % 1035,0 hPa 0,0 mm 0,0 km/h (0 Bft) O-SO 108 ° 0 min 0,000 mm 0,0 UV-I 0 W/m² -8,8 °C 0,0 km/h (0 Bft)
29.11.2016 22:40 -7,7 °C -7,7 °C 92 % 1035,1 hPa 0,0 mm 0,0 km/h (0 Bft) O-SO 108 ° 0 min 0,000 mm 0,0 UV-I 0 W/m² -8,8 °C 0,0 km/h (0 Bft)
29.11.2016 22:41 -7,7 °C -7,7 °C 92 % 1035,0 hPa 0,0 mm 0,1 km/h (0 Bft) O-SO 108 ° 0 min 0,000 mm 0,0 UV-I 0 W/m² -8,8 °C 1,6 km/h (1 Bft)
29.11.2016 22:42 -7,7 °C -7,7 °C 92 % 1035,1 hPa 0,0 mm 0,6 km/h (0 Bft) O-SO 108 ° 0 min 0,000 mm 0,0 UV-I 0 W/m² -8,8 °C 1,6 km/h (1 Bft)
29.11.2016 22:43 -7,8 °C -7,7 °C 91 % 1035,1 hPa 0,0 mm 1,1 km/h (1 Bft) O-SO 108 ° 0 min 0,000 mm 0,0 UV-I 0 W/m² -9,0 °C 1,6 km/h (1 Bft)
29.11.2016 22:44 -7,8 °C -7,8 °C 92 % 1035,1 hPa 0,0 mm 0,1 km/h (0 Bft) O-SO 108 ° 0 min 0,000 mm 0,0 UV-I 0 W/m² -8,9 °C 1,6 km/h (1 Bft)
29.11.2016 22:45 -7,8 °C -7,8 °C 92 % 1035,0 hPa 0,0 mm 0,0 km/h (0 Bft) O-SO 108 ° 0 min 0,000 mm 0,0 UV-I 0 W/m² -8,9 °C 0,0 km/h (0 Bft)
29.11.2016 22:46 -7,8 °C -7,8 °C 92 % 1035,1 hPa 0,0 mm 0,0 km/h (0 Bft) O-SO 108 ° 0 min 0,000 mm 0,0 UV-I 0 W/m² -8,9 °C 0,0 km/h (0 Bft)
29.11.2016 22:47 -7,8 °C -7,8 °C 92 % 1035,0 hPa 0,0 mm 0,0 km/h (0 Bft) O-SO 108 ° 0 min 0,000 mm 0,0 UV-I 0 W/m² -8,9 °C 0,0 km/h (0 Bft)
29.11.2016 22:48 -7,8 °C -7,8 °C 92 % 1035,0 hPa 0,0 mm 0,0 km/h (0 Bft) O-SO 108 ° 0 min 0,000 mm 0,0 UV-I 0 W/m² -8,9 °C 0,0 km/h (0 Bft)
29.11.2016 22:49 -7,8 °C -7,8 °C 92 % 1035,0 hPa 0,0 mm 0,0 km/h (0 Bft) O-SO 108 ° 0 min 0,000 mm 0,0 UV-I 0 W/m² -8,9 °C 0,0 km/h (0 Bft)
29.11.2016 22:50 -7,8 °C -7,8 °C 92 % 1035,1 hPa 0,0 mm 0,0 km/h (0 Bft) O-SO 108 ° 0 min 0,000 mm 0,0 UV-I 0 W/m² -8,9 °C 0,0 km/h (0 Bft)
29.11.2016 22:51 -7,8 °C -7,8 °C 92 % 1035,1 hPa 0,0 mm 0,0 km/h (0 Bft) O-SO 108 ° 0 min 0,000 mm 0,0 UV-I 0 W/m² -8,9 °C 0,0 km/h (0 Bft)
29.11.2016 22:52 -7,8 °C -7,8 °C 92 % 1035,0 hPa 0,0 mm 0,0 km/h (0 Bft) O-SO 108 ° 0 min 0,000 mm 0,0 UV-I 0 W/m² -8,9 °C 0,0 km/h (0 Bft)
29.11.2016 22:53 -7,8 °C -7,8 °C 92 % 1035,1 hPa 0,0 mm 0,0 km/h (0 Bft) O-SO 108 ° 0 min 0,000 mm 0,0 UV-I 0 W/m² -8,9 °C 0,0 km/h (0 Bft)
29.11.2016 22:54 -7,8 °C -7,8 °C 92 % 1035,1 hPa 0,0 mm 0,0 km/h (0 Bft) O-SO 108 ° 0 min 0,000 mm 0,0 UV-I 0 W/m² -8,9 °C 0,0 km/h (0 Bft)
29.11.2016 22:55 -7,8 °C -7,8 °C 92 % 1035,1 hPa 0,0 mm 0,0 km/h (0 Bft) O-SO 108 ° 0 min 0,000 mm 0,0 UV-I 0 W/m² -8,9 °C 0,0 km/h (0 Bft)
29.11.2016 22:56 -7,8 °C -7,8 °C 92 % 1035,2 hPa 0,0 mm 0,0 km/h (0 Bft) O-SO 108 ° 0 min 0,000 mm 0,0 UV-I 0 W/m² -8,9 °C 0,0 km/h (0 Bft)
29.11.2016 22:57 -7,9 °C -7,8 °C 92 % 1035,2 hPa 0,0 mm 0,0 km/h (0 Bft) O-SO 108 ° 0 min 0,000 mm 0,0 UV-I 0 W/m² -9,0 °C 0,0 km/h (0 Bft)
29.11.2016 22:58 -7,9 °C -7,8 °C 92 % 1035,2 hPa 0,0 mm 0,1 km/h (0 Bft) O-SO 108 ° 0 min 0,000 mm 0,0 UV-I 0 W/m² -9,0 °C 1,6 km/h (1 Bft)
29.11.2016 22:59 -7,9 °C -7,8 °C 92 % 1035,2 hPa 0,0 mm 0,0 km/h (0 Bft) O-SO 108 ° 0 min 0,000 mm 0,0 UV-I 0 W/m² -9,0 °C 0,0 km/h (0 Bft)
29.11.2016 23:00 -7,9 °C -7,9 °C 92 % 1035,2 hPa 0,0 mm 0,0 km/h (0 Bft) O-SO 108 ° 0 min 0,000 mm 0,0 UV-I 0 W/m² -9,0 °C 0,0 km/h (0 Bft)
29.11.2016 23:01 -7,9 °C -7,9 °C 92 % 1035,2 hPa 0,0 mm 0,0 km/h (0 Bft) O-SO 108 ° 0 min 0,000 mm 0,0 UV-I 0 W/m² -9,0 °C 0,0 km/h (0 Bft)
29.11.2016 23:02 -7,9 °C -7,9 °C 92 % 1035,2 hPa 0,0 mm 0,0 km/h (0 Bft) O-SO 108 ° 0 min 0,000 mm 0,0 UV-I 0 W/m² -9,0 °C 0,0 km/h (0 Bft)
29.11.2016 23:03 -7,9 °C -7,9 °C 92 % 1035,2 hPa 0,0 mm 0,3 km/h (0 Bft) O-SO 108 ° 0 min 0,000 mm 0,0 UV-I 0 W/m² -9,0 °C 1,6 km/h (1 Bft)
29.11.2016 23:04 -7,9 °C -7,9 °C 92 % 1035,2 hPa 0,0 mm 0,1 km/h (0 Bft) O-SO 108 ° 0 min 0,000 mm 0,0 UV-I 0 W/m² -9,0 °C 1,6 km/h (1 Bft)
29.11.2016 23:05 -7,9 °C -7,9 °C 92 % 1035,2 hPa 0,0 mm 0,0 km/h (0 Bft) O-SO 108 ° 0 min 0,000 mm 0,0 UV-I 0 W/m² -9,0 °C 0,0 km/h (0 Bft)
29.11.2016 23:06 -7,9 °C -7,9 °C 92 % 1035,2 hPa 0,0 mm 0,0 km/h (0 Bft) O-SO 108 ° 0 min 0,000 mm 0,0 UV-I 0 W/m² -9,0 °C 0,0 km/h (0 Bft)
29.11.2016 23:07 -7,9 °C -7,9 °C 92 % 1035,2 hPa 0,0 mm 0,0 km/h (0 Bft) O-SO 108 ° 0 min 0,000 mm 0,0 UV-I 0 W/m² -9,0 °C 0,0 km/h (0 Bft)
29.11.2016 23:08 -7,9 °C -7,9 °C 92 % 1035,2 hPa 0,0 mm 0,5 km/h (0 Bft) O-SO 108 ° 0 min 0,000 mm 0,0 UV-I 0 W/m² -9,0 °C 1,6 km/h (1 Bft)
29.11.2016 23:09 -8,0 °C -7,9 °C 92 % 1035,3 hPa 0,0 mm 1,5 km/h (1 Bft) O-SO 108 ° 0 min 0,000 mm 0,0 UV-I 0 W/m² -9,1 °C 1,6 km/h (1 Bft)
29.11.2016 23:10 -7,9 °C -7,9 °C 92 % 1035,3 hPa 0,0 mm 1,0 km/h (0 Bft) O-SO 108 ° 0 min 0,000 mm 0,0 UV-I 0 W/m² -9,0 °C 1,6 km/h (1 Bft)
29.11.2016 23:11 -7,9 °C -7,9 °C 92 % 1035,3 hPa 0,0 mm 0,5 km/h (0 Bft) O-SO 108 ° 0 min 0,000 mm 0,0 UV-I 0 W/m² -9,0 °C 1,6 km/h (1 Bft)
29.11.2016 23:12 -7,9 °C -7,9 °C 92 % 1035,3 hPa 0,0 mm 0,6 km/h (0 Bft) O-SO 108 ° 0 min 0,000 mm 0,0 UV-I 0 W/m² -9,0 °C 1,6 km/h (1 Bft)
29.11.2016 23:13 -8,0 °C -7,9 °C 92 % 1035,3 hPa 0,0 mm 1,1 km/h (1 Bft) O-SO 108 ° 0 min 0,000 mm 0,0 UV-I 0 W/m² -9,1 °C 1,6 km/h (1 Bft)
29.11.2016 23:14 -8,0 °C -8,0 °C 92 % 1035,3 hPa 0,0 mm 1,1 km/h (1 Bft) O-SO 108 ° 0 min 0,000 mm 0,0 UV-I 0 W/m² -9,1 °C 1,6 km/h (1 Bft)
29.11.2016 23:15 -8,0 °C -7,9 °C 92 % 1035,3 hPa 0,0 mm 0,8 km/h (0 Bft) O-SO 108 ° 0 min 0,000 mm 0,0 UV-I 0 W/m² -9,1 °C 1,6 km/h (1 Bft)
29.11.2016 23:16 -8,0 °C -8,0 °C 92 % 1035,4 hPa 0,0 mm 0,1 km/h (0 Bft) O-SO 108 ° 0 min 0,000 mm 0,0 UV-I 0 W/m² -9,1 °C 1,6 km/h (1 Bft)
29.11.2016 23:17 -8,0 °C -8,0 °C 92 % 1035,4 hPa 0,0 mm 0,0 km/h (0 Bft) O-SO 108 ° 0 min 0,000 mm 0,0 UV-I 0 W/m² -9,1 °C 0,0 km/h (0 Bft)
29.11.2016 23:18 -8,0 °C -8,0 °C 92 % 1035,4 hPa 0,0 mm 0,4 km/h (0 Bft) O-SO 108 ° 0 min 0,000 mm 0,0 UV-I 0 W/m² -9,1 °C 1,6 km/h (1 Bft)
29.11.2016 23:19 -8,0 °C -8,0 °C 92 % 1035,4 hPa 0,0 mm 0,2 km/h (0 Bft) O-SO 108 ° 0 min 0,000 mm 0,0 UV-I 0 W/m² -9,1 °C 1,6 km/h (1 Bft)
29.11.2016 23:20 -8,0 °C -8,0 °C 92 % 1035,4 hPa 0,0 mm 0,0 km/h (0 Bft) O-SO 108 ° 0 min 0,000 mm 0,0 UV-I 0 W/m² -9,1 °C 0,0 km/h (0 Bft)
29.11.2016 23:21 -8,0 °C -8,0 °C 92 % 1035,4 hPa 0,0 mm 0,0 km/h (0 Bft) O-SO 108 ° 0 min 0,000 mm 0,0 UV-I 0 W/m² -9,1 °C 0,0 km/h (0 Bft)
29.11.2016 23:22 -8,0 °C -8,0 °C 92 % 1035,4 hPa 0,0 mm 0,0 km/h (0 Bft) O-SO 108 ° 0 min 0,000 mm 0,0 UV-I 0 W/m² -9,1 °C 0,0 km/h (0 Bft)
29.11.2016 23:23 -8,1 °C -8,0 °C 92 % 1035,4 hPa 0,0 mm 0,0 km/h (0 Bft) O-SO 108 ° 0 min 0,000 mm 0,0 UV-I 0 W/m² -9,2 °C 0,0 km/h (0 Bft)
29.11.2016 23:24 -8,0 °C -8,0 °C 92 % 1035,4 hPa 0,0 mm 0,0 km/h (0 Bft) O-SO 108 ° 0 min 0,000 mm 0,0 UV-I 0 W/m² -9,1 °C 0,0 km/h (0 Bft)
29.11.2016 23:25 -8,0 °C -8,0 °C 92 % 1035,5 hPa 0,0 mm 0,0 km/h (0 Bft) O-SO 108 ° 0 min 0,000 mm 0,0 UV-I 0 W/m² -9,1 °C 0,0 km/h (0 Bft)
29.11.2016 23:26 -8,0 °C -8,0 °C 92 % 1035,5 hPa 0,0 mm 0,0 km/h (0 Bft) O-SO 108 ° 0 min 0,000 mm 0,0 UV-I 0 W/m² -9,1 °C 0,0 km/h (0 Bft)
29.11.2016 23:27 -8,1 °C -8,0 °C 92 % 1035,4 hPa 0,0 mm 0,1 km/h (0 Bft) O-SO 108 ° 0 min 0,000 mm 0,0 UV-I 0 W/m² -9,2 °C 1,6 km/h (1 Bft)
29.11.2016 23:28 -8,1 °C -8,1 °C 92 % 1035,5 hPa 0,0 mm 0,0 km/h (0 Bft) O-SO 108 ° 0 min 0,000 mm 0,0 UV-I 0 W/m² -9,2 °C 0,0 km/h (0 Bft)
29.11.2016 23:29 -8,0 °C -8,0 °C 92 % 1035,5 hPa 0,0 mm 0,0 km/h (0 Bft) O-SO 108 ° 0 min 0,000 mm 0,0 UV-I 0 W/m² -9,1 °C 0,0 km/h (0 Bft)
29.11.2016 23:30 -8,1 °C -8,0 °C 92 % 1035,5 hPa 0,0 mm 0,0 km/h (0 Bft) O-SO 108 ° 0 min 0,000 mm 0,0 UV-I 0 W/m² -9,2 °C 0,0 km/h (0 Bft)
29.11.2016 23:31 -8,1 °C -8,1 °C 92 % 1035,5 hPa 0,0 mm 0,0 km/h (0 Bft) O-SO 108 ° 0 min 0,000 mm 0,0 UV-I 0 W/m² -9,2 °C 0,0 km/h (0 Bft)
29.11.2016 23:32 -8,1 °C -8,1 °C 92 % 1035,5 hPa 0,0 mm 0,0 km/h (0 Bft) O-SO 108 ° 0 min 0,000 mm 0,0 UV-I 0 W/m² -9,2 °C 0,0 km/h (0 Bft)
29.11.2016 23:33 -8,1 °C -8,1 °C 92 % 1035,5 hPa 0,0 mm 0,0 km/h (0 Bft) O-SO 108 ° 0 min 0,000 mm 0,0 UV-I 0 W/m² -9,2 °C 0,0 km/h (0 Bft)
29.11.2016 23:34 -8,1 °C -8,1 °C 92 % 1035,5 hPa 0,0 mm 0,0 km/h (0 Bft) O-SO 108 ° 0 min 0,000 mm 0,0 UV-I 0 W/m² -9,2 °C 0,0 km/h (0 Bft)
29.11.2016 23:35 -8,1 °C -8,1 °C 92 % 1035,5 hPa 0,0 mm 0,0 km/h (0 Bft) O-SO 108 ° 0 min 0,000 mm 0,0 UV-I 0 W/m² -9,2 °C 0,0 km/h (0 Bft)
29.11.2016 23:36 -8,1 °C -8,1 °C 92 % 1035,5 hPa 0,0 mm 0,0 km/h (0 Bft) O-SO 108 ° 0 min 0,000 mm 0,0 UV-I 0 W/m² -9,2 °C 0,0 km/h (0 Bft)
29.11.2016 23:37 -8,1 °C -8,1 °C 92 % 1035,6 hPa 0,0 mm 0,0 km/h (0 Bft) O-SO 108 ° 0 min 0,000 mm 0,0 UV-I 0 W/m² -9,2 °C 0,0 km/h (0 Bft)
29.11.2016 23:38 -8,2 °C -8,1 °C 92 % 1035,5 hPa 0,0 mm 0,0 km/h (0 Bft) O-SO 108 ° 0 min 0,000 mm 0,0 UV-I 0 W/m² -9,3 °C 0,0 km/h (0 Bft)
29.11.2016 23:39 -8,2 °C -8,2 °C 92 % 1035,4 hPa 0,0 mm 0,0 km/h (0 Bft) O-SO 108 ° 0 min 0,000 mm 0,0 UV-I 0 W/m² -9,3 °C 0,0 km/h (0 Bft)
29.11.2016 23:40 -8,2 °C -8,2 °C 92 % 1035,5 hPa 0,0 mm 0,0 km/h (0 Bft) O-SO 108 ° 0 min 0,000 mm 0,0 UV-I 0 W/m² -9,3 °C 0,0 km/h (0 Bft)
29.11.2016 23:41 -8,2 °C -8,2 °C 92 % 1035,5 hPa 0,0 mm 0,0 km/h (0 Bft) O-SO 108 ° 0 min 0,000 mm 0,0 UV-I 0 W/m² -9,3 °C 0,0 km/h (0 Bft)
29.11.2016 23:42 -8,2 °C -8,2 °C 92 % 1035,4 hPa 0,0 mm 0,0 km/h (0 Bft) O-SO 108 ° 0 min 0,000 mm 0,0 UV-I 0 W/m² -9,3 °C 0,0 km/h (0 Bft)
29.11.2016 23:43 -8,2 °C -8,2 °C 92 % 1035,4 hPa 0,0 mm 0,0 km/h (0 Bft) O-SO 108 ° 0 min 0,000 mm 0,0 UV-I 0 W/m² -9,3 °C 0,0 km/h (0 Bft)
29.11.2016 23:44 -8,2 °C -8,2 °C 92 % 1035,4 hPa 0,0 mm 0,0 km/h (0 Bft) O-SO 108 ° 0 min 0,000 mm 0,0 UV-I 0 W/m² -9,3 °C 0,0 km/h (0 Bft)
29.11.2016 23:45 -8,2 °C -8,2 °C 92 % 1035,4 hPa 0,0 mm 0,0 km/h (0 Bft) O-SO 108 ° 0 min 0,000 mm 0,0 UV-I 0 W/m² -9,3 °C 0,0 km/h (0 Bft)
29.11.2016 23:46 -8,2 °C -8,2 °C 92 % 1035,4 hPa 0,0 mm 0,0 km/h (0 Bft) O-SO 108 ° 0 min 0,000 mm 0,0 UV-I 0 W/m² -9,3 °C 0,0 km/h (0 Bft)
29.11.2016 23:47 -8,2 °C -8,2 °C 92 % 1035,4 hPa 0,0 mm 0,0 km/h (0 Bft) O-SO 108 ° 0 min 0,000 mm 0,0 UV-I 0 W/m² -9,3 °C 0,0 km/h (0 Bft)
29.11.2016 23:48 -8,3 °C -8,2 °C 92 % 1035,4 hPa 0,0 mm 0,0 km/h (0 Bft) O-SO 108 ° 0 min 0,000 mm 0,0 UV-I 0 W/m² -9,4 °C 0,0 km/h (0 Bft)
29.11.2016 23:49 -8,3 °C -8,2 °C 92 % 1035,4 hPa 0,0 mm 0,0 km/h (0 Bft) O-SO 108 ° 0 min 0,000 mm 0,0 UV-I 0 W/m² -9,4 °C 0,0 km/h (0 Bft)
29.11.2016 23:50 -8,2 °C -8,2 °C 92 % 1035,4 hPa 0,0 mm 0,0 km/h (0 Bft) O-SO 108 ° 0 min 0,000 mm 0,0 UV-I 0 W/m² -9,3 °C 0,0 km/h (0 Bft)
29.11.2016 23:51 -8,3 °C -8,2 °C 92 % 1035,4 hPa 0,0 mm 0,0 km/h (0 Bft) O-SO 108 ° 0 min 0,000 mm 0,0 UV-I 0 W/m² -9,4 °C 0,0 km/h (0 Bft)
29.11.2016 23:52 -8,3 °C -8,3 °C 92 % 1035,4 hPa 0,0 mm 0,0 km/h (0 Bft) O-SO 108 ° 0 min 0,000 mm 0,0 UV-I 0 W/m² -9,4 °C 0,0 km/h (0 Bft)
29.11.2016 23:53 -8,3 °C -8,3 °C 92 % 1035,5 hPa 0,0 mm 0,0 km/h (0 Bft) O-SO 108 ° 0 min 0,000 mm 0,0 UV-I 0 W/m² -9,4 °C 0,0 km/h (0 Bft)
29.11.2016 23:54 -8,3 °C -8,3 °C 92 % 1035,5 hPa 0,0 mm 0,0 km/h (0 Bft) O-SO 108 ° 0 min 0,000 mm 0,0 UV-I 0 W/m² -9,4 °C 0,0 km/h (0 Bft)
29.11.2016 23:55 -8,3 °C -8,3 °C 92 % 1035,5 hPa 0,0 mm 0,0 km/h (0 Bft) O-SO 108 ° 0 min 0,000 mm 0,0 UV-I 0 W/m² -9,4 °C 0,0 km/h (0 Bft)
29.11.2016 23:56 -8,3 °C -8,3 °C 92 % 1035,5 hPa 0,0 mm 0,0 km/h (0 Bft) O-SO 108 ° 0 min 0,000 mm 0,0 UV-I 0 W/m² -9,4 °C 0,0 km/h (0 Bft)
29.11.2016 23:57 -8,3 °C -8,3 °C 92 % 1035,5 hPa 0,0 mm 0,0 km/h (0 Bft) O-SO 108 ° 0 min 0,000 mm 0,0 UV-I 0 W/m² -9,4 °C 0,0 km/h (0 Bft)
29.11.2016 23:58 -8,3 °C -8,3 °C 92 % 1035,5 hPa 0,0 mm 0,0 km/h (0 Bft) O-SO 108 ° 0 min 0,000 mm 0,0 UV-I 0 W/m² -9,4 °C 0,0 km/h (0 Bft)
29.11.2016 23:59 -8,3 °C -8,3 °C 92 % 1035,5 hPa 0,0 mm 0,0 km/h (0 Bft) O-SO 108 ° 0 min 0,000 mm 0,0 UV-I 0 W/m² -9,4 °C 0,0 km/h (0 Bft)
_ Min-Zeit 23:59 23:59 14:38 00:06 - 23:59 - - - - - - 23:59 23:59
Minimum _ -8,3 °C -8,3 °C 80 % 1029,4 hPa - 0,0 km/h (0 Bft) - - - - - - -9,4 °C 0,0 km/h (0 Bft)
_ Max-Zeit 14:40 14:41 05:31 23:37 23:59 09:45 - - 13:57 15:01 13:44 13:56 15:57 13:21
Maximum _ -2,3 °C -2,3 °C 95 % 1035,6 hPa 0,0 mm 9,5 km/h
O-NO (2 Bft)
- - 1 min 0,026 mm 0,9 UV-I 229 W/m² -5,0 °C 14,5 km/h
O (3 Bft)
Durchschnitt _ -5,9 °C -5,9 °C 90 % 1032,7 hPa #0,0 mm 2,4 km/h (1 Bft) O - #12 min. #0,051 mm 0,7 UV-I 11 W/m² -7,3 °C 3,9 km/h (1 Bft)